<?xml version="1.0" encoding="UTF-8" standalone="no" ?>
<gpx xmlns="http://www.topografix.com/GPX/1/1" xmlns:xsi="http://www.w3.org/2001/XMLSchema-instance" xsi:schemaLocation="http://www.topografix.com/GPX/1/1 http://www.topografix.com/GPX/1/1/gpx.xsd" version="1.1" creator="VisuGPX - https://www.visugpx.com">
  <metadata>
    <name>gouaux</name>
    <desc><![CDATA[stage 13 01 2013]]></desc>
  </metadata>
  <trk>
    <name><![CDATA[Tracé actuel: 13 JAN 2013 10:47]]></name>
    <trkseg>
      <trkpt lat="42.77839" lon="0.48267">
        <ele>1588.24</ele>
        <time>2013-01-13T09:47:04Z</time>
      </trkpt>
      <trkpt lat="42.77839" lon="0.48266">
        <ele>1586.79</ele>
        <time>2013-01-13T09:47:05Z</time>
      </trkpt>
      <trkpt lat="42.77803" lon="0.48088">
        <ele>1587.75</ele>
        <time>2013-01-13T09:47:28Z</time>
      </trkpt>
      <trkpt lat="42.77792" lon="0.48023">
        <ele>1580.54</ele>
        <time>2013-01-13T09:47:33Z</time>
      </trkpt>
      <trkpt lat="42.77791" lon="0.48011">
        <ele>1579.1</ele>
        <time>2013-01-13T09:47:35Z</time>
      </trkpt>
      <trkpt lat="42.77789" lon="0.48001">
        <ele>1575.26</ele>
        <time>2013-01-13T09:47:37Z</time>
      </trkpt>
      <trkpt lat="42.77787" lon="0.47985">
        <ele>1571.89</ele>
        <time>2013-01-13T09:47:39Z</time>
      </trkpt>
      <trkpt lat="42.77786" lon="0.47972">
        <ele>1569.01</ele>
        <time>2013-01-13T09:47:42Z</time>
      </trkpt>
      <trkpt lat="42.77786" lon="0.47969">
        <ele>1565.64</ele>
        <time>2013-01-13T09:47:45Z</time>
      </trkpt>
      <trkpt lat="42.77786" lon="0.47965">
        <ele>1562.28</ele>
        <time>2013-01-13T09:47:51Z</time>
      </trkpt>
      <trkpt lat="42.77786" lon="0.47965">
        <ele>1562.28</ele>
        <time>2013-01-13T09:47:52Z</time>
      </trkpt>
      <trkpt lat="42.77786" lon="0.47966">
        <ele>1558.92</ele>
        <time>2013-01-13T09:48:03Z</time>
      </trkpt>
      <trkpt lat="42.77786" lon="0.47965">
        <ele>1555.55</ele>
        <time>2013-01-13T09:48:24Z</time>
      </trkpt>
      <trkpt lat="42.77786" lon="0.47958">
        <ele>1558.92</ele>
        <time>2013-01-13T09:48:36Z</time>
      </trkpt>
      <trkpt lat="42.77786" lon="0.47957">
        <ele>1553.15</ele>
        <time>2013-01-13T09:48:37Z</time>
      </trkpt>
      <trkpt lat="42.77786" lon="0.47957">
        <ele>1554.11</ele>
        <time>2013-01-13T09:48:38Z</time>
      </trkpt>
      <trkpt lat="42.77785" lon="0.47956">
        <ele>1557.47</ele>
        <time>2013-01-13T09:48:40Z</time>
      </trkpt>
      <trkpt lat="42.77784" lon="0.47955">
        <ele>1557.47</ele>
        <time>2013-01-13T09:48:44Z</time>
      </trkpt>
      <trkpt lat="42.77784" lon="0.47955">
        <ele>1556.99</ele>
        <time>2013-01-13T09:48:46Z</time>
      </trkpt>
      <trkpt lat="42.77784" lon="0.47955">
        <ele>1556.51</ele>
        <time>2013-01-13T09:49:04Z</time>
      </trkpt>
      <trkpt lat="42.77784" lon="0.47954">
        <ele>1556.99</ele>
        <time>2013-01-13T09:49:29Z</time>
      </trkpt>
      <trkpt lat="42.77784" lon="0.47954">
        <ele>1553.63</ele>
        <time>2013-01-13T09:49:43Z</time>
      </trkpt>
      <trkpt lat="42.77784" lon="0.47954">
        <ele>1557.95</ele>
        <time>2013-01-13T09:49:44Z</time>
      </trkpt>
      <trkpt lat="42.77784" lon="0.47954">
        <ele>1557.95</ele>
        <time>2013-01-13T09:49:45Z</time>
      </trkpt>
      <trkpt lat="42.77781" lon="0.47957">
        <ele>1557.47</ele>
        <time>2013-01-13T09:50:01Z</time>
      </trkpt>
      <trkpt lat="42.77778" lon="0.47963">
        <ele>1558.43</ele>
        <time>2013-01-13T09:50:14Z</time>
      </trkpt>
      <trkpt lat="42.77774" lon="0.47968">
        <ele>1559.4</ele>
        <time>2013-01-13T09:50:21Z</time>
      </trkpt>
      <trkpt lat="42.77769" lon="0.47976">
        <ele>1560.36</ele>
        <time>2013-01-13T09:50:34Z</time>
      </trkpt>
      <trkpt lat="42.77766" lon="0.47979">
        <ele>1562.28</ele>
        <time>2013-01-13T09:50:41Z</time>
      </trkpt>
      <trkpt lat="42.7776" lon="0.47984">
        <ele>1564.68</ele>
        <time>2013-01-13T09:50:56Z</time>
      </trkpt>
      <trkpt lat="42.77752" lon="0.47985">
        <ele>1567.57</ele>
        <time>2013-01-13T09:51:13Z</time>
      </trkpt>
      <trkpt lat="42.77749" lon="0.47976">
        <ele>1569.01</ele>
        <time>2013-01-13T09:51:27Z</time>
      </trkpt>
      <trkpt lat="42.77745" lon="0.47968">
        <ele>1571.89</ele>
        <time>2013-01-13T09:51:41Z</time>
      </trkpt>
      <trkpt lat="42.77742" lon="0.47962">
        <ele>1573.33</ele>
        <time>2013-01-13T09:51:50Z</time>
      </trkpt>
      <trkpt lat="42.77736" lon="0.47951">
        <ele>1574.78</ele>
        <time>2013-01-13T09:52:04Z</time>
      </trkpt>
      <trkpt lat="42.77734" lon="0.4795">
        <ele>1574.78</ele>
        <time>2013-01-13T09:52:06Z</time>
      </trkpt>
      <trkpt lat="42.77727" lon="0.4794">
        <ele>1576.7</ele>
        <time>2013-01-13T09:52:22Z</time>
      </trkpt>
      <trkpt lat="42.77725" lon="0.47939">
        <ele>1576.22</ele>
        <time>2013-01-13T09:52:25Z</time>
      </trkpt>
      <trkpt lat="42.77719" lon="0.47931">
        <ele>1577.18</ele>
        <time>2013-01-13T09:52:39Z</time>
      </trkpt>
      <trkpt lat="42.77719" lon="0.47931">
        <ele>1577.18</ele>
        <time>2013-01-13T09:52:57Z</time>
      </trkpt>
      <trkpt lat="42.77719" lon="0.47931">
        <ele>1577.66</ele>
        <time>2013-01-13T09:53:22Z</time>
      </trkpt>
      <trkpt lat="42.77719" lon="0.47931">
        <ele>1577.66</ele>
        <time>2013-01-13T09:53:47Z</time>
      </trkpt>
      <trkpt lat="42.77719" lon="0.47931">
        <ele>1577.18</ele>
        <time>2013-01-13T09:54:14Z</time>
      </trkpt>
      <trkpt lat="42.77719" lon="0.47931">
        <ele>1577.18</ele>
        <time>2013-01-13T09:54:43Z</time>
      </trkpt>
      <trkpt lat="42.77719" lon="0.47931">
        <ele>1577.66</ele>
        <time>2013-01-13T09:55:02Z</time>
      </trkpt>
      <trkpt lat="42.77719" lon="0.47931">
        <ele>1577.66</ele>
        <time>2013-01-13T09:55:23Z</time>
      </trkpt>
      <trkpt lat="42.77717" lon="0.47932">
        <ele>1577.66</ele>
        <time>2013-01-13T09:55:38Z</time>
      </trkpt>
      <trkpt lat="42.77713" lon="0.47927">
        <ele>1578.62</ele>
        <time>2013-01-13T09:55:52Z</time>
      </trkpt>
      <trkpt lat="42.7771" lon="0.47924">
        <ele>1580.06</ele>
        <time>2013-01-13T09:56:16Z</time>
      </trkpt>
      <trkpt lat="42.77709" lon="0.47924">
        <ele>1581.51</ele>
        <time>2013-01-13T09:56:19Z</time>
      </trkpt>
      <trkpt lat="42.77701" lon="0.47927">
        <ele>1583.91</ele>
        <time>2013-01-13T09:56:31Z</time>
      </trkpt>
      <trkpt lat="42.77694" lon="0.47922">
        <ele>1585.83</ele>
        <time>2013-01-13T09:56:45Z</time>
      </trkpt>
      <trkpt lat="42.77691" lon="0.47923">
        <ele>1587.75</ele>
        <time>2013-01-13T09:56:56Z</time>
      </trkpt>
      <trkpt lat="42.77682" lon="0.47927">
        <ele>1590.16</ele>
        <time>2013-01-13T09:57:08Z</time>
      </trkpt>
      <trkpt lat="42.77679" lon="0.47928">
        <ele>1591.6</ele>
        <time>2013-01-13T09:57:23Z</time>
      </trkpt>
      <trkpt lat="42.77677" lon="0.47925">
        <ele>1591.6</ele>
        <time>2013-01-13T09:57:36Z</time>
      </trkpt>
      <trkpt lat="42.77677" lon="0.47925">
        <ele>1592.08</ele>
        <time>2013-01-13T09:57:51Z</time>
      </trkpt>
      <trkpt lat="42.77676" lon="0.47925">
        <ele>1592.08</ele>
        <time>2013-01-13T09:58:10Z</time>
      </trkpt>
      <trkpt lat="42.77676" lon="0.47925">
        <ele>1592.08</ele>
        <time>2013-01-13T09:58:34Z</time>
      </trkpt>
      <trkpt lat="42.77676" lon="0.47925">
        <ele>1592.08</ele>
        <time>2013-01-13T09:58:58Z</time>
      </trkpt>
      <trkpt lat="42.77675" lon="0.47927">
        <ele>1593.04</ele>
        <time>2013-01-13T09:59:18Z</time>
      </trkpt>
      <trkpt lat="42.77673" lon="0.47929">
        <ele>1593.52</ele>
        <time>2013-01-13T09:59:22Z</time>
      </trkpt>
      <trkpt lat="42.7767" lon="0.47936">
        <ele>1596.41</ele>
        <time>2013-01-13T09:59:33Z</time>
      </trkpt>
      <trkpt lat="42.77669" lon="0.47942">
        <ele>1598.81</ele>
        <time>2013-01-13T09:59:46Z</time>
      </trkpt>
      <trkpt lat="42.7766" lon="0.4794">
        <ele>1599.29</ele>
        <time>2013-01-13T09:59:59Z</time>
      </trkpt>
      <trkpt lat="42.77652" lon="0.47937">
        <ele>1601.21</ele>
        <time>2013-01-13T10:00:13Z</time>
      </trkpt>
      <trkpt lat="42.77652" lon="0.47936">
        <ele>1601.21</ele>
        <time>2013-01-13T10:00:16Z</time>
      </trkpt>
      <trkpt lat="42.77651" lon="0.4793">
        <ele>1601.21</ele>
        <time>2013-01-13T10:00:31Z</time>
      </trkpt>
      <trkpt lat="42.77651" lon="0.47926">
        <ele>1600.73</ele>
        <time>2013-01-13T10:00:47Z</time>
      </trkpt>
      <trkpt lat="42.77652" lon="0.47923">
        <ele>1600.25</ele>
        <time>2013-01-13T10:01:00Z</time>
      </trkpt>
      <trkpt lat="42.77652" lon="0.47923">
        <ele>1600.25</ele>
        <time>2013-01-13T10:01:22Z</time>
      </trkpt>
      <trkpt lat="42.77652" lon="0.47922">
        <ele>1599.77</ele>
        <time>2013-01-13T10:01:45Z</time>
      </trkpt>
      <trkpt lat="42.77652" lon="0.47922">
        <ele>1600.73</ele>
        <time>2013-01-13T10:02:06Z</time>
      </trkpt>
      <trkpt lat="42.77652" lon="0.47922">
        <ele>1596.41</ele>
        <time>2013-01-13T10:02:12Z</time>
      </trkpt>
      <trkpt lat="42.77652" lon="0.47922">
        <ele>1601.21</ele>
        <time>2013-01-13T10:02:13Z</time>
      </trkpt>
      <trkpt lat="42.77652" lon="0.47922">
        <ele>1600.73</ele>
        <time>2013-01-13T10:02:14Z</time>
      </trkpt>
      <trkpt lat="42.77652" lon="0.47922">
        <ele>1599.77</ele>
        <time>2013-01-13T10:02:16Z</time>
      </trkpt>
      <trkpt lat="42.77652" lon="0.47919">
        <ele>1600.73</ele>
        <time>2013-01-13T10:02:39Z</time>
      </trkpt>
      <trkpt lat="42.77652" lon="0.47919">
        <ele>1596.89</ele>
        <time>2013-01-13T10:02:53Z</time>
      </trkpt>
      <trkpt lat="42.77652" lon="0.47919">
        <ele>1600.25</ele>
        <time>2013-01-13T10:02:54Z</time>
      </trkpt>
      <trkpt lat="42.77652" lon="0.47918">
        <ele>1600.73</ele>
        <time>2013-01-13T10:03:13Z</time>
      </trkpt>
      <trkpt lat="42.77652" lon="0.47917">
        <ele>1600.25</ele>
        <time>2013-01-13T10:03:24Z</time>
      </trkpt>
      <trkpt lat="42.77652" lon="0.47917">
        <ele>1600.25</ele>
        <time>2013-01-13T10:03:50Z</time>
      </trkpt>
      <trkpt lat="42.77652" lon="0.47917">
        <ele>1599.77</ele>
        <time>2013-01-13T10:04:15Z</time>
      </trkpt>
      <trkpt lat="42.77652" lon="0.47917">
        <ele>1600.73</ele>
        <time>2013-01-13T10:04:38Z</time>
      </trkpt>
      <trkpt lat="42.77652" lon="0.47917">
        <ele>1604.1</ele>
        <time>2013-01-13T10:04:56Z</time>
      </trkpt>
      <trkpt lat="42.77652" lon="0.47917">
        <ele>1585.83</ele>
        <time>2013-01-13T10:04:57Z</time>
      </trkpt>
      <trkpt lat="42.77652" lon="0.47917">
        <ele>1602.66</ele>
        <time>2013-01-13T10:04:58Z</time>
      </trkpt>
      <trkpt lat="42.77652" lon="0.47917">
        <ele>1612.75</ele>
        <time>2013-01-13T10:04:59Z</time>
      </trkpt>
      <trkpt lat="42.77652" lon="0.47917">
        <ele>1601.21</ele>
        <time>2013-01-13T10:05:00Z</time>
      </trkpt>
      <trkpt lat="42.77652" lon="0.47917">
        <ele>1600.25</ele>
        <time>2013-01-13T10:05:24Z</time>
      </trkpt>
      <trkpt lat="42.77652" lon="0.47917">
        <ele>1598.81</ele>
        <time>2013-01-13T10:05:43Z</time>
      </trkpt>
      <trkpt lat="42.77652" lon="0.47917">
        <ele>1600.25</ele>
        <time>2013-01-13T10:06:14Z</time>
      </trkpt>
      <trkpt lat="42.77652" lon="0.47917">
        <ele>1600.25</ele>
        <time>2013-01-13T10:06:40Z</time>
      </trkpt>
      <trkpt lat="42.77653" lon="0.47917">
        <ele>1600.25</ele>
        <time>2013-01-13T10:07:09Z</time>
      </trkpt>
      <trkpt lat="42.77653" lon="0.47917">
        <ele>1599.77</ele>
        <time>2013-01-13T10:07:37Z</time>
      </trkpt>
      <trkpt lat="42.77653" lon="0.47917">
        <ele>1600.73</ele>
        <time>2013-01-13T10:08:06Z</time>
      </trkpt>
      <trkpt lat="42.77653" lon="0.47917">
        <ele>1600.73</ele>
        <time>2013-01-13T10:08:37Z</time>
      </trkpt>
      <trkpt lat="42.77653" lon="0.47917">
        <ele>1600.25</ele>
        <time>2013-01-13T10:09:05Z</time>
      </trkpt>
      <trkpt lat="42.77653" lon="0.47917">
        <ele>1600.25</ele>
        <time>2013-01-13T10:09:32Z</time>
      </trkpt>
      <trkpt lat="42.77653" lon="0.47917">
        <ele>1599.29</ele>
        <time>2013-01-13T10:09:57Z</time>
      </trkpt>
      <trkpt lat="42.77653" lon="0.47917">
        <ele>1600.25</ele>
        <time>2013-01-13T10:10:23Z</time>
      </trkpt>
      <trkpt lat="42.77653" lon="0.47918">
        <ele>1599.77</ele>
        <time>2013-01-13T10:10:47Z</time>
      </trkpt>
      <trkpt lat="42.77653" lon="0.47918">
        <ele>1599.29</ele>
        <time>2013-01-13T10:11:11Z</time>
      </trkpt>
      <trkpt lat="42.77654" lon="0.47918">
        <ele>1599.29</ele>
        <time>2013-01-13T10:11:39Z</time>
      </trkpt>
      <trkpt lat="42.77653" lon="0.47918">
        <ele>1599.29</ele>
        <time>2013-01-13T10:12:07Z</time>
      </trkpt>
      <trkpt lat="42.77653" lon="0.47918">
        <ele>1599.77</ele>
        <time>2013-01-13T10:12:29Z</time>
      </trkpt>
      <trkpt lat="42.77653" lon="0.47918">
        <ele>1599.77</ele>
        <time>2013-01-13T10:12:56Z</time>
      </trkpt>
      <trkpt lat="42.77653" lon="0.47918">
        <ele>1599.77</ele>
        <time>2013-01-13T10:13:26Z</time>
      </trkpt>
      <trkpt lat="42.77653" lon="0.47918">
        <ele>1598.81</ele>
        <time>2013-01-13T10:13:53Z</time>
      </trkpt>
      <trkpt lat="42.77652" lon="0.47917">
        <ele>1599.77</ele>
        <time>2013-01-13T10:14:17Z</time>
      </trkpt>
      <trkpt lat="42.77652" lon="0.47918">
        <ele>1600.25</ele>
        <time>2013-01-13T10:14:40Z</time>
      </trkpt>
      <trkpt lat="42.77652" lon="0.47917">
        <ele>1600.25</ele>
        <time>2013-01-13T10:14:55Z</time>
      </trkpt>
      <trkpt lat="42.77652" lon="0.47917">
        <ele>1600.73</ele>
        <time>2013-01-13T10:15:17Z</time>
      </trkpt>
      <trkpt lat="42.77648" lon="0.47916">
        <ele>1601.69</ele>
        <time>2013-01-13T10:15:34Z</time>
      </trkpt>
      <trkpt lat="42.77641" lon="0.47916">
        <ele>1604.1</ele>
        <time>2013-01-13T10:15:47Z</time>
      </trkpt>
      <trkpt lat="42.77635" lon="0.47915">
        <ele>1606.98</ele>
        <time>2013-01-13T10:15:59Z</time>
      </trkpt>
      <trkpt lat="42.77634" lon="0.47914">
        <ele>1609.38</ele>
        <time>2013-01-13T10:16:08Z</time>
      </trkpt>
      <trkpt lat="42.77634" lon="0.47914">
        <ele>1608.9</ele>
        <time>2013-01-13T10:16:27Z</time>
      </trkpt>
      <trkpt lat="42.77633" lon="0.47913">
        <ele>1609.38</ele>
        <time>2013-01-13T10:17:02Z</time>
      </trkpt>
      <trkpt lat="42.77633" lon="0.47913">
        <ele>1609.38</ele>
        <time>2013-01-13T10:17:24Z</time>
      </trkpt>
      <trkpt lat="42.77633" lon="0.47913">
        <ele>1608.9</ele>
        <time>2013-01-13T10:17:47Z</time>
      </trkpt>
      <trkpt lat="42.77633" lon="0.47913">
        <ele>1609.38</ele>
        <time>2013-01-13T10:18:15Z</time>
      </trkpt>
      <trkpt lat="42.77631" lon="0.47912">
        <ele>1609.86</ele>
        <time>2013-01-13T10:18:44Z</time>
      </trkpt>
      <trkpt lat="42.77626" lon="0.47912">
        <ele>1612.75</ele>
        <time>2013-01-13T10:18:56Z</time>
      </trkpt>
      <trkpt lat="42.77624" lon="0.47908">
        <ele>1614.19</ele>
        <time>2013-01-13T10:19:06Z</time>
      </trkpt>
      <trkpt lat="42.7762" lon="0.47909">
        <ele>1615.63</ele>
        <time>2013-01-13T10:19:19Z</time>
      </trkpt>
      <trkpt lat="42.77616" lon="0.47908">
        <ele>1617.56</ele>
        <time>2013-01-13T10:19:32Z</time>
      </trkpt>
      <trkpt lat="42.77615" lon="0.47905">
        <ele>1619</ele>
        <time>2013-01-13T10:19:44Z</time>
      </trkpt>
      <trkpt lat="42.77615" lon="0.47905">
        <ele>1619</ele>
        <time>2013-01-13T10:20:02Z</time>
      </trkpt>
      <trkpt lat="42.77614" lon="0.47903">
        <ele>1619.48</ele>
        <time>2013-01-13T10:20:24Z</time>
      </trkpt>
      <trkpt lat="42.77614" lon="0.47903">
        <ele>1619.96</ele>
        <time>2013-01-13T10:20:47Z</time>
      </trkpt>
      <trkpt lat="42.77614" lon="0.47903">
        <ele>1619.48</ele>
        <time>2013-01-13T10:21:14Z</time>
      </trkpt>
      <trkpt lat="42.77614" lon="0.47903">
        <ele>1619.96</ele>
        <time>2013-01-13T10:21:41Z</time>
      </trkpt>
      <trkpt lat="42.77613" lon="0.47903">
        <ele>1619</ele>
        <time>2013-01-13T10:22:10Z</time>
      </trkpt>
      <trkpt lat="42.77613" lon="0.47903">
        <ele>1619</ele>
        <time>2013-01-13T10:22:36Z</time>
      </trkpt>
      <trkpt lat="42.77613" lon="0.47903">
        <ele>1619</ele>
        <time>2013-01-13T10:23:08Z</time>
      </trkpt>
      <trkpt lat="42.77613" lon="0.47903">
        <ele>1619</ele>
        <time>2013-01-13T10:23:26Z</time>
      </trkpt>
      <trkpt lat="42.77613" lon="0.47903">
        <ele>1619</ele>
        <time>2013-01-13T10:23:54Z</time>
      </trkpt>
      <trkpt lat="42.77613" lon="0.47903">
        <ele>1619.48</ele>
        <time>2013-01-13T10:24:16Z</time>
      </trkpt>
      <trkpt lat="42.77613" lon="0.47903">
        <ele>1618.52</ele>
        <time>2013-01-13T10:24:42Z</time>
      </trkpt>
      <trkpt lat="42.77613" lon="0.47904">
        <ele>1619</ele>
        <time>2013-01-13T10:24:59Z</time>
      </trkpt>
      <trkpt lat="42.77611" lon="0.47908">
        <ele>1618.52</ele>
        <time>2013-01-13T10:25:21Z</time>
      </trkpt>
      <trkpt lat="42.7761" lon="0.47914">
        <ele>1619.96</ele>
        <time>2013-01-13T10:25:35Z</time>
      </trkpt>
      <trkpt lat="42.7761" lon="0.47914">
        <ele>1620.92</ele>
        <time>2013-01-13T10:25:37Z</time>
      </trkpt>
      <trkpt lat="42.77604" lon="0.47916">
        <ele>1621.4</ele>
        <time>2013-01-13T10:25:50Z</time>
      </trkpt>
      <trkpt lat="42.77599" lon="0.4792">
        <ele>1624.77</ele>
        <time>2013-01-13T10:26:03Z</time>
      </trkpt>
      <trkpt lat="42.77595" lon="0.47917">
        <ele>1627.17</ele>
        <time>2013-01-13T10:26:17Z</time>
      </trkpt>
      <trkpt lat="42.77594" lon="0.47926">
        <ele>1629.09</ele>
        <time>2013-01-13T10:26:33Z</time>
      </trkpt>
      <trkpt lat="42.77594" lon="0.47933">
        <ele>1630.53</ele>
        <time>2013-01-13T10:26:49Z</time>
      </trkpt>
      <trkpt lat="42.77594" lon="0.47944">
        <ele>1632.94</ele>
        <time>2013-01-13T10:27:01Z</time>
      </trkpt>
      <trkpt lat="42.77594" lon="0.47955">
        <ele>1633.9</ele>
        <time>2013-01-13T10:27:12Z</time>
      </trkpt>
      <trkpt lat="42.77589" lon="0.47963">
        <ele>1635.82</ele>
        <time>2013-01-13T10:27:25Z</time>
      </trkpt>
      <trkpt lat="42.77581" lon="0.47963">
        <ele>1639.19</ele>
        <time>2013-01-13T10:27:39Z</time>
      </trkpt>
      <trkpt lat="42.77575" lon="0.47962">
        <ele>1640.63</ele>
        <time>2013-01-13T10:27:54Z</time>
      </trkpt>
      <trkpt lat="42.77572" lon="0.47961">
        <ele>1641.59</ele>
        <time>2013-01-13T10:28:06Z</time>
      </trkpt>
      <trkpt lat="42.77565" lon="0.47957">
        <ele>1643.51</ele>
        <time>2013-01-13T10:28:20Z</time>
      </trkpt>
      <trkpt lat="42.77565" lon="0.47957">
        <ele>1643.51</ele>
        <time>2013-01-13T10:28:41Z</time>
      </trkpt>
      <trkpt lat="42.77562" lon="0.47956">
        <ele>1643.51</ele>
        <time>2013-01-13T10:28:57Z</time>
      </trkpt>
      <trkpt lat="42.77555" lon="0.47952">
        <ele>1645.43</ele>
        <time>2013-01-13T10:29:12Z</time>
      </trkpt>
      <trkpt lat="42.77553" lon="0.47949">
        <ele>1647.84</ele>
        <time>2013-01-13T10:29:27Z</time>
      </trkpt>
      <trkpt lat="42.77553" lon="0.47948">
        <ele>1647.84</ele>
        <time>2013-01-13T10:29:39Z</time>
      </trkpt>
      <trkpt lat="42.77553" lon="0.47948">
        <ele>1648.32</ele>
        <time>2013-01-13T10:30:07Z</time>
      </trkpt>
      <trkpt lat="42.77553" lon="0.47948">
        <ele>1647.36</ele>
        <time>2013-01-13T10:30:33Z</time>
      </trkpt>
      <trkpt lat="42.77553" lon="0.47948">
        <ele>1647.84</ele>
        <time>2013-01-13T10:30:57Z</time>
      </trkpt>
      <trkpt lat="42.77553" lon="0.47948">
        <ele>1647.84</ele>
        <time>2013-01-13T10:31:26Z</time>
      </trkpt>
      <trkpt lat="42.77553" lon="0.47948">
        <ele>1648.32</ele>
        <time>2013-01-13T10:31:55Z</time>
      </trkpt>
      <trkpt lat="42.77553" lon="0.47948">
        <ele>1648.32</ele>
        <time>2013-01-13T10:32:20Z</time>
      </trkpt>
      <trkpt lat="42.77553" lon="0.47948">
        <ele>1648.8</ele>
        <time>2013-01-13T10:32:42Z</time>
      </trkpt>
      <trkpt lat="42.77552" lon="0.47948">
        <ele>1648.32</ele>
        <time>2013-01-13T10:33:05Z</time>
      </trkpt>
      <trkpt lat="42.77553" lon="0.47945">
        <ele>1648.32</ele>
        <time>2013-01-13T10:33:27Z</time>
      </trkpt>
      <trkpt lat="42.77555" lon="0.47937">
        <ele>1649.28</ele>
        <time>2013-01-13T10:33:39Z</time>
      </trkpt>
      <trkpt lat="42.77557" lon="0.47927">
        <ele>1651.2</ele>
        <time>2013-01-13T10:33:53Z</time>
      </trkpt>
      <trkpt lat="42.77557" lon="0.47918">
        <ele>1652.16</ele>
        <time>2013-01-13T10:34:08Z</time>
      </trkpt>
      <trkpt lat="42.77556" lon="0.4791">
        <ele>1652.64</ele>
        <time>2013-01-13T10:34:15Z</time>
      </trkpt>
      <trkpt lat="42.77557" lon="0.47894">
        <ele>1653.12</ele>
        <time>2013-01-13T10:34:31Z</time>
      </trkpt>
      <trkpt lat="42.77562" lon="0.47884">
        <ele>1654.09</ele>
        <time>2013-01-13T10:34:47Z</time>
      </trkpt>
      <trkpt lat="42.77564" lon="0.47875">
        <ele>1655.05</ele>
        <time>2013-01-13T10:34:58Z</time>
      </trkpt>
      <trkpt lat="42.77569" lon="0.47866">
        <ele>1656.49</ele>
        <time>2013-01-13T10:35:10Z</time>
      </trkpt>
      <trkpt lat="42.77568" lon="0.47855">
        <ele>1659.37</ele>
        <time>2013-01-13T10:35:25Z</time>
      </trkpt>
      <trkpt lat="42.77571" lon="0.47844">
        <ele>1660.33</ele>
        <time>2013-01-13T10:35:38Z</time>
      </trkpt>
      <trkpt lat="42.77574" lon="0.47832">
        <ele>1661.78</ele>
        <time>2013-01-13T10:35:52Z</time>
      </trkpt>
      <trkpt lat="42.77575" lon="0.47821">
        <ele>1664.18</ele>
        <time>2013-01-13T10:36:06Z</time>
      </trkpt>
      <trkpt lat="42.77578" lon="0.47815">
        <ele>1665.14</ele>
        <time>2013-01-13T10:36:17Z</time>
      </trkpt>
      <trkpt lat="42.77583" lon="0.47805">
        <ele>1666.58</ele>
        <time>2013-01-13T10:36:32Z</time>
      </trkpt>
      <trkpt lat="42.77589" lon="0.47799">
        <ele>1666.58</ele>
        <time>2013-01-13T10:36:45Z</time>
      </trkpt>
      <trkpt lat="42.77592" lon="0.47792">
        <ele>1668.02</ele>
        <time>2013-01-13T10:36:58Z</time>
      </trkpt>
      <trkpt lat="42.77596" lon="0.4778">
        <ele>1668.99</ele>
        <time>2013-01-13T10:37:13Z</time>
      </trkpt>
      <trkpt lat="42.77598" lon="0.47771">
        <ele>1670.91</ele>
        <time>2013-01-13T10:37:27Z</time>
      </trkpt>
      <trkpt lat="42.77597" lon="0.47769">
        <ele>1672.35</ele>
        <time>2013-01-13T10:37:40Z</time>
      </trkpt>
      <trkpt lat="42.77601" lon="0.47762">
        <ele>1671.87</ele>
        <time>2013-01-13T10:38:01Z</time>
      </trkpt>
      <trkpt lat="42.77604" lon="0.47754">
        <ele>1671.39</ele>
        <time>2013-01-13T10:38:13Z</time>
      </trkpt>
      <trkpt lat="42.77607" lon="0.47753">
        <ele>1669.95</ele>
        <time>2013-01-13T10:38:20Z</time>
      </trkpt>
      <trkpt lat="42.77608" lon="0.47748">
        <ele>1669.95</ele>
        <time>2013-01-13T10:38:24Z</time>
      </trkpt>
      <trkpt lat="42.77612" lon="0.47734">
        <ele>1670.43</ele>
        <time>2013-01-13T10:38:38Z</time>
      </trkpt>
      <trkpt lat="42.77612" lon="0.47727">
        <ele>1670.43</ele>
        <time>2013-01-13T10:38:44Z</time>
      </trkpt>
      <trkpt lat="42.77612" lon="0.47721">
        <ele>1671.39</ele>
        <time>2013-01-13T10:38:50Z</time>
      </trkpt>
      <trkpt lat="42.77616" lon="0.47708">
        <ele>1671.39</ele>
        <time>2013-01-13T10:39:08Z</time>
      </trkpt>
      <trkpt lat="42.77618" lon="0.477">
        <ele>1671.39</ele>
        <time>2013-01-13T10:39:15Z</time>
      </trkpt>
      <trkpt lat="42.77622" lon="0.47693">
        <ele>1670.43</ele>
        <time>2013-01-13T10:39:23Z</time>
      </trkpt>
      <trkpt lat="42.77625" lon="0.47683">
        <ele>1670.43</ele>
        <time>2013-01-13T10:39:36Z</time>
      </trkpt>
      <trkpt lat="42.77628" lon="0.47675">
        <ele>1669.95</ele>
        <time>2013-01-13T10:39:46Z</time>
      </trkpt>
      <trkpt lat="42.77634" lon="0.4766">
        <ele>1668.02</ele>
        <time>2013-01-13T10:40:01Z</time>
      </trkpt>
      <trkpt lat="42.77637" lon="0.47648">
        <ele>1669.47</ele>
        <time>2013-01-13T10:40:15Z</time>
      </trkpt>
      <trkpt lat="42.77637" lon="0.47641">
        <ele>1670.43</ele>
        <time>2013-01-13T10:40:28Z</time>
      </trkpt>
      <trkpt lat="42.77636" lon="0.4764">
        <ele>1670.43</ele>
        <time>2013-01-13T10:40:45Z</time>
      </trkpt>
      <trkpt lat="42.77636" lon="0.4764">
        <ele>1670.43</ele>
        <time>2013-01-13T10:41:10Z</time>
      </trkpt>
      <trkpt lat="42.77636" lon="0.4764">
        <ele>1670.91</ele>
        <time>2013-01-13T10:41:32Z</time>
      </trkpt>
      <trkpt lat="42.77636" lon="0.4764">
        <ele>1670.91</ele>
        <time>2013-01-13T10:41:59Z</time>
      </trkpt>
      <trkpt lat="42.77636" lon="0.4764">
        <ele>1670.43</ele>
        <time>2013-01-13T10:42:29Z</time>
      </trkpt>
      <trkpt lat="42.77636" lon="0.4764">
        <ele>1670.43</ele>
        <time>2013-01-13T10:42:51Z</time>
      </trkpt>
      <trkpt lat="42.77636" lon="0.47639">
        <ele>1669.95</ele>
        <time>2013-01-13T10:43:11Z</time>
      </trkpt>
      <trkpt lat="42.77636" lon="0.47639">
        <ele>1670.43</ele>
        <time>2013-01-13T10:43:33Z</time>
      </trkpt>
      <trkpt lat="42.77636" lon="0.47639">
        <ele>1670.43</ele>
        <time>2013-01-13T10:43:57Z</time>
      </trkpt>
      <trkpt lat="42.77636" lon="0.47639">
        <ele>1668.99</ele>
        <time>2013-01-13T10:44:25Z</time>
      </trkpt>
      <trkpt lat="42.77636" lon="0.47639">
        <ele>1669.47</ele>
        <time>2013-01-13T10:44:48Z</time>
      </trkpt>
      <trkpt lat="42.77636" lon="0.47639">
        <ele>1669.95</ele>
        <time>2013-01-13T10:45:12Z</time>
      </trkpt>
      <trkpt lat="42.77632" lon="0.47636">
        <ele>1669.95</ele>
        <time>2013-01-13T10:45:30Z</time>
      </trkpt>
      <trkpt lat="42.77625" lon="0.47636">
        <ele>1673.79</ele>
        <time>2013-01-13T10:45:41Z</time>
      </trkpt>
      <trkpt lat="42.77619" lon="0.47628">
        <ele>1675.72</ele>
        <time>2013-01-13T10:45:55Z</time>
      </trkpt>
      <trkpt lat="42.77616" lon="0.47617">
        <ele>1676.68</ele>
        <time>2013-01-13T10:46:06Z</time>
      </trkpt>
      <trkpt lat="42.77617" lon="0.47608">
        <ele>1678.12</ele>
        <time>2013-01-13T10:46:16Z</time>
      </trkpt>
      <trkpt lat="42.77612" lon="0.47603">
        <ele>1679.08</ele>
        <time>2013-01-13T10:46:22Z</time>
      </trkpt>
      <trkpt lat="42.77612" lon="0.47592">
        <ele>1681</ele>
        <time>2013-01-13T10:46:36Z</time>
      </trkpt>
      <trkpt lat="42.77609" lon="0.47582">
        <ele>1681.96</ele>
        <time>2013-01-13T10:46:52Z</time>
      </trkpt>
      <trkpt lat="42.77606" lon="0.47574">
        <ele>1681.96</ele>
        <time>2013-01-13T10:47:02Z</time>
      </trkpt>
      <trkpt lat="42.77604" lon="0.4757">
        <ele>1683.89</ele>
        <time>2013-01-13T10:47:07Z</time>
      </trkpt>
      <trkpt lat="42.776" lon="0.47562">
        <ele>1685.81</ele>
        <time>2013-01-13T10:47:21Z</time>
      </trkpt>
      <trkpt lat="42.77601" lon="0.47551">
        <ele>1687.25</ele>
        <time>2013-01-13T10:47:32Z</time>
      </trkpt>
      <trkpt lat="42.77597" lon="0.47548">
        <ele>1688.21</ele>
        <time>2013-01-13T10:47:43Z</time>
      </trkpt>
      <trkpt lat="42.77597" lon="0.47548">
        <ele>1688.21</ele>
        <time>2013-01-13T10:48:04Z</time>
      </trkpt>
      <trkpt lat="42.77597" lon="0.47548">
        <ele>1687.25</ele>
        <time>2013-01-13T10:48:25Z</time>
      </trkpt>
      <trkpt lat="42.77597" lon="0.47548">
        <ele>1688.21</ele>
        <time>2013-01-13T10:48:50Z</time>
      </trkpt>
      <trkpt lat="42.77597" lon="0.47548">
        <ele>1688.21</ele>
        <time>2013-01-13T10:49:16Z</time>
      </trkpt>
      <trkpt lat="42.77597" lon="0.47548">
        <ele>1687.73</ele>
        <time>2013-01-13T10:49:38Z</time>
      </trkpt>
      <trkpt lat="42.77596" lon="0.47547">
        <ele>1687.73</ele>
        <time>2013-01-13T10:50:03Z</time>
      </trkpt>
      <trkpt lat="42.77589" lon="0.47534">
        <ele>1688.69</ele>
        <time>2013-01-13T10:50:17Z</time>
      </trkpt>
      <trkpt lat="42.77583" lon="0.47521">
        <ele>1689.65</ele>
        <time>2013-01-13T10:50:31Z</time>
      </trkpt>
      <trkpt lat="42.77579" lon="0.47514">
        <ele>1691.1</ele>
        <time>2013-01-13T10:50:44Z</time>
      </trkpt>
      <trkpt lat="42.77577" lon="0.47512">
        <ele>1691.1</ele>
        <time>2013-01-13T10:50:58Z</time>
      </trkpt>
      <trkpt lat="42.77574" lon="0.4751">
        <ele>1692.54</ele>
        <time>2013-01-13T10:51:05Z</time>
      </trkpt>
      <trkpt lat="42.77573" lon="0.47512">
        <ele>1692.54</ele>
        <time>2013-01-13T10:51:07Z</time>
      </trkpt>
      <trkpt lat="42.77563" lon="0.47517">
        <ele>1695.9</ele>
        <time>2013-01-13T10:51:21Z</time>
      </trkpt>
      <trkpt lat="42.77559" lon="0.47514">
        <ele>1698.31</ele>
        <time>2013-01-13T10:51:34Z</time>
      </trkpt>
      <trkpt lat="42.77558" lon="0.47514">
        <ele>1697.83</ele>
        <time>2013-01-13T10:51:35Z</time>
      </trkpt>
      <trkpt lat="42.77551" lon="0.47504">
        <ele>1700.23</ele>
        <time>2013-01-13T10:51:49Z</time>
      </trkpt>
      <trkpt lat="42.77551" lon="0.47502">
        <ele>1700.23</ele>
        <time>2013-01-13T10:51:51Z</time>
      </trkpt>
      <trkpt lat="42.77549" lon="0.47497">
        <ele>1701.67</ele>
        <time>2013-01-13T10:52:00Z</time>
      </trkpt>
      <trkpt lat="42.77548" lon="0.47492">
        <ele>1701.19</ele>
        <time>2013-01-13T10:52:15Z</time>
      </trkpt>
      <trkpt lat="42.77548" lon="0.47481">
        <ele>1703.59</ele>
        <time>2013-01-13T10:52:28Z</time>
      </trkpt>
      <trkpt lat="42.77545" lon="0.47472">
        <ele>1705.04</ele>
        <time>2013-01-13T10:52:40Z</time>
      </trkpt>
      <trkpt lat="42.77546" lon="0.47463">
        <ele>1706.48</ele>
        <time>2013-01-13T10:52:52Z</time>
      </trkpt>
      <trkpt lat="42.77542" lon="0.47459">
        <ele>1706.96</ele>
        <time>2013-01-13T10:53:03Z</time>
      </trkpt>
      <trkpt lat="42.77535" lon="0.47447">
        <ele>1708.88</ele>
        <time>2013-01-13T10:53:16Z</time>
      </trkpt>
      <trkpt lat="42.77533" lon="0.47446">
        <ele>1710.32</ele>
        <time>2013-01-13T10:53:31Z</time>
      </trkpt>
      <trkpt lat="42.77533" lon="0.47446">
        <ele>1709.84</ele>
        <time>2013-01-13T10:53:48Z</time>
      </trkpt>
      <trkpt lat="42.77533" lon="0.47446">
        <ele>1709.84</ele>
        <time>2013-01-13T10:54:02Z</time>
      </trkpt>
      <trkpt lat="42.77534" lon="0.47458">
        <ele>1711.76</ele>
        <time>2013-01-13T10:54:16Z</time>
      </trkpt>
      <trkpt lat="42.7753" lon="0.47465">
        <ele>1713.69</ele>
        <time>2013-01-13T10:54:28Z</time>
      </trkpt>
      <trkpt lat="42.77527" lon="0.47467">
        <ele>1716.09</ele>
        <time>2013-01-13T10:54:38Z</time>
      </trkpt>
      <trkpt lat="42.7752" lon="0.4747">
        <ele>1719.46</ele>
        <time>2013-01-13T10:54:54Z</time>
      </trkpt>
      <trkpt lat="42.77516" lon="0.47469">
        <ele>1719.94</ele>
        <time>2013-01-13T10:55:10Z</time>
      </trkpt>
      <trkpt lat="42.77516" lon="0.47467">
        <ele>1719.46</ele>
        <time>2013-01-13T10:55:22Z</time>
      </trkpt>
      <trkpt lat="42.77515" lon="0.47466">
        <ele>1719.94</ele>
        <time>2013-01-13T10:55:41Z</time>
      </trkpt>
      <trkpt lat="42.7751" lon="0.47466">
        <ele>1720.9</ele>
        <time>2013-01-13T10:55:47Z</time>
      </trkpt>
      <trkpt lat="42.77502" lon="0.47461">
        <ele>1721.86</ele>
        <time>2013-01-13T10:56:00Z</time>
      </trkpt>
      <trkpt lat="42.77493" lon="0.47457">
        <ele>1723.3</ele>
        <time>2013-01-13T10:56:15Z</time>
      </trkpt>
      <trkpt lat="42.77491" lon="0.47458">
        <ele>1723.3</ele>
        <time>2013-01-13T10:56:17Z</time>
      </trkpt>
      <trkpt lat="42.77485" lon="0.47467">
        <ele>1726.67</ele>
        <time>2013-01-13T10:56:32Z</time>
      </trkpt>
      <trkpt lat="42.77478" lon="0.47467">
        <ele>1728.11</ele>
        <time>2013-01-13T10:56:47Z</time>
      </trkpt>
      <trkpt lat="42.77479" lon="0.47467">
        <ele>1728.11</ele>
        <time>2013-01-13T10:57:06Z</time>
      </trkpt>
      <trkpt lat="42.77477" lon="0.47467">
        <ele>1729.55</ele>
        <time>2013-01-13T10:57:23Z</time>
      </trkpt>
      <trkpt lat="42.77475" lon="0.47468">
        <ele>1730.03</ele>
        <time>2013-01-13T10:57:27Z</time>
      </trkpt>
      <trkpt lat="42.77467" lon="0.47467">
        <ele>1730.99</ele>
        <time>2013-01-13T10:57:40Z</time>
      </trkpt>
      <trkpt lat="42.77462" lon="0.47464">
        <ele>1731.95</ele>
        <time>2013-01-13T10:57:55Z</time>
      </trkpt>
      <trkpt lat="42.77455" lon="0.4746">
        <ele>1733.88</ele>
        <time>2013-01-13T10:58:11Z</time>
      </trkpt>
      <trkpt lat="42.7745" lon="0.47455">
        <ele>1736.76</ele>
        <time>2013-01-13T10:58:25Z</time>
      </trkpt>
      <trkpt lat="42.77449" lon="0.47449">
        <ele>1738.2</ele>
        <time>2013-01-13T10:58:38Z</time>
      </trkpt>
      <trkpt lat="42.77446" lon="0.47436">
        <ele>1739.64</ele>
        <time>2013-01-13T10:58:52Z</time>
      </trkpt>
      <trkpt lat="42.77445" lon="0.47423">
        <ele>1740.12</ele>
        <time>2013-01-13T10:59:06Z</time>
      </trkpt>
      <trkpt lat="42.77444" lon="0.47417">
        <ele>1739.16</ele>
        <time>2013-01-13T10:59:19Z</time>
      </trkpt>
      <trkpt lat="42.77443" lon="0.47418">
        <ele>1739.64</ele>
        <time>2013-01-13T10:59:32Z</time>
      </trkpt>
      <trkpt lat="42.77445" lon="0.47423">
        <ele>1739.16</ele>
        <time>2013-01-13T10:59:45Z</time>
      </trkpt>
      <trkpt lat="42.77445" lon="0.47423">
        <ele>1739.16</ele>
        <time>2013-01-13T11:00:08Z</time>
      </trkpt>
      <trkpt lat="42.77444" lon="0.47423">
        <ele>1739.16</ele>
        <time>2013-01-13T11:00:26Z</time>
      </trkpt>
      <trkpt lat="42.77444" lon="0.47423">
        <ele>1739.64</ele>
        <time>2013-01-13T11:00:46Z</time>
      </trkpt>
      <trkpt lat="42.77444" lon="0.47423">
        <ele>1739.64</ele>
        <time>2013-01-13T11:01:19Z</time>
      </trkpt>
      <trkpt lat="42.77444" lon="0.47423">
        <ele>1739.64</ele>
        <time>2013-01-13T11:01:43Z</time>
      </trkpt>
      <trkpt lat="42.77444" lon="0.47423">
        <ele>1739.64</ele>
        <time>2013-01-13T11:02:07Z</time>
      </trkpt>
      <trkpt lat="42.77444" lon="0.47423">
        <ele>1739.16</ele>
        <time>2013-01-13T11:02:29Z</time>
      </trkpt>
      <trkpt lat="42.77444" lon="0.47423">
        <ele>1739.64</ele>
        <time>2013-01-13T11:02:57Z</time>
      </trkpt>
      <trkpt lat="42.77444" lon="0.47423">
        <ele>1739.64</ele>
        <time>2013-01-13T11:03:17Z</time>
      </trkpt>
      <trkpt lat="42.77443" lon="0.47425">
        <ele>1738.68</ele>
        <time>2013-01-13T11:03:37Z</time>
      </trkpt>
      <trkpt lat="42.77443" lon="0.47425">
        <ele>1738.2</ele>
        <time>2013-01-13T11:04:07Z</time>
      </trkpt>
      <trkpt lat="42.77443" lon="0.47425">
        <ele>1739.16</ele>
        <time>2013-01-13T11:04:31Z</time>
      </trkpt>
      <trkpt lat="42.77443" lon="0.47425">
        <ele>1739.64</ele>
        <time>2013-01-13T11:04:55Z</time>
      </trkpt>
      <trkpt lat="42.77443" lon="0.47424">
        <ele>1737.72</ele>
        <time>2013-01-13T11:05:21Z</time>
      </trkpt>
      <trkpt lat="42.77443" lon="0.47424">
        <ele>1739.16</ele>
        <time>2013-01-13T11:05:50Z</time>
      </trkpt>
      <trkpt lat="42.77443" lon="0.47425">
        <ele>1738.68</ele>
        <time>2013-01-13T11:06:18Z</time>
      </trkpt>
      <trkpt lat="42.77443" lon="0.47425">
        <ele>1738.68</ele>
        <time>2013-01-13T11:06:43Z</time>
      </trkpt>
      <trkpt lat="42.77443" lon="0.47425">
        <ele>1738.2</ele>
        <time>2013-01-13T11:07:10Z</time>
      </trkpt>
      <trkpt lat="42.77444" lon="0.47425">
        <ele>1738.2</ele>
        <time>2013-01-13T11:07:34Z</time>
      </trkpt>
      <trkpt lat="42.77444" lon="0.47425">
        <ele>1738.2</ele>
        <time>2013-01-13T11:07:55Z</time>
      </trkpt>
      <trkpt lat="42.77438" lon="0.47422">
        <ele>1740.6</ele>
        <time>2013-01-13T11:08:09Z</time>
      </trkpt>
      <trkpt lat="42.7743" lon="0.47421">
        <ele>1741.57</ele>
        <time>2013-01-13T11:08:23Z</time>
      </trkpt>
      <trkpt lat="42.77422" lon="0.47418">
        <ele>1743.97</ele>
        <time>2013-01-13T11:08:39Z</time>
      </trkpt>
      <trkpt lat="42.77421" lon="0.47417">
        <ele>1744.45</ele>
        <time>2013-01-13T11:08:41Z</time>
      </trkpt>
      <trkpt lat="42.77421" lon="0.47417">
        <ele>1743.97</ele>
        <time>2013-01-13T11:09:08Z</time>
      </trkpt>
      <trkpt lat="42.77421" lon="0.47418">
        <ele>1743.01</ele>
        <time>2013-01-13T11:09:26Z</time>
      </trkpt>
      <trkpt lat="42.77421" lon="0.47418">
        <ele>1743.97</ele>
        <time>2013-01-13T11:09:48Z</time>
      </trkpt>
      <trkpt lat="42.77422" lon="0.47419">
        <ele>1743.97</ele>
        <time>2013-01-13T11:10:05Z</time>
      </trkpt>
      <trkpt lat="42.77419" lon="0.47421">
        <ele>1744.45</ele>
        <time>2013-01-13T11:10:14Z</time>
      </trkpt>
      <trkpt lat="42.77415" lon="0.47423">
        <ele>1746.37</ele>
        <time>2013-01-13T11:10:22Z</time>
      </trkpt>
      <trkpt lat="42.77414" lon="0.47419">
        <ele>1747.81</ele>
        <time>2013-01-13T11:10:34Z</time>
      </trkpt>
      <trkpt lat="42.77414" lon="0.47418">
        <ele>1748.78</ele>
        <time>2013-01-13T11:10:36Z</time>
      </trkpt>
      <trkpt lat="42.77408" lon="0.4742">
        <ele>1750.22</ele>
        <time>2013-01-13T11:10:43Z</time>
      </trkpt>
      <trkpt lat="42.77404" lon="0.47419">
        <ele>1751.66</ele>
        <time>2013-01-13T11:10:57Z</time>
      </trkpt>
      <trkpt lat="42.77404" lon="0.47419">
        <ele>1750.22</ele>
        <time>2013-01-13T11:11:00Z</time>
      </trkpt>
      <trkpt lat="42.77403" lon="0.47414">
        <ele>1753.58</ele>
        <time>2013-01-13T11:11:12Z</time>
      </trkpt>
      <trkpt lat="42.77399" lon="0.47414">
        <ele>1755.5</ele>
        <time>2013-01-13T11:11:28Z</time>
      </trkpt>
      <trkpt lat="42.77396" lon="0.47413">
        <ele>1756.95</ele>
        <time>2013-01-13T11:11:41Z</time>
      </trkpt>
      <trkpt lat="42.77393" lon="0.47409">
        <ele>1758.87</ele>
        <time>2013-01-13T11:11:54Z</time>
      </trkpt>
      <trkpt lat="42.77388" lon="0.4741">
        <ele>1760.31</ele>
        <time>2013-01-13T11:12:08Z</time>
      </trkpt>
      <trkpt lat="42.77386" lon="0.47408">
        <ele>1762.23</ele>
        <time>2013-01-13T11:12:17Z</time>
      </trkpt>
      <trkpt lat="42.77386" lon="0.47405">
        <ele>1764.16</ele>
        <time>2013-01-13T11:12:29Z</time>
      </trkpt>
      <trkpt lat="42.77385" lon="0.47406">
        <ele>1764.16</ele>
        <time>2013-01-13T11:12:37Z</time>
      </trkpt>
      <trkpt lat="42.77385" lon="0.4741">
        <ele>1765.12</ele>
        <time>2013-01-13T11:12:51Z</time>
      </trkpt>
      <trkpt lat="42.77383" lon="0.47402">
        <ele>1767.52</ele>
        <time>2013-01-13T11:13:00Z</time>
      </trkpt>
      <trkpt lat="42.77378" lon="0.474">
        <ele>1768.96</ele>
        <time>2013-01-13T11:13:13Z</time>
      </trkpt>
      <trkpt lat="42.77374" lon="0.47395">
        <ele>1770.41</ele>
        <time>2013-01-13T11:13:28Z</time>
      </trkpt>
      <trkpt lat="42.77368" lon="0.47395">
        <ele>1772.33</ele>
        <time>2013-01-13T11:13:40Z</time>
      </trkpt>
      <trkpt lat="42.77363" lon="0.47391">
        <ele>1774.73</ele>
        <time>2013-01-13T11:13:53Z</time>
      </trkpt>
      <trkpt lat="42.77362" lon="0.4739">
        <ele>1775.21</ele>
        <time>2013-01-13T11:14:04Z</time>
      </trkpt>
      <trkpt lat="42.77361" lon="0.47389">
        <ele>1776.17</ele>
        <time>2013-01-13T11:14:12Z</time>
      </trkpt>
      <trkpt lat="42.77358" lon="0.47388">
        <ele>1776.17</ele>
        <time>2013-01-13T11:14:29Z</time>
      </trkpt>
      <trkpt lat="42.77357" lon="0.47389">
        <ele>1777.13</ele>
        <time>2013-01-13T11:14:42Z</time>
      </trkpt>
      <trkpt lat="42.77357" lon="0.47386">
        <ele>1778.58</ele>
        <time>2013-01-13T11:14:55Z</time>
      </trkpt>
      <trkpt lat="42.77354" lon="0.47386">
        <ele>1779.54</ele>
        <time>2013-01-13T11:15:11Z</time>
      </trkpt>
      <trkpt lat="42.77349" lon="0.47384">
        <ele>1782.42</ele>
        <time>2013-01-13T11:15:23Z</time>
      </trkpt>
      <trkpt lat="42.77346" lon="0.47383">
        <ele>1782.9</ele>
        <time>2013-01-13T11:15:34Z</time>
      </trkpt>
      <trkpt lat="42.77345" lon="0.47382">
        <ele>1783.38</ele>
        <time>2013-01-13T11:15:51Z</time>
      </trkpt>
      <trkpt lat="42.77345" lon="0.47382">
        <ele>1783.38</ele>
        <time>2013-01-13T11:16:15Z</time>
      </trkpt>
      <trkpt lat="42.77345" lon="0.47381">
        <ele>1782.9</ele>
        <time>2013-01-13T11:16:39Z</time>
      </trkpt>
      <trkpt lat="42.77335" lon="0.47379">
        <ele>1785.31</ele>
        <time>2013-01-13T11:16:54Z</time>
      </trkpt>
      <trkpt lat="42.77327" lon="0.47376">
        <ele>1787.23</ele>
        <time>2013-01-13T11:17:09Z</time>
      </trkpt>
      <trkpt lat="42.77322" lon="0.47367">
        <ele>1788.67</ele>
        <time>2013-01-13T11:17:23Z</time>
      </trkpt>
      <trkpt lat="42.77319" lon="0.47361">
        <ele>1790.11</ele>
        <time>2013-01-13T11:17:35Z</time>
      </trkpt>
      <trkpt lat="42.77318" lon="0.47358">
        <ele>1792.03</ele>
        <time>2013-01-13T11:17:47Z</time>
      </trkpt>
      <trkpt lat="42.77316" lon="0.47354">
        <ele>1792.03</ele>
        <time>2013-01-13T11:18:03Z</time>
      </trkpt>
      <trkpt lat="42.77315" lon="0.47353">
        <ele>1793</ele>
        <time>2013-01-13T11:18:20Z</time>
      </trkpt>
      <trkpt lat="42.77313" lon="0.47351">
        <ele>1793.48</ele>
        <time>2013-01-13T11:18:25Z</time>
      </trkpt>
      <trkpt lat="42.7731" lon="0.47345">
        <ele>1793.48</ele>
        <time>2013-01-13T11:18:28Z</time>
      </trkpt>
      <trkpt lat="42.77303" lon="0.47334">
        <ele>1795.4</ele>
        <time>2013-01-13T11:18:41Z</time>
      </trkpt>
      <trkpt lat="42.77298" lon="0.47325">
        <ele>1797.32</ele>
        <time>2013-01-13T11:18:56Z</time>
      </trkpt>
      <trkpt lat="42.77299" lon="0.47325">
        <ele>1800.21</ele>
        <time>2013-01-13T11:19:06Z</time>
      </trkpt>
      <trkpt lat="42.77295" lon="0.47328">
        <ele>1800.21</ele>
        <time>2013-01-13T11:19:19Z</time>
      </trkpt>
      <trkpt lat="42.77293" lon="0.47321">
        <ele>1801.65</ele>
        <time>2013-01-13T11:19:33Z</time>
      </trkpt>
      <trkpt lat="42.77293" lon="0.47318">
        <ele>1803.09</ele>
        <time>2013-01-13T11:19:38Z</time>
      </trkpt>
      <trkpt lat="42.7729" lon="0.47309">
        <ele>1805.01</ele>
        <time>2013-01-13T11:19:52Z</time>
      </trkpt>
      <trkpt lat="42.77287" lon="0.47297">
        <ele>1805.49</ele>
        <time>2013-01-13T11:20:04Z</time>
      </trkpt>
      <trkpt lat="42.77285" lon="0.47293">
        <ele>1806.94</ele>
        <time>2013-01-13T11:20:19Z</time>
      </trkpt>
      <trkpt lat="42.77283" lon="0.47293">
        <ele>1807.9</ele>
        <time>2013-01-13T11:20:23Z</time>
      </trkpt>
      <trkpt lat="42.77273" lon="0.47298">
        <ele>1810.3</ele>
        <time>2013-01-13T11:20:40Z</time>
      </trkpt>
      <trkpt lat="42.77272" lon="0.47293">
        <ele>1811.74</ele>
        <time>2013-01-13T11:20:50Z</time>
      </trkpt>
      <trkpt lat="42.77272" lon="0.47284">
        <ele>1812.22</ele>
        <time>2013-01-13T11:21:02Z</time>
      </trkpt>
      <trkpt lat="42.7727" lon="0.47273">
        <ele>1813.66</ele>
        <time>2013-01-13T11:21:16Z</time>
      </trkpt>
      <trkpt lat="42.77267" lon="0.47274">
        <ele>1816.55</ele>
        <time>2013-01-13T11:21:32Z</time>
      </trkpt>
      <trkpt lat="42.77263" lon="0.47279">
        <ele>1817.51</ele>
        <time>2013-01-13T11:21:44Z</time>
      </trkpt>
      <trkpt lat="42.77261" lon="0.47281">
        <ele>1818.47</ele>
        <time>2013-01-13T11:21:56Z</time>
      </trkpt>
      <trkpt lat="42.7726" lon="0.47276">
        <ele>1820.87</ele>
        <time>2013-01-13T11:22:07Z</time>
      </trkpt>
      <trkpt lat="42.77258" lon="0.47265">
        <ele>1821.84</ele>
        <time>2013-01-13T11:22:20Z</time>
      </trkpt>
      <trkpt lat="42.7726" lon="0.47258">
        <ele>1823.76</ele>
        <time>2013-01-13T11:22:34Z</time>
      </trkpt>
      <trkpt lat="42.77253" lon="0.47258">
        <ele>1825.2</ele>
        <time>2013-01-13T11:22:49Z</time>
      </trkpt>
      <trkpt lat="42.77248" lon="0.47255">
        <ele>1826.16</ele>
        <time>2013-01-13T11:23:02Z</time>
      </trkpt>
      <trkpt lat="42.77248" lon="0.47254">
        <ele>1827.12</ele>
        <time>2013-01-13T11:23:20Z</time>
      </trkpt>
      <trkpt lat="42.77248" lon="0.47254">
        <ele>1826.16</ele>
        <time>2013-01-13T11:23:40Z</time>
      </trkpt>
      <trkpt lat="42.77248" lon="0.47254">
        <ele>1826.16</ele>
        <time>2013-01-13T11:24:04Z</time>
      </trkpt>
      <trkpt lat="42.77248" lon="0.47254">
        <ele>1827.12</ele>
        <time>2013-01-13T11:24:25Z</time>
      </trkpt>
      <trkpt lat="42.77248" lon="0.47254">
        <ele>1827.12</ele>
        <time>2013-01-13T11:24:51Z</time>
      </trkpt>
      <trkpt lat="42.77248" lon="0.47254">
        <ele>1827.12</ele>
        <time>2013-01-13T11:25:17Z</time>
      </trkpt>
      <trkpt lat="42.77247" lon="0.47254">
        <ele>1827.6</ele>
        <time>2013-01-13T11:25:40Z</time>
      </trkpt>
      <trkpt lat="42.77247" lon="0.47254">
        <ele>1826.64</ele>
        <time>2013-01-13T11:25:43Z</time>
      </trkpt>
      <trkpt lat="42.77247" lon="0.47254">
        <ele>1827.12</ele>
        <time>2013-01-13T11:26:00Z</time>
      </trkpt>
      <trkpt lat="42.77248" lon="0.47254">
        <ele>1821.35</ele>
        <time>2013-01-13T11:26:06Z</time>
      </trkpt>
      <trkpt lat="42.77248" lon="0.47255">
        <ele>1834.81</ele>
        <time>2013-01-13T11:26:07Z</time>
      </trkpt>
      <trkpt lat="42.77248" lon="0.47255">
        <ele>1825.2</ele>
        <time>2013-01-13T11:26:08Z</time>
      </trkpt>
      <trkpt lat="42.77248" lon="0.47255">
        <ele>1828.56</ele>
        <time>2013-01-13T11:26:10Z</time>
      </trkpt>
      <trkpt lat="42.77248" lon="0.47255">
        <ele>1828.56</ele>
        <time>2013-01-13T11:26:11Z</time>
      </trkpt>
      <trkpt lat="42.77248" lon="0.47255">
        <ele>1823.28</ele>
        <time>2013-01-13T11:26:18Z</time>
      </trkpt>
      <trkpt lat="42.77248" lon="0.47255">
        <ele>1824.72</ele>
        <time>2013-01-13T11:26:19Z</time>
      </trkpt>
      <trkpt lat="42.77248" lon="0.47255">
        <ele>1826.16</ele>
        <time>2013-01-13T11:26:38Z</time>
      </trkpt>
      <trkpt lat="42.77248" lon="0.47255">
        <ele>1825.2</ele>
        <time>2013-01-13T11:26:47Z</time>
      </trkpt>
      <trkpt lat="42.77248" lon="0.47255">
        <ele>1826.64</ele>
        <time>2013-01-13T11:26:49Z</time>
      </trkpt>
      <trkpt lat="42.77248" lon="0.47255">
        <ele>1827.6</ele>
        <time>2013-01-13T11:27:15Z</time>
      </trkpt>
      <trkpt lat="42.77248" lon="0.47254">
        <ele>1831.93</ele>
        <time>2013-01-13T11:27:26Z</time>
      </trkpt>
      <trkpt lat="42.77248" lon="0.47254">
        <ele>1827.6</ele>
        <time>2013-01-13T11:27:27Z</time>
      </trkpt>
      <trkpt lat="42.77247" lon="0.47252">
        <ele>1828.08</ele>
        <time>2013-01-13T11:27:41Z</time>
      </trkpt>
      <trkpt lat="42.77247" lon="0.47252">
        <ele>1828.08</ele>
        <time>2013-01-13T11:27:48Z</time>
      </trkpt>
      <trkpt lat="42.77247" lon="0.47251">
        <ele>1823.28</ele>
        <time>2013-01-13T11:27:49Z</time>
      </trkpt>
      <trkpt lat="42.77247" lon="0.47251">
        <ele>1826.64</ele>
        <time>2013-01-13T11:27:52Z</time>
      </trkpt>
      <trkpt lat="42.77247" lon="0.47251">
        <ele>1826.64</ele>
        <time>2013-01-13T11:27:53Z</time>
      </trkpt>
      <trkpt lat="42.77247" lon="0.47251">
        <ele>1829.53</ele>
        <time>2013-01-13T11:27:54Z</time>
      </trkpt>
      <trkpt lat="42.77247" lon="0.47251">
        <ele>1827.12</ele>
        <time>2013-01-13T11:28:00Z</time>
      </trkpt>
      <trkpt lat="42.77247" lon="0.47251">
        <ele>1822.32</ele>
        <time>2013-01-13T11:28:17Z</time>
      </trkpt>
      <trkpt lat="42.77247" lon="0.47251">
        <ele>1830.49</ele>
        <time>2013-01-13T11:28:18Z</time>
      </trkpt>
      <trkpt lat="42.77247" lon="0.47251">
        <ele>1826.16</ele>
        <time>2013-01-13T11:28:19Z</time>
      </trkpt>
      <trkpt lat="42.77247" lon="0.47251">
        <ele>1829.53</ele>
        <time>2013-01-13T11:28:20Z</time>
      </trkpt>
      <trkpt lat="42.77247" lon="0.47251">
        <ele>1841.06</ele>
        <time>2013-01-13T11:28:21Z</time>
      </trkpt>
      <trkpt lat="42.77247" lon="0.47251">
        <ele>1830.01</ele>
        <time>2013-01-13T11:28:22Z</time>
      </trkpt>
      <trkpt lat="42.77247" lon="0.47251">
        <ele>1826.64</ele>
        <time>2013-01-13T11:28:25Z</time>
      </trkpt>
      <trkpt lat="42.77247" lon="0.47251">
        <ele>1826.16</ele>
        <time>2013-01-13T11:28:27Z</time>
      </trkpt>
      <trkpt lat="42.77247" lon="0.47253">
        <ele>1827.12</ele>
        <time>2013-01-13T11:28:44Z</time>
      </trkpt>
      <trkpt lat="42.77247" lon="0.47253">
        <ele>1827.12</ele>
        <time>2013-01-13T11:28:57Z</time>
      </trkpt>
      <trkpt lat="42.77241" lon="0.47242">
        <ele>1828.08</ele>
        <time>2013-01-13T11:29:06Z</time>
      </trkpt>
      <trkpt lat="42.77242" lon="0.47218">
        <ele>1828.56</ele>
        <time>2013-01-13T11:29:22Z</time>
      </trkpt>
      <trkpt lat="42.77238" lon="0.47201">
        <ele>1829.53</ele>
        <time>2013-01-13T11:29:37Z</time>
      </trkpt>
      <trkpt lat="42.77224" lon="0.47192">
        <ele>1832.89</ele>
        <time>2013-01-13T11:29:50Z</time>
      </trkpt>
      <trkpt lat="42.77216" lon="0.47186">
        <ele>1835.29</ele>
        <time>2013-01-13T11:30:05Z</time>
      </trkpt>
      <trkpt lat="42.77215" lon="0.47175">
        <ele>1835.77</ele>
        <time>2013-01-13T11:30:19Z</time>
      </trkpt>
      <trkpt lat="42.77215" lon="0.47167">
        <ele>1838.18</ele>
        <time>2013-01-13T11:30:32Z</time>
      </trkpt>
      <trkpt lat="42.77214" lon="0.4716">
        <ele>1841.06</ele>
        <time>2013-01-13T11:30:46Z</time>
      </trkpt>
      <trkpt lat="42.77214" lon="0.47159">
        <ele>1842.02</ele>
        <time>2013-01-13T11:30:49Z</time>
      </trkpt>
      <trkpt lat="42.77208" lon="0.47167">
        <ele>1842.98</ele>
        <time>2013-01-13T11:31:03Z</time>
      </trkpt>
      <trkpt lat="42.77208" lon="0.47161">
        <ele>1844.43</ele>
        <time>2013-01-13T11:31:14Z</time>
      </trkpt>
      <trkpt lat="42.77207" lon="0.4716">
        <ele>1845.39</ele>
        <time>2013-01-13T11:31:26Z</time>
      </trkpt>
      <trkpt lat="42.77206" lon="0.47146">
        <ele>1847.79</ele>
        <time>2013-01-13T11:31:39Z</time>
      </trkpt>
      <trkpt lat="42.77204" lon="0.47139">
        <ele>1849.23</ele>
        <time>2013-01-13T11:31:54Z</time>
      </trkpt>
      <trkpt lat="42.77205" lon="0.47138">
        <ele>1850.68</ele>
        <time>2013-01-13T11:31:59Z</time>
      </trkpt>
      <trkpt lat="42.77203" lon="0.47139">
        <ele>1851.64</ele>
        <time>2013-01-13T11:32:07Z</time>
      </trkpt>
      <trkpt lat="42.77198" lon="0.47144">
        <ele>1853.08</ele>
        <time>2013-01-13T11:32:20Z</time>
      </trkpt>
      <trkpt lat="42.77195" lon="0.47142">
        <ele>1855</ele>
        <time>2013-01-13T11:32:35Z</time>
      </trkpt>
      <trkpt lat="42.77193" lon="0.47136">
        <ele>1855.96</ele>
        <time>2013-01-13T11:32:48Z</time>
      </trkpt>
      <trkpt lat="42.77188" lon="0.47126">
        <ele>1857.89</ele>
        <time>2013-01-13T11:33:03Z</time>
      </trkpt>
      <trkpt lat="42.77185" lon="0.47122">
        <ele>1858.85</ele>
        <time>2013-01-13T11:33:16Z</time>
      </trkpt>
      <trkpt lat="42.77181" lon="0.47116">
        <ele>1860.29</ele>
        <time>2013-01-13T11:33:29Z</time>
      </trkpt>
      <trkpt lat="42.77171" lon="0.47109">
        <ele>1862.69</ele>
        <time>2013-01-13T11:33:45Z</time>
      </trkpt>
      <trkpt lat="42.77162" lon="0.47106">
        <ele>1863.65</ele>
        <time>2013-01-13T11:33:58Z</time>
      </trkpt>
      <trkpt lat="42.77157" lon="0.47104">
        <ele>1863.65</ele>
        <time>2013-01-13T11:34:06Z</time>
      </trkpt>
      <trkpt lat="42.77152" lon="0.47098">
        <ele>1864.13</ele>
        <time>2013-01-13T11:34:19Z</time>
      </trkpt>
      <trkpt lat="42.77155" lon="0.47087">
        <ele>1865.09</ele>
        <time>2013-01-13T11:34:34Z</time>
      </trkpt>
      <trkpt lat="42.77163" lon="0.4708">
        <ele>1866.54</ele>
        <time>2013-01-13T11:34:48Z</time>
      </trkpt>
      <trkpt lat="42.77167" lon="0.47076">
        <ele>1867.98</ele>
        <time>2013-01-13T11:35:04Z</time>
      </trkpt>
      <trkpt lat="42.77169" lon="0.47076">
        <ele>1867.98</ele>
        <time>2013-01-13T11:35:06Z</time>
      </trkpt>
      <trkpt lat="42.77177" lon="0.47073">
        <ele>1869.42</ele>
        <time>2013-01-13T11:35:19Z</time>
      </trkpt>
      <trkpt lat="42.77184" lon="0.47072">
        <ele>1870.86</ele>
        <time>2013-01-13T11:35:33Z</time>
      </trkpt>
      <trkpt lat="42.77186" lon="0.47071">
        <ele>1871.34</ele>
        <time>2013-01-13T11:35:48Z</time>
      </trkpt>
      <trkpt lat="42.77186" lon="0.47071">
        <ele>1871.34</ele>
        <time>2013-01-13T11:35:56Z</time>
      </trkpt>
      <trkpt lat="42.77188" lon="0.4707">
        <ele>1870.86</ele>
        <time>2013-01-13T11:36:08Z</time>
      </trkpt>
      <trkpt lat="42.77188" lon="0.4707">
        <ele>1878.55</ele>
        <time>2013-01-13T11:36:13Z</time>
      </trkpt>
      <trkpt lat="42.77188" lon="0.4707">
        <ele>1871.34</ele>
        <time>2013-01-13T11:36:14Z</time>
      </trkpt>
      <trkpt lat="42.77187" lon="0.47069">
        <ele>1869.9</ele>
        <time>2013-01-13T11:36:17Z</time>
      </trkpt>
      <trkpt lat="42.77187" lon="0.47071">
        <ele>1869.42</ele>
        <time>2013-01-13T11:36:27Z</time>
      </trkpt>
      <trkpt lat="42.77187" lon="0.47071">
        <ele>1870.38</ele>
        <time>2013-01-13T11:36:34Z</time>
      </trkpt>
      <trkpt lat="42.77187" lon="0.47071">
        <ele>1865.09</ele>
        <time>2013-01-13T11:36:40Z</time>
      </trkpt>
      <trkpt lat="42.77187" lon="0.47071">
        <ele>1873.27</ele>
        <time>2013-01-13T11:36:41Z</time>
      </trkpt>
      <trkpt lat="42.77187" lon="0.47072">
        <ele>1872.3</ele>
        <time>2013-01-13T11:36:42Z</time>
      </trkpt>
      <trkpt lat="42.77187" lon="0.47072">
        <ele>1869.42</ele>
        <time>2013-01-13T11:36:45Z</time>
      </trkpt>
      <trkpt lat="42.77187" lon="0.47072">
        <ele>1869.42</ele>
        <time>2013-01-13T11:37:06Z</time>
      </trkpt>
      <trkpt lat="42.77187" lon="0.47072">
        <ele>1869.42</ele>
        <time>2013-01-13T11:37:23Z</time>
      </trkpt>
      <trkpt lat="42.77187" lon="0.4707">
        <ele>1868.94</ele>
        <time>2013-01-13T11:37:44Z</time>
      </trkpt>
      <trkpt lat="42.77187" lon="0.4707">
        <ele>1868.46</ele>
        <time>2013-01-13T11:38:08Z</time>
      </trkpt>
      <trkpt lat="42.77186" lon="0.4707">
        <ele>1868.94</ele>
        <time>2013-01-13T11:38:27Z</time>
      </trkpt>
      <trkpt lat="42.77187" lon="0.4707">
        <ele>1868.46</ele>
        <time>2013-01-13T11:38:50Z</time>
      </trkpt>
      <trkpt lat="42.77187" lon="0.4707">
        <ele>1867.98</ele>
        <time>2013-01-13T11:39:11Z</time>
      </trkpt>
      <trkpt lat="42.77187" lon="0.4707">
        <ele>1868.46</ele>
        <time>2013-01-13T11:39:42Z</time>
      </trkpt>
      <trkpt lat="42.77187" lon="0.4707">
        <ele>1868.94</ele>
        <time>2013-01-13T11:40:08Z</time>
      </trkpt>
      <trkpt lat="42.77185" lon="0.47069">
        <ele>1869.42</ele>
        <time>2013-01-13T11:40:33Z</time>
      </trkpt>
      <trkpt lat="42.77185" lon="0.47068">
        <ele>1868.46</ele>
        <time>2013-01-13T11:40:54Z</time>
      </trkpt>
      <trkpt lat="42.77185" lon="0.47068">
        <ele>1868.46</ele>
        <time>2013-01-13T11:41:20Z</time>
      </trkpt>
      <trkpt lat="42.77185" lon="0.47069">
        <ele>1867.5</ele>
        <time>2013-01-13T11:41:46Z</time>
      </trkpt>
      <trkpt lat="42.77185" lon="0.47069">
        <ele>1868.94</ele>
        <time>2013-01-13T11:42:15Z</time>
      </trkpt>
      <trkpt lat="42.77184" lon="0.47068">
        <ele>1868.46</ele>
        <time>2013-01-13T11:42:35Z</time>
      </trkpt>
      <trkpt lat="42.77184" lon="0.47068">
        <ele>1868.94</ele>
        <time>2013-01-13T11:43:01Z</time>
      </trkpt>
      <trkpt lat="42.77184" lon="0.47069">
        <ele>1867.98</ele>
        <time>2013-01-13T11:43:23Z</time>
      </trkpt>
      <trkpt lat="42.77184" lon="0.47069">
        <ele>1868.94</ele>
        <time>2013-01-13T11:43:48Z</time>
      </trkpt>
      <trkpt lat="42.77183" lon="0.4707">
        <ele>1868.94</ele>
        <time>2013-01-13T11:44:14Z</time>
      </trkpt>
      <trkpt lat="42.77183" lon="0.4707">
        <ele>1868.94</ele>
        <time>2013-01-13T11:44:42Z</time>
      </trkpt>
      <trkpt lat="42.77184" lon="0.4707">
        <ele>1868.46</ele>
        <time>2013-01-13T11:45:06Z</time>
      </trkpt>
      <trkpt lat="42.77184" lon="0.4707">
        <ele>1868.94</ele>
        <time>2013-01-13T11:45:29Z</time>
      </trkpt>
      <trkpt lat="42.77183" lon="0.4707">
        <ele>1868.94</ele>
        <time>2013-01-13T11:45:48Z</time>
      </trkpt>
      <trkpt lat="42.77183" lon="0.4707">
        <ele>1868.94</ele>
        <time>2013-01-13T11:46:10Z</time>
      </trkpt>
      <trkpt lat="42.77185" lon="0.47071">
        <ele>1869.9</ele>
        <time>2013-01-13T11:46:29Z</time>
      </trkpt>
      <trkpt lat="42.77183" lon="0.47073">
        <ele>1869.42</ele>
        <time>2013-01-13T11:46:52Z</time>
      </trkpt>
      <trkpt lat="42.77183" lon="0.47073">
        <ele>1868.94</ele>
        <time>2013-01-13T11:47:12Z</time>
      </trkpt>
      <trkpt lat="42.77182" lon="0.47074">
        <ele>1869.9</ele>
        <time>2013-01-13T11:47:35Z</time>
      </trkpt>
      <trkpt lat="42.77182" lon="0.47074">
        <ele>1870.38</ele>
        <time>2013-01-13T11:47:51Z</time>
      </trkpt>
      <trkpt lat="42.77182" lon="0.47074">
        <ele>1869.9</ele>
        <time>2013-01-13T11:48:17Z</time>
      </trkpt>
      <trkpt lat="42.77182" lon="0.47074">
        <ele>1869.9</ele>
        <time>2013-01-13T11:48:42Z</time>
      </trkpt>
      <trkpt lat="42.77182" lon="0.47076">
        <ele>1870.38</ele>
        <time>2013-01-13T11:48:58Z</time>
      </trkpt>
      <trkpt lat="42.77183" lon="0.47075">
        <ele>1869.42</ele>
        <time>2013-01-13T11:49:06Z</time>
      </trkpt>
      <trkpt lat="42.77182" lon="0.47074">
        <ele>1869.9</ele>
        <time>2013-01-13T11:49:17Z</time>
      </trkpt>
      <trkpt lat="42.77181" lon="0.47073">
        <ele>1871.34</ele>
        <time>2013-01-13T11:49:24Z</time>
      </trkpt>
      <trkpt lat="42.77181" lon="0.47072">
        <ele>1871.34</ele>
        <time>2013-01-13T11:49:38Z</time>
      </trkpt>
      <trkpt lat="42.77181" lon="0.47072">
        <ele>1871.34</ele>
        <time>2013-01-13T11:49:59Z</time>
      </trkpt>
      <trkpt lat="42.77181" lon="0.4707">
        <ele>1871.82</ele>
        <time>2013-01-13T11:50:25Z</time>
      </trkpt>
      <trkpt lat="42.77181" lon="0.4707">
        <ele>1871.34</ele>
        <time>2013-01-13T11:50:46Z</time>
      </trkpt>
      <trkpt lat="42.7718" lon="0.47068">
        <ele>1871.34</ele>
        <time>2013-01-13T11:51:08Z</time>
      </trkpt>
      <trkpt lat="42.7718" lon="0.47069">
        <ele>1872.3</ele>
        <time>2013-01-13T11:51:30Z</time>
      </trkpt>
      <trkpt lat="42.77179" lon="0.47069">
        <ele>1871.82</ele>
        <time>2013-01-13T11:51:43Z</time>
      </trkpt>
      <trkpt lat="42.7718" lon="0.47064">
        <ele>1872.3</ele>
        <time>2013-01-13T11:51:53Z</time>
      </trkpt>
      <trkpt lat="42.7718" lon="0.47064">
        <ele>1871.82</ele>
        <time>2013-01-13T11:52:20Z</time>
      </trkpt>
      <trkpt lat="42.77181" lon="0.47065">
        <ele>1871.82</ele>
        <time>2013-01-13T11:52:46Z</time>
      </trkpt>
      <trkpt lat="42.77181" lon="0.47065">
        <ele>1871.34</ele>
        <time>2013-01-13T11:53:09Z</time>
      </trkpt>
      <trkpt lat="42.77181" lon="0.47065">
        <ele>1872.3</ele>
        <time>2013-01-13T11:53:40Z</time>
      </trkpt>
      <trkpt lat="42.77181" lon="0.47064">
        <ele>1871.34</ele>
        <time>2013-01-13T11:54:02Z</time>
      </trkpt>
      <trkpt lat="42.77183" lon="0.47066">
        <ele>1872.3</ele>
        <time>2013-01-13T11:54:19Z</time>
      </trkpt>
      <trkpt lat="42.77182" lon="0.47066">
        <ele>1871.34</ele>
        <time>2013-01-13T11:54:31Z</time>
      </trkpt>
      <trkpt lat="42.77182" lon="0.47066">
        <ele>1871.82</ele>
        <time>2013-01-13T11:54:52Z</time>
      </trkpt>
      <trkpt lat="42.77182" lon="0.47067">
        <ele>1871.82</ele>
        <time>2013-01-13T11:55:13Z</time>
      </trkpt>
      <trkpt lat="42.77182" lon="0.47067">
        <ele>1871.82</ele>
        <time>2013-01-13T11:55:37Z</time>
      </trkpt>
      <trkpt lat="42.77183" lon="0.47066">
        <ele>1871.34</ele>
        <time>2013-01-13T11:56:04Z</time>
      </trkpt>
      <trkpt lat="42.77183" lon="0.47066">
        <ele>1871.82</ele>
        <time>2013-01-13T11:56:28Z</time>
      </trkpt>
      <trkpt lat="42.77182" lon="0.47066">
        <ele>1872.3</ele>
        <time>2013-01-13T11:56:51Z</time>
      </trkpt>
      <trkpt lat="42.77182" lon="0.47066">
        <ele>1872.3</ele>
        <time>2013-01-13T11:57:14Z</time>
      </trkpt>
      <trkpt lat="42.77182" lon="0.47066">
        <ele>1872.79</ele>
        <time>2013-01-13T11:57:35Z</time>
      </trkpt>
      <trkpt lat="42.77182" lon="0.47066">
        <ele>1872.79</ele>
        <time>2013-01-13T11:57:52Z</time>
      </trkpt>
      <trkpt lat="42.77177" lon="0.47062">
        <ele>1873.75</ele>
        <time>2013-01-13T11:58:02Z</time>
      </trkpt>
      <trkpt lat="42.77171" lon="0.47058">
        <ele>1874.71</ele>
        <time>2013-01-13T11:58:17Z</time>
      </trkpt>
      <trkpt lat="42.77169" lon="0.47055">
        <ele>1877.11</ele>
        <time>2013-01-13T11:58:27Z</time>
      </trkpt>
      <trkpt lat="42.7716" lon="0.47049">
        <ele>1878.07</ele>
        <time>2013-01-13T11:58:39Z</time>
      </trkpt>
      <trkpt lat="42.77159" lon="0.47046">
        <ele>1880</ele>
        <time>2013-01-13T11:58:52Z</time>
      </trkpt>
      <trkpt lat="42.77156" lon="0.47043">
        <ele>1880.96</ele>
        <time>2013-01-13T11:59:04Z</time>
      </trkpt>
      <trkpt lat="42.77152" lon="0.47041">
        <ele>1880.96</ele>
        <time>2013-01-13T11:59:09Z</time>
      </trkpt>
      <trkpt lat="42.77149" lon="0.4704">
        <ele>1880.48</ele>
        <time>2013-01-13T11:59:11Z</time>
      </trkpt>
      <trkpt lat="42.77143" lon="0.47041">
        <ele>1880.96</ele>
        <time>2013-01-13T11:59:18Z</time>
      </trkpt>
      <trkpt lat="42.77133" lon="0.47045">
        <ele>1879.51</ele>
        <time>2013-01-13T11:59:32Z</time>
      </trkpt>
      <trkpt lat="42.77129" lon="0.47047">
        <ele>1879.03</ele>
        <time>2013-01-13T11:59:46Z</time>
      </trkpt>
      <trkpt lat="42.77125" lon="0.47054">
        <ele>1880</ele>
        <time>2013-01-13T11:59:58Z</time>
      </trkpt>
      <trkpt lat="42.77122" lon="0.47057">
        <ele>1879.03</ele>
        <time>2013-01-13T12:00:02Z</time>
      </trkpt>
      <trkpt lat="42.77117" lon="0.47063">
        <ele>1878.07</ele>
        <time>2013-01-13T12:00:10Z</time>
      </trkpt>
      <trkpt lat="42.77111" lon="0.47069">
        <ele>1878.55</ele>
        <time>2013-01-13T12:00:21Z</time>
      </trkpt>
      <trkpt lat="42.77111" lon="0.47072">
        <ele>1878.07</ele>
        <time>2013-01-13T12:00:23Z</time>
      </trkpt>
      <trkpt lat="42.77107" lon="0.47082">
        <ele>1878.55</ele>
        <time>2013-01-13T12:00:35Z</time>
      </trkpt>
      <trkpt lat="42.77105" lon="0.47088">
        <ele>1878.55</ele>
        <time>2013-01-13T12:00:42Z</time>
      </trkpt>
      <trkpt lat="42.77103" lon="0.471">
        <ele>1879.03</ele>
        <time>2013-01-13T12:00:54Z</time>
      </trkpt>
      <trkpt lat="42.771" lon="0.4711">
        <ele>1880</ele>
        <time>2013-01-13T12:01:06Z</time>
      </trkpt>
      <trkpt lat="42.77099" lon="0.47115">
        <ele>1879.51</ele>
        <time>2013-01-13T12:01:15Z</time>
      </trkpt>
      <trkpt lat="42.77099" lon="0.47117">
        <ele>1880</ele>
        <time>2013-01-13T12:01:19Z</time>
      </trkpt>
      <trkpt lat="42.77101" lon="0.47131">
        <ele>1880.96</ele>
        <time>2013-01-13T12:01:33Z</time>
      </trkpt>
      <trkpt lat="42.77102" lon="0.47143">
        <ele>1882.4</ele>
        <time>2013-01-13T12:01:44Z</time>
      </trkpt>
      <trkpt lat="42.77101" lon="0.47148">
        <ele>1882.4</ele>
        <time>2013-01-13T12:01:49Z</time>
      </trkpt>
      <trkpt lat="42.77098" lon="0.4716">
        <ele>1882.4</ele>
        <time>2013-01-13T12:02:03Z</time>
      </trkpt>
      <trkpt lat="42.77097" lon="0.47162">
        <ele>1882.4</ele>
        <time>2013-01-13T12:02:05Z</time>
      </trkpt>
      <trkpt lat="42.77091" lon="0.47169">
        <ele>1883.84</ele>
        <time>2013-01-13T12:02:17Z</time>
      </trkpt>
      <trkpt lat="42.77082" lon="0.47175">
        <ele>1884.8</ele>
        <time>2013-01-13T12:02:31Z</time>
      </trkpt>
      <trkpt lat="42.77082" lon="0.47175">
        <ele>1884.8</ele>
        <time>2013-01-13T12:02:50Z</time>
      </trkpt>
      <trkpt lat="42.77082" lon="0.47175">
        <ele>1884.8</ele>
        <time>2013-01-13T12:03:18Z</time>
      </trkpt>
      <trkpt lat="42.77077" lon="0.47173">
        <ele>1884.8</ele>
        <time>2013-01-13T12:03:29Z</time>
      </trkpt>
      <trkpt lat="42.7707" lon="0.4717">
        <ele>1885.76</ele>
        <time>2013-01-13T12:03:42Z</time>
      </trkpt>
      <trkpt lat="42.77063" lon="0.47165">
        <ele>1888.65</ele>
        <time>2013-01-13T12:03:54Z</time>
      </trkpt>
      <trkpt lat="42.77063" lon="0.47165">
        <ele>1888.17</ele>
        <time>2013-01-13T12:03:55Z</time>
      </trkpt>
      <trkpt lat="42.77061" lon="0.47164">
        <ele>1888.17</ele>
        <time>2013-01-13T12:04:00Z</time>
      </trkpt>
      <trkpt lat="42.77057" lon="0.47159">
        <ele>1891.05</ele>
        <time>2013-01-13T12:04:14Z</time>
      </trkpt>
      <trkpt lat="42.77054" lon="0.47157">
        <ele>1893.45</ele>
        <time>2013-01-13T12:04:26Z</time>
      </trkpt>
      <trkpt lat="42.77054" lon="0.47155">
        <ele>1896.34</ele>
        <time>2013-01-13T12:04:37Z</time>
      </trkpt>
      <trkpt lat="42.77046" lon="0.47155">
        <ele>1898.26</ele>
        <time>2013-01-13T12:04:51Z</time>
      </trkpt>
      <trkpt lat="42.77044" lon="0.47156">
        <ele>1898.26</ele>
        <time>2013-01-13T12:04:54Z</time>
      </trkpt>
      <trkpt lat="42.77037" lon="0.47159">
        <ele>1899.22</ele>
        <time>2013-01-13T12:05:04Z</time>
      </trkpt>
      <trkpt lat="42.77031" lon="0.47164">
        <ele>1899.7</ele>
        <time>2013-01-13T12:05:16Z</time>
      </trkpt>
      <trkpt lat="42.77029" lon="0.47168">
        <ele>1900.66</ele>
        <time>2013-01-13T12:05:22Z</time>
      </trkpt>
      <trkpt lat="42.77024" lon="0.47176">
        <ele>1902.11</ele>
        <time>2013-01-13T12:05:35Z</time>
      </trkpt>
      <trkpt lat="42.7702" lon="0.47182">
        <ele>1903.07</ele>
        <time>2013-01-13T12:05:47Z</time>
      </trkpt>
      <trkpt lat="42.77018" lon="0.47183">
        <ele>1903.07</ele>
        <time>2013-01-13T12:05:52Z</time>
      </trkpt>
      <trkpt lat="42.77016" lon="0.47183">
        <ele>1904.03</ele>
        <time>2013-01-13T12:06:04Z</time>
      </trkpt>
      <trkpt lat="42.77013" lon="0.47184">
        <ele>1904.99</ele>
        <time>2013-01-13T12:06:24Z</time>
      </trkpt>
      <trkpt lat="42.7701" lon="0.47184">
        <ele>1906.43</ele>
        <time>2013-01-13T12:06:34Z</time>
      </trkpt>
      <trkpt lat="42.77008" lon="0.47181">
        <ele>1908.83</ele>
        <time>2013-01-13T12:06:45Z</time>
      </trkpt>
      <trkpt lat="42.77007" lon="0.47176">
        <ele>1909.32</ele>
        <time>2013-01-13T12:06:50Z</time>
      </trkpt>
      <trkpt lat="42.77007" lon="0.47169">
        <ele>1910.76</ele>
        <time>2013-01-13T12:07:01Z</time>
      </trkpt>
      <trkpt lat="42.77005" lon="0.47163">
        <ele>1912.68</ele>
        <time>2013-01-13T12:07:13Z</time>
      </trkpt>
      <trkpt lat="42.77002" lon="0.47157">
        <ele>1915.08</ele>
        <time>2013-01-13T12:07:26Z</time>
      </trkpt>
      <trkpt lat="42.77001" lon="0.47148">
        <ele>1915.56</ele>
        <time>2013-01-13T12:07:40Z</time>
      </trkpt>
      <trkpt lat="42.76999" lon="0.47136">
        <ele>1917.49</ele>
        <time>2013-01-13T12:07:52Z</time>
      </trkpt>
      <trkpt lat="42.76999" lon="0.47136">
        <ele>1917.49</ele>
        <time>2013-01-13T12:07:53Z</time>
      </trkpt>
      <trkpt lat="42.76998" lon="0.4713">
        <ele>1917.49</ele>
        <time>2013-01-13T12:08:03Z</time>
      </trkpt>
      <trkpt lat="42.76999" lon="0.47127">
        <ele>1919.41</ele>
        <time>2013-01-13T12:08:14Z</time>
      </trkpt>
      <trkpt lat="42.77" lon="0.4712">
        <ele>1921.33</ele>
        <time>2013-01-13T12:08:27Z</time>
      </trkpt>
      <trkpt lat="42.77" lon="0.47118">
        <ele>1920.85</ele>
        <time>2013-01-13T12:08:29Z</time>
      </trkpt>
      <trkpt lat="42.77002" lon="0.47107">
        <ele>1921.81</ele>
        <time>2013-01-13T12:08:43Z</time>
      </trkpt>
      <trkpt lat="42.77005" lon="0.471">
        <ele>1923.74</ele>
        <time>2013-01-13T12:08:56Z</time>
      </trkpt>
      <trkpt lat="42.77006" lon="0.47095">
        <ele>1925.66</ele>
        <time>2013-01-13T12:09:01Z</time>
      </trkpt>
      <trkpt lat="42.77006" lon="0.47093">
        <ele>1925.66</ele>
        <time>2013-01-13T12:09:15Z</time>
      </trkpt>
      <trkpt lat="42.77005" lon="0.47092">
        <ele>1924.7</ele>
        <time>2013-01-13T12:09:30Z</time>
      </trkpt>
      <trkpt lat="42.77005" lon="0.47092">
        <ele>1924.22</ele>
        <time>2013-01-13T12:09:48Z</time>
      </trkpt>
      <trkpt lat="42.77005" lon="0.47092">
        <ele>1924.22</ele>
        <time>2013-01-13T12:10:13Z</time>
      </trkpt>
      <trkpt lat="42.77005" lon="0.47092">
        <ele>1923.25</ele>
        <time>2013-01-13T12:10:44Z</time>
      </trkpt>
      <trkpt lat="42.77005" lon="0.47092">
        <ele>1923.74</ele>
        <time>2013-01-13T12:11:22Z</time>
      </trkpt>
      <trkpt lat="42.77004" lon="0.47092">
        <ele>1923.74</ele>
        <time>2013-01-13T12:11:51Z</time>
      </trkpt>
      <trkpt lat="42.77004" lon="0.47092">
        <ele>1924.22</ele>
        <time>2013-01-13T12:12:10Z</time>
      </trkpt>
      <trkpt lat="42.77004" lon="0.47091">
        <ele>1924.7</ele>
        <time>2013-01-13T12:12:19Z</time>
      </trkpt>
      <trkpt lat="42.77004" lon="0.47091">
        <ele>1924.7</ele>
        <time>2013-01-13T12:12:44Z</time>
      </trkpt>
      <trkpt lat="42.77004" lon="0.47091">
        <ele>1926.14</ele>
        <time>2013-01-13T12:12:58Z</time>
      </trkpt>
      <trkpt lat="42.77003" lon="0.47093">
        <ele>1926.14</ele>
        <time>2013-01-13T12:13:09Z</time>
      </trkpt>
      <trkpt lat="42.77004" lon="0.47092">
        <ele>1926.14</ele>
        <time>2013-01-13T12:13:15Z</time>
      </trkpt>
      <trkpt lat="42.77005" lon="0.47092">
        <ele>1924.7</ele>
        <time>2013-01-13T12:13:36Z</time>
      </trkpt>
      <trkpt lat="42.77005" lon="0.47093">
        <ele>1924.7</ele>
        <time>2013-01-13T12:13:53Z</time>
      </trkpt>
      <trkpt lat="42.77005" lon="0.47093">
        <ele>1924.22</ele>
        <time>2013-01-13T12:14:16Z</time>
      </trkpt>
      <trkpt lat="42.77005" lon="0.47093">
        <ele>1924.7</ele>
        <time>2013-01-13T12:14:41Z</time>
      </trkpt>
      <trkpt lat="42.77004" lon="0.47093">
        <ele>1924.22</ele>
        <time>2013-01-13T12:15:05Z</time>
      </trkpt>
      <trkpt lat="42.77004" lon="0.47093">
        <ele>1924.22</ele>
        <time>2013-01-13T12:15:30Z</time>
      </trkpt>
      <trkpt lat="42.77005" lon="0.47093">
        <ele>1924.7</ele>
        <time>2013-01-13T12:15:52Z</time>
      </trkpt>
      <trkpt lat="42.77005" lon="0.47093">
        <ele>1924.7</ele>
        <time>2013-01-13T12:16:16Z</time>
      </trkpt>
      <trkpt lat="42.77005" lon="0.47098">
        <ele>1922.77</ele>
        <time>2013-01-13T12:16:28Z</time>
      </trkpt>
      <trkpt lat="42.77004" lon="0.47101">
        <ele>1921.81</ele>
        <time>2013-01-13T12:16:33Z</time>
      </trkpt>
      <trkpt lat="42.76997" lon="0.47103">
        <ele>1920.85</ele>
        <time>2013-01-13T12:16:42Z</time>
      </trkpt>
      <trkpt lat="42.76989" lon="0.47102">
        <ele>1918.45</ele>
        <time>2013-01-13T12:16:52Z</time>
      </trkpt>
      <trkpt lat="42.76983" lon="0.47109">
        <ele>1916.53</ele>
        <time>2013-01-13T12:17:03Z</time>
      </trkpt>
      <trkpt lat="42.76982" lon="0.4711">
        <ele>1915.56</ele>
        <time>2013-01-13T12:17:13Z</time>
      </trkpt>
      <trkpt lat="42.76982" lon="0.47119">
        <ele>1915.08</ele>
        <time>2013-01-13T12:17:20Z</time>
      </trkpt>
      <trkpt lat="42.76983" lon="0.47126">
        <ele>1913.64</ele>
        <time>2013-01-13T12:17:33Z</time>
      </trkpt>
      <trkpt lat="42.76983" lon="0.47128">
        <ele>1914.12</ele>
        <time>2013-01-13T12:17:38Z</time>
      </trkpt>
      <trkpt lat="42.76985" lon="0.47134">
        <ele>1913.16</ele>
        <time>2013-01-13T12:17:44Z</time>
      </trkpt>
      <trkpt lat="42.76984" lon="0.47141">
        <ele>1911.24</ele>
        <time>2013-01-13T12:17:58Z</time>
      </trkpt>
      <trkpt lat="42.76981" lon="0.47143">
        <ele>1910.28</ele>
        <time>2013-01-13T12:18:15Z</time>
      </trkpt>
      <trkpt lat="42.76981" lon="0.47149">
        <ele>1909.8</ele>
        <time>2013-01-13T12:18:27Z</time>
      </trkpt>
      <trkpt lat="42.76981" lon="0.47156">
        <ele>1909.32</ele>
        <time>2013-01-13T12:18:37Z</time>
      </trkpt>
      <trkpt lat="42.76983" lon="0.47162">
        <ele>1906.91</ele>
        <time>2013-01-13T12:18:51Z</time>
      </trkpt>
      <trkpt lat="42.76986" lon="0.47169">
        <ele>1905.95</ele>
        <time>2013-01-13T12:19:04Z</time>
      </trkpt>
      <trkpt lat="42.7699" lon="0.47179">
        <ele>1904.03</ele>
        <time>2013-01-13T12:19:16Z</time>
      </trkpt>
      <trkpt lat="42.76994" lon="0.47188">
        <ele>1902.59</ele>
        <time>2013-01-13T12:19:29Z</time>
      </trkpt>
      <trkpt lat="42.76996" lon="0.47193">
        <ele>1902.11</ele>
        <time>2013-01-13T12:19:35Z</time>
      </trkpt>
      <trkpt lat="42.76998" lon="0.47198">
        <ele>1899.7</ele>
        <time>2013-01-13T12:19:41Z</time>
      </trkpt>
      <trkpt lat="42.76999" lon="0.47199">
        <ele>1899.7</ele>
        <time>2013-01-13T12:19:42Z</time>
      </trkpt>
      <trkpt lat="42.77" lon="0.47207">
        <ele>1898.74</ele>
        <time>2013-01-13T12:19:55Z</time>
      </trkpt>
      <trkpt lat="42.77" lon="0.47207">
        <ele>1898.74</ele>
        <time>2013-01-13T12:20:07Z</time>
      </trkpt>
      <trkpt lat="42.77" lon="0.47207">
        <ele>1898.74</ele>
        <time>2013-01-13T12:20:29Z</time>
      </trkpt>
      <trkpt lat="42.77" lon="0.47207">
        <ele>1899.22</ele>
        <time>2013-01-13T12:20:52Z</time>
      </trkpt>
      <trkpt lat="42.77" lon="0.47207">
        <ele>1899.22</ele>
        <time>2013-01-13T12:21:06Z</time>
      </trkpt>
      <trkpt lat="42.77" lon="0.47207">
        <ele>1899.22</ele>
        <time>2013-01-13T12:21:25Z</time>
      </trkpt>
      <trkpt lat="42.77" lon="0.47207">
        <ele>1898.74</ele>
        <time>2013-01-13T12:21:49Z</time>
      </trkpt>
      <trkpt lat="42.77001" lon="0.47208">
        <ele>1898.26</ele>
        <time>2013-01-13T12:22:04Z</time>
      </trkpt>
      <trkpt lat="42.77001" lon="0.47208">
        <ele>1899.7</ele>
        <time>2013-01-13T12:22:30Z</time>
      </trkpt>
      <trkpt lat="42.77001" lon="0.47207">
        <ele>1900.18</ele>
        <time>2013-01-13T12:22:50Z</time>
      </trkpt>
      <trkpt lat="42.77001" lon="0.47207">
        <ele>1897.3</ele>
        <time>2013-01-13T12:23:06Z</time>
      </trkpt>
      <trkpt lat="42.77001" lon="0.47207">
        <ele>1898.26</ele>
        <time>2013-01-13T12:23:07Z</time>
      </trkpt>
      <trkpt lat="42.77001" lon="0.47207">
        <ele>1900.18</ele>
        <time>2013-01-13T12:23:10Z</time>
      </trkpt>
      <trkpt lat="42.77" lon="0.47207">
        <ele>1898.74</ele>
        <time>2013-01-13T12:23:27Z</time>
      </trkpt>
      <trkpt lat="42.77" lon="0.47208">
        <ele>1899.22</ele>
        <time>2013-01-13T12:23:50Z</time>
      </trkpt>
      <trkpt lat="42.77" lon="0.47208">
        <ele>1898.74</ele>
        <time>2013-01-13T12:24:10Z</time>
      </trkpt>
      <trkpt lat="42.77" lon="0.47208">
        <ele>1899.22</ele>
        <time>2013-01-13T12:24:33Z</time>
      </trkpt>
      <trkpt lat="42.77" lon="0.47208">
        <ele>1892.97</ele>
        <time>2013-01-13T12:24:34Z</time>
      </trkpt>
      <trkpt lat="42.77" lon="0.47208">
        <ele>1900.18</ele>
        <time>2013-01-13T12:24:35Z</time>
      </trkpt>
      <trkpt lat="42.77" lon="0.47208">
        <ele>1899.22</ele>
        <time>2013-01-13T12:24:58Z</time>
      </trkpt>
      <trkpt lat="42.77" lon="0.47208">
        <ele>1905.95</ele>
        <time>2013-01-13T12:25:11Z</time>
      </trkpt>
      <trkpt lat="42.77" lon="0.47208">
        <ele>1899.22</ele>
        <time>2013-01-13T12:25:12Z</time>
      </trkpt>
      <trkpt lat="42.77" lon="0.47208">
        <ele>1895.86</ele>
        <time>2013-01-13T12:25:26Z</time>
      </trkpt>
      <trkpt lat="42.77" lon="0.47208">
        <ele>1900.18</ele>
        <time>2013-01-13T12:25:27Z</time>
      </trkpt>
      <trkpt lat="42.77" lon="0.47208">
        <ele>1894.42</ele>
        <time>2013-01-13T12:25:42Z</time>
      </trkpt>
      <trkpt lat="42.77" lon="0.47208">
        <ele>1899.22</ele>
        <time>2013-01-13T12:25:43Z</time>
      </trkpt>
      <trkpt lat="42.77" lon="0.47208">
        <ele>1895.86</ele>
        <time>2013-01-13T12:25:57Z</time>
      </trkpt>
      <trkpt lat="42.77" lon="0.47208">
        <ele>1909.8</ele>
        <time>2013-01-13T12:25:58Z</time>
      </trkpt>
      <trkpt lat="42.77" lon="0.47208">
        <ele>1900.66</ele>
        <time>2013-01-13T12:25:59Z</time>
      </trkpt>
      <trkpt lat="42.77" lon="0.47208">
        <ele>1899.7</ele>
        <time>2013-01-13T12:26:01Z</time>
      </trkpt>
      <trkpt lat="42.77" lon="0.47208">
        <ele>1899.7</ele>
        <time>2013-01-13T12:26:23Z</time>
      </trkpt>
      <trkpt lat="42.77" lon="0.47207">
        <ele>1900.66</ele>
        <time>2013-01-13T12:26:30Z</time>
      </trkpt>
      <trkpt lat="42.77" lon="0.47207">
        <ele>1900.18</ele>
        <time>2013-01-13T12:26:54Z</time>
      </trkpt>
      <trkpt lat="42.77" lon="0.47207">
        <ele>1899.7</ele>
        <time>2013-01-13T12:27:17Z</time>
      </trkpt>
      <trkpt lat="42.77" lon="0.47207">
        <ele>1900.18</ele>
        <time>2013-01-13T12:27:40Z</time>
      </trkpt>
      <trkpt lat="42.77" lon="0.47205">
        <ele>1900.66</ele>
        <time>2013-01-13T12:27:51Z</time>
      </trkpt>
      <trkpt lat="42.76998" lon="0.47199">
        <ele>1901.63</ele>
        <time>2013-01-13T12:27:58Z</time>
      </trkpt>
      <trkpt lat="42.76993" lon="0.47191">
        <ele>1902.59</ele>
        <time>2013-01-13T12:28:10Z</time>
      </trkpt>
      <trkpt lat="42.7699" lon="0.47185">
        <ele>1904.03</ele>
        <time>2013-01-13T12:28:24Z</time>
      </trkpt>
      <trkpt lat="42.76987" lon="0.47183">
        <ele>1904.03</ele>
        <time>2013-01-13T12:28:28Z</time>
      </trkpt>
      <trkpt lat="42.76976" lon="0.47181">
        <ele>1903.07</ele>
        <time>2013-01-13T12:28:39Z</time>
      </trkpt>
      <trkpt lat="42.76973" lon="0.47183">
        <ele>1903.55</ele>
        <time>2013-01-13T12:28:44Z</time>
      </trkpt>
      <trkpt lat="42.76966" lon="0.47187">
        <ele>1901.63</ele>
        <time>2013-01-13T12:28:54Z</time>
      </trkpt>
      <trkpt lat="42.76964" lon="0.4719">
        <ele>1902.59</ele>
        <time>2013-01-13T12:29:01Z</time>
      </trkpt>
      <trkpt lat="42.76963" lon="0.4719">
        <ele>1901.63</ele>
        <time>2013-01-13T12:29:12Z</time>
      </trkpt>
      <trkpt lat="42.76962" lon="0.47191">
        <ele>1901.63</ele>
        <time>2013-01-13T12:29:28Z</time>
      </trkpt>
      <trkpt lat="42.76962" lon="0.47191">
        <ele>1901.63</ele>
        <time>2013-01-13T12:29:42Z</time>
      </trkpt>
      <trkpt lat="42.76962" lon="0.47192">
        <ele>1902.11</ele>
        <time>2013-01-13T12:29:46Z</time>
      </trkpt>
      <trkpt lat="42.76954" lon="0.47195">
        <ele>1902.11</ele>
        <time>2013-01-13T12:29:58Z</time>
      </trkpt>
      <trkpt lat="42.76954" lon="0.47195">
        <ele>1902.11</ele>
        <time>2013-01-13T12:29:59Z</time>
      </trkpt>
      <trkpt lat="42.76953" lon="0.47199">
        <ele>1903.07</ele>
        <time>2013-01-13T12:30:08Z</time>
      </trkpt>
      <trkpt lat="42.76951" lon="0.472">
        <ele>1902.59</ele>
        <time>2013-01-13T12:30:10Z</time>
      </trkpt>
      <trkpt lat="42.76948" lon="0.47203">
        <ele>1903.55</ele>
        <time>2013-01-13T12:30:20Z</time>
      </trkpt>
      <trkpt lat="42.76947" lon="0.47207">
        <ele>1904.51</ele>
        <time>2013-01-13T12:30:30Z</time>
      </trkpt>
      <trkpt lat="42.76946" lon="0.47207">
        <ele>1904.99</ele>
        <time>2013-01-13T12:30:42Z</time>
      </trkpt>
      <trkpt lat="42.76946" lon="0.47208">
        <ele>1904.03</ele>
        <time>2013-01-13T12:31:02Z</time>
      </trkpt>
      <trkpt lat="42.76941" lon="0.47213">
        <ele>1904.51</ele>
        <time>2013-01-13T12:31:10Z</time>
      </trkpt>
      <trkpt lat="42.76938" lon="0.47214">
        <ele>1904.51</ele>
        <time>2013-01-13T12:31:16Z</time>
      </trkpt>
      <trkpt lat="42.76933" lon="0.47216">
        <ele>1904.03</ele>
        <time>2013-01-13T12:31:21Z</time>
      </trkpt>
      <trkpt lat="42.7693" lon="0.47216">
        <ele>1904.03</ele>
        <time>2013-01-13T12:31:24Z</time>
      </trkpt>
      <trkpt lat="42.76928" lon="0.47216">
        <ele>1904.03</ele>
        <time>2013-01-13T12:31:26Z</time>
      </trkpt>
      <trkpt lat="42.76923" lon="0.47222">
        <ele>1904.99</ele>
        <time>2013-01-13T12:31:39Z</time>
      </trkpt>
      <trkpt lat="42.76918" lon="0.47223">
        <ele>1905.47</ele>
        <time>2013-01-13T12:31:44Z</time>
      </trkpt>
      <trkpt lat="42.76915" lon="0.47223">
        <ele>1905.47</ele>
        <time>2013-01-13T12:31:51Z</time>
      </trkpt>
      <trkpt lat="42.76906" lon="0.4722">
        <ele>1906.91</ele>
        <time>2013-01-13T12:32:04Z</time>
      </trkpt>
      <trkpt lat="42.76906" lon="0.4722">
        <ele>1906.91</ele>
        <time>2013-01-13T12:32:19Z</time>
      </trkpt>
      <trkpt lat="42.76906" lon="0.4722">
        <ele>1906.43</ele>
        <time>2013-01-13T12:32:33Z</time>
      </trkpt>
      <trkpt lat="42.76906" lon="0.4722">
        <ele>1906.91</ele>
        <time>2013-01-13T12:32:45Z</time>
      </trkpt>
      <trkpt lat="42.76905" lon="0.47221">
        <ele>1905.47</ele>
        <time>2013-01-13T12:32:54Z</time>
      </trkpt>
      <trkpt lat="42.76906" lon="0.47221">
        <ele>1905.47</ele>
        <time>2013-01-13T12:33:11Z</time>
      </trkpt>
      <trkpt lat="42.76905" lon="0.47218">
        <ele>1906.91</ele>
        <time>2013-01-13T12:33:24Z</time>
      </trkpt>
      <trkpt lat="42.76905" lon="0.47218">
        <ele>1906.91</ele>
        <time>2013-01-13T12:33:25Z</time>
      </trkpt>
      <trkpt lat="42.76903" lon="0.47212">
        <ele>1907.87</ele>
        <time>2013-01-13T12:33:31Z</time>
      </trkpt>
      <trkpt lat="42.76896" lon="0.47205">
        <ele>1907.39</ele>
        <time>2013-01-13T12:33:42Z</time>
      </trkpt>
      <trkpt lat="42.76889" lon="0.47201">
        <ele>1905.47</ele>
        <time>2013-01-13T12:33:53Z</time>
      </trkpt>
      <trkpt lat="42.76889" lon="0.47202">
        <ele>1905.95</ele>
        <time>2013-01-13T12:33:54Z</time>
      </trkpt>
      <trkpt lat="42.76882" lon="0.47204">
        <ele>1904.51</ele>
        <time>2013-01-13T12:34:02Z</time>
      </trkpt>
      <trkpt lat="42.76877" lon="0.47204">
        <ele>1904.99</ele>
        <time>2013-01-13T12:34:07Z</time>
      </trkpt>
      <trkpt lat="42.76874" lon="0.47207">
        <ele>1904.99</ele>
        <time>2013-01-13T12:34:20Z</time>
      </trkpt>
      <trkpt lat="42.76875" lon="0.47206">
        <ele>1904.51</ele>
        <time>2013-01-13T12:34:37Z</time>
      </trkpt>
      <trkpt lat="42.76875" lon="0.47207">
        <ele>1904.99</ele>
        <time>2013-01-13T12:34:52Z</time>
      </trkpt>
      <trkpt lat="42.76875" lon="0.47207">
        <ele>1904.99</ele>
        <time>2013-01-13T12:35:05Z</time>
      </trkpt>
      <trkpt lat="42.76875" lon="0.47207">
        <ele>1904.51</ele>
        <time>2013-01-13T12:35:28Z</time>
      </trkpt>
      <trkpt lat="42.76875" lon="0.47206">
        <ele>1904.03</ele>
        <time>2013-01-13T12:35:51Z</time>
      </trkpt>
      <trkpt lat="42.76876" lon="0.47207">
        <ele>1905.47</ele>
        <time>2013-01-13T12:36:17Z</time>
      </trkpt>
      <trkpt lat="42.76875" lon="0.47207">
        <ele>1904.99</ele>
        <time>2013-01-13T12:36:36Z</time>
      </trkpt>
      <trkpt lat="42.76875" lon="0.47207">
        <ele>1904.03</ele>
        <time>2013-01-13T12:37:03Z</time>
      </trkpt>
      <trkpt lat="42.76875" lon="0.47208">
        <ele>1904.51</ele>
        <time>2013-01-13T12:37:16Z</time>
      </trkpt>
      <trkpt lat="42.76875" lon="0.47215">
        <ele>1902.11</ele>
        <time>2013-01-13T12:37:20Z</time>
      </trkpt>
      <trkpt lat="42.76875" lon="0.47217">
        <ele>1901.14</ele>
        <time>2013-01-13T12:37:22Z</time>
      </trkpt>
      <trkpt lat="42.76875" lon="0.47219">
        <ele>1900.18</ele>
        <time>2013-01-13T12:37:24Z</time>
      </trkpt>
      <trkpt lat="42.76874" lon="0.47221">
        <ele>1900.18</ele>
        <time>2013-01-13T12:37:37Z</time>
      </trkpt>
      <trkpt lat="42.76874" lon="0.47221">
        <ele>1900.66</ele>
        <time>2013-01-13T12:37:51Z</time>
      </trkpt>
      <trkpt lat="42.76874" lon="0.47222">
        <ele>1900.18</ele>
        <time>2013-01-13T12:38:12Z</time>
      </trkpt>
      <trkpt lat="42.76874" lon="0.47222">
        <ele>1900.66</ele>
        <time>2013-01-13T12:38:28Z</time>
      </trkpt>
      <trkpt lat="42.76874" lon="0.47222">
        <ele>1899.7</ele>
        <time>2013-01-13T12:38:31Z</time>
      </trkpt>
      <trkpt lat="42.76881" lon="0.47231">
        <ele>1896.82</ele>
        <time>2013-01-13T12:38:38Z</time>
      </trkpt>
      <trkpt lat="42.76882" lon="0.47232">
        <ele>1896.34</ele>
        <time>2013-01-13T12:38:39Z</time>
      </trkpt>
      <trkpt lat="42.76888" lon="0.47239">
        <ele>1892.01</ele>
        <time>2013-01-13T12:38:46Z</time>
      </trkpt>
      <trkpt lat="42.76889" lon="0.47241">
        <ele>1892.01</ele>
        <time>2013-01-13T12:38:47Z</time>
      </trkpt>
      <trkpt lat="42.76893" lon="0.47246">
        <ele>1890.09</ele>
        <time>2013-01-13T12:38:51Z</time>
      </trkpt>
      <trkpt lat="42.76896" lon="0.47252">
        <ele>1887.69</ele>
        <time>2013-01-13T12:38:55Z</time>
      </trkpt>
      <trkpt lat="42.76899" lon="0.47259">
        <ele>1884.32</ele>
        <time>2013-01-13T12:39:00Z</time>
      </trkpt>
      <trkpt lat="42.769" lon="0.4726">
        <ele>1883.36</ele>
        <time>2013-01-13T12:39:01Z</time>
      </trkpt>
      <trkpt lat="42.76902" lon="0.4726">
        <ele>1882.88</ele>
        <time>2013-01-13T12:39:04Z</time>
      </trkpt>
      <trkpt lat="42.76905" lon="0.47262">
        <ele>1881.92</ele>
        <time>2013-01-13T12:39:06Z</time>
      </trkpt>
      <trkpt lat="42.76907" lon="0.47276">
        <ele>1878.07</ele>
        <time>2013-01-13T12:39:17Z</time>
      </trkpt>
      <trkpt lat="42.76907" lon="0.47278">
        <ele>1877.59</ele>
        <time>2013-01-13T12:39:18Z</time>
      </trkpt>
      <trkpt lat="42.76911" lon="0.47289">
        <ele>1873.27</ele>
        <time>2013-01-13T12:39:28Z</time>
      </trkpt>
      <trkpt lat="42.76914" lon="0.47299">
        <ele>1871.82</ele>
        <time>2013-01-13T12:39:39Z</time>
      </trkpt>
      <trkpt lat="42.76915" lon="0.47302">
        <ele>1869.9</ele>
        <time>2013-01-13T12:39:42Z</time>
      </trkpt>
      <trkpt lat="42.76916" lon="0.47304">
        <ele>1868.46</ele>
        <time>2013-01-13T12:39:44Z</time>
      </trkpt>
      <trkpt lat="42.76916" lon="0.47307">
        <ele>1868.46</ele>
        <time>2013-01-13T12:39:46Z</time>
      </trkpt>
      <trkpt lat="42.76917" lon="0.47313">
        <ele>1867.02</ele>
        <time>2013-01-13T12:39:51Z</time>
      </trkpt>
      <trkpt lat="42.76918" lon="0.47317">
        <ele>1865.58</ele>
        <time>2013-01-13T12:39:54Z</time>
      </trkpt>
      <trkpt lat="42.76918" lon="0.47323">
        <ele>1863.17</ele>
        <time>2013-01-13T12:39:59Z</time>
      </trkpt>
      <trkpt lat="42.7692" lon="0.47335">
        <ele>1860.77</ele>
        <time>2013-01-13T12:40:08Z</time>
      </trkpt>
      <trkpt lat="42.76918" lon="0.4735">
        <ele>1857.89</ele>
        <time>2013-01-13T12:40:20Z</time>
      </trkpt>
      <trkpt lat="42.76918" lon="0.47358">
        <ele>1855.48</ele>
        <time>2013-01-13T12:40:28Z</time>
      </trkpt>
      <trkpt lat="42.76917" lon="0.47361">
        <ele>1854.52</ele>
        <time>2013-01-13T12:40:40Z</time>
      </trkpt>
      <trkpt lat="42.76918" lon="0.47375">
        <ele>1852.12</ele>
        <time>2013-01-13T12:40:49Z</time>
      </trkpt>
      <trkpt lat="42.76919" lon="0.47378">
        <ele>1851.16</ele>
        <time>2013-01-13T12:40:51Z</time>
      </trkpt>
      <trkpt lat="42.7692" lon="0.47381">
        <ele>1849.71</ele>
        <time>2013-01-13T12:40:53Z</time>
      </trkpt>
      <trkpt lat="42.76925" lon="0.47388">
        <ele>1846.35</ele>
        <time>2013-01-13T12:41:01Z</time>
      </trkpt>
      <trkpt lat="42.76933" lon="0.47394">
        <ele>1842.98</ele>
        <time>2013-01-13T12:41:09Z</time>
      </trkpt>
      <trkpt lat="42.76933" lon="0.47395">
        <ele>1842.98</ele>
        <time>2013-01-13T12:41:10Z</time>
      </trkpt>
      <trkpt lat="42.76936" lon="0.47398">
        <ele>1841.54</ele>
        <time>2013-01-13T12:41:14Z</time>
      </trkpt>
      <trkpt lat="42.76944" lon="0.47405">
        <ele>1839.14</ele>
        <time>2013-01-13T12:41:26Z</time>
      </trkpt>
      <trkpt lat="42.76945" lon="0.47412">
        <ele>1839.14</ele>
        <time>2013-01-13T12:41:38Z</time>
      </trkpt>
      <trkpt lat="42.76945" lon="0.47412">
        <ele>1838.18</ele>
        <time>2013-01-13T12:42:04Z</time>
      </trkpt>
      <trkpt lat="42.76945" lon="0.47412">
        <ele>1839.14</ele>
        <time>2013-01-13T12:42:34Z</time>
      </trkpt>
      <trkpt lat="42.76945" lon="0.47412">
        <ele>1838.66</ele>
        <time>2013-01-13T12:42:57Z</time>
      </trkpt>
      <trkpt lat="42.76945" lon="0.47415">
        <ele>1838.18</ele>
        <time>2013-01-13T12:43:21Z</time>
      </trkpt>
      <trkpt lat="42.76943" lon="0.47422">
        <ele>1838.18</ele>
        <time>2013-01-13T12:43:27Z</time>
      </trkpt>
      <trkpt lat="42.76942" lon="0.47429">
        <ele>1838.18</ele>
        <time>2013-01-13T12:43:40Z</time>
      </trkpt>
      <trkpt lat="42.76942" lon="0.47435">
        <ele>1837.7</ele>
        <time>2013-01-13T12:43:44Z</time>
      </trkpt>
      <trkpt lat="42.7694" lon="0.4745">
        <ele>1837.22</ele>
        <time>2013-01-13T12:43:57Z</time>
      </trkpt>
      <trkpt lat="42.76941" lon="0.47456">
        <ele>1838.66</ele>
        <time>2013-01-13T12:44:10Z</time>
      </trkpt>
      <trkpt lat="42.76941" lon="0.47456">
        <ele>1837.7</ele>
        <time>2013-01-13T12:44:34Z</time>
      </trkpt>
      <trkpt lat="42.76941" lon="0.47456">
        <ele>1838.66</ele>
        <time>2013-01-13T12:45:04Z</time>
      </trkpt>
      <trkpt lat="42.7694" lon="0.47456">
        <ele>1837.7</ele>
        <time>2013-01-13T12:45:28Z</time>
      </trkpt>
      <trkpt lat="42.76941" lon="0.47455">
        <ele>1837.22</ele>
        <time>2013-01-13T12:45:41Z</time>
      </trkpt>
      <trkpt lat="42.76941" lon="0.47455">
        <ele>1837.7</ele>
        <time>2013-01-13T12:46:08Z</time>
      </trkpt>
      <trkpt lat="42.76941" lon="0.47455">
        <ele>1837.22</ele>
        <time>2013-01-13T12:46:29Z</time>
      </trkpt>
      <trkpt lat="42.7694" lon="0.47456">
        <ele>1838.18</ele>
        <time>2013-01-13T12:46:46Z</time>
      </trkpt>
      <trkpt lat="42.7694" lon="0.47456">
        <ele>1838.18</ele>
        <time>2013-01-13T12:47:14Z</time>
      </trkpt>
      <trkpt lat="42.7694" lon="0.47456">
        <ele>1838.66</ele>
        <time>2013-01-13T12:47:50Z</time>
      </trkpt>
      <trkpt lat="42.7694" lon="0.47456">
        <ele>1838.66</ele>
        <time>2013-01-13T12:48:15Z</time>
      </trkpt>
      <trkpt lat="42.76942" lon="0.47459">
        <ele>1837.7</ele>
        <time>2013-01-13T12:48:19Z</time>
      </trkpt>
      <trkpt lat="42.76939" lon="0.47476">
        <ele>1836.74</ele>
        <time>2013-01-13T12:48:32Z</time>
      </trkpt>
      <trkpt lat="42.76939" lon="0.47478">
        <ele>1836.74</ele>
        <time>2013-01-13T12:48:34Z</time>
      </trkpt>
      <trkpt lat="42.76936" lon="0.47491">
        <ele>1836.74</ele>
        <time>2013-01-13T12:48:47Z</time>
      </trkpt>
      <trkpt lat="42.76932" lon="0.47503">
        <ele>1835.77</ele>
        <time>2013-01-13T12:48:58Z</time>
      </trkpt>
      <trkpt lat="42.76931" lon="0.47507">
        <ele>1834.81</ele>
        <time>2013-01-13T12:49:01Z</time>
      </trkpt>
      <trkpt lat="42.76928" lon="0.47518">
        <ele>1835.29</ele>
        <time>2013-01-13T12:49:12Z</time>
      </trkpt>
      <trkpt lat="42.76926" lon="0.47523">
        <ele>1835.29</ele>
        <time>2013-01-13T12:49:17Z</time>
      </trkpt>
      <trkpt lat="42.76925" lon="0.47526">
        <ele>1835.77</ele>
        <time>2013-01-13T12:49:20Z</time>
      </trkpt>
      <trkpt lat="42.76922" lon="0.47534">
        <ele>1834.81</ele>
        <time>2013-01-13T12:49:27Z</time>
      </trkpt>
      <trkpt lat="42.76919" lon="0.47545">
        <ele>1834.81</ele>
        <time>2013-01-13T12:49:40Z</time>
      </trkpt>
      <trkpt lat="42.76918" lon="0.47546">
        <ele>1833.85</ele>
        <time>2013-01-13T12:49:41Z</time>
      </trkpt>
      <trkpt lat="42.76915" lon="0.47553">
        <ele>1833.37</ele>
        <time>2013-01-13T12:49:49Z</time>
      </trkpt>
      <trkpt lat="42.76915" lon="0.47557">
        <ele>1833.37</ele>
        <time>2013-01-13T12:49:53Z</time>
      </trkpt>
      <trkpt lat="42.76909" lon="0.47564">
        <ele>1833.85</ele>
        <time>2013-01-13T12:50:05Z</time>
      </trkpt>
      <trkpt lat="42.76907" lon="0.47566">
        <ele>1834.81</ele>
        <time>2013-01-13T12:50:09Z</time>
      </trkpt>
      <trkpt lat="42.76905" lon="0.47569">
        <ele>1834.81</ele>
        <time>2013-01-13T12:50:13Z</time>
      </trkpt>
      <trkpt lat="42.769" lon="0.47576">
        <ele>1836.74</ele>
        <time>2013-01-13T12:50:26Z</time>
      </trkpt>
      <trkpt lat="42.76896" lon="0.47578">
        <ele>1839.14</ele>
        <time>2013-01-13T12:50:40Z</time>
      </trkpt>
      <trkpt lat="42.76889" lon="0.47583">
        <ele>1840.58</ele>
        <time>2013-01-13T12:50:51Z</time>
      </trkpt>
      <trkpt lat="42.76884" lon="0.47586">
        <ele>1840.58</ele>
        <time>2013-01-13T12:50:58Z</time>
      </trkpt>
      <trkpt lat="42.76877" lon="0.47589">
        <ele>1843.95</ele>
        <time>2013-01-13T12:51:13Z</time>
      </trkpt>
      <trkpt lat="42.76876" lon="0.47591">
        <ele>1844.43</ele>
        <time>2013-01-13T12:51:16Z</time>
      </trkpt>
      <trkpt lat="42.76881" lon="0.47598">
        <ele>1844.43</ele>
        <time>2013-01-13T12:51:29Z</time>
      </trkpt>
      <trkpt lat="42.76888" lon="0.47606">
        <ele>1845.39</ele>
        <time>2013-01-13T12:51:42Z</time>
      </trkpt>
      <trkpt lat="42.76889" lon="0.47608">
        <ele>1844.91</ele>
        <time>2013-01-13T12:51:44Z</time>
      </trkpt>
      <trkpt lat="42.76888" lon="0.47616">
        <ele>1845.87</ele>
        <time>2013-01-13T12:51:52Z</time>
      </trkpt>
      <trkpt lat="42.76883" lon="0.47629">
        <ele>1845.39</ele>
        <time>2013-01-13T12:52:05Z</time>
      </trkpt>
      <trkpt lat="42.76881" lon="0.4763">
        <ele>1845.87</ele>
        <time>2013-01-13T12:52:07Z</time>
      </trkpt>
      <trkpt lat="42.76877" lon="0.47637">
        <ele>1846.35</ele>
        <time>2013-01-13T12:52:19Z</time>
      </trkpt>
      <trkpt lat="42.76877" lon="0.47638">
        <ele>1846.83</ele>
        <time>2013-01-13T12:52:21Z</time>
      </trkpt>
      <trkpt lat="42.76874" lon="0.47646">
        <ele>1846.83</ele>
        <time>2013-01-13T12:52:30Z</time>
      </trkpt>
      <trkpt lat="42.76869" lon="0.47654">
        <ele>1846.83</ele>
        <time>2013-01-13T12:52:42Z</time>
      </trkpt>
      <trkpt lat="42.76864" lon="0.4766">
        <ele>1847.79</ele>
        <time>2013-01-13T12:52:50Z</time>
      </trkpt>
      <trkpt lat="42.76859" lon="0.47667">
        <ele>1849.23</ele>
        <time>2013-01-13T12:53:02Z</time>
      </trkpt>
      <trkpt lat="42.76853" lon="0.47677">
        <ele>1849.23</ele>
        <time>2013-01-13T12:53:14Z</time>
      </trkpt>
      <trkpt lat="42.76851" lon="0.4768">
        <ele>1848.75</ele>
        <time>2013-01-13T12:53:19Z</time>
      </trkpt>
      <trkpt lat="42.76851" lon="0.47691">
        <ele>1849.71</ele>
        <time>2013-01-13T12:53:32Z</time>
      </trkpt>
      <trkpt lat="42.76852" lon="0.47698">
        <ele>1849.71</ele>
        <time>2013-01-13T12:53:42Z</time>
      </trkpt>
      <trkpt lat="42.76854" lon="0.47702">
        <ele>1852.6</ele>
        <time>2013-01-13T12:53:53Z</time>
      </trkpt>
      <trkpt lat="42.76856" lon="0.47704">
        <ele>1851.64</ele>
        <time>2013-01-13T12:53:56Z</time>
      </trkpt>
      <trkpt lat="42.76861" lon="0.47711">
        <ele>1852.12</ele>
        <time>2013-01-13T12:54:04Z</time>
      </trkpt>
      <trkpt lat="42.76862" lon="0.47717">
        <ele>1852.12</ele>
        <time>2013-01-13T12:54:09Z</time>
      </trkpt>
      <trkpt lat="42.76863" lon="0.47728">
        <ele>1851.16</ele>
        <time>2013-01-13T12:54:19Z</time>
      </trkpt>
      <trkpt lat="42.76865" lon="0.47734">
        <ele>1851.64</ele>
        <time>2013-01-13T12:54:25Z</time>
      </trkpt>
      <trkpt lat="42.76868" lon="0.47746">
        <ele>1851.16</ele>
        <time>2013-01-13T12:54:38Z</time>
      </trkpt>
      <trkpt lat="42.76868" lon="0.47748">
        <ele>1850.68</ele>
        <time>2013-01-13T12:54:40Z</time>
      </trkpt>
      <trkpt lat="42.76868" lon="0.47756">
        <ele>1850.19</ele>
        <time>2013-01-13T12:54:48Z</time>
      </trkpt>
      <trkpt lat="42.76872" lon="0.47768">
        <ele>1852.12</ele>
        <time>2013-01-13T12:55:00Z</time>
      </trkpt>
      <trkpt lat="42.76873" lon="0.47773">
        <ele>1851.64</ele>
        <time>2013-01-13T12:55:05Z</time>
      </trkpt>
      <trkpt lat="42.76873" lon="0.47776">
        <ele>1853.08</ele>
        <time>2013-01-13T12:55:08Z</time>
      </trkpt>
      <trkpt lat="42.7687" lon="0.4778">
        <ele>1853.56</ele>
        <time>2013-01-13T12:55:18Z</time>
      </trkpt>
      <trkpt lat="42.7687" lon="0.4778">
        <ele>1853.56</ele>
        <time>2013-01-13T12:55:23Z</time>
      </trkpt>
      <trkpt lat="42.76864" lon="0.47788">
        <ele>1854.52</ele>
        <time>2013-01-13T12:55:35Z</time>
      </trkpt>
      <trkpt lat="42.76862" lon="0.47796">
        <ele>1854.52</ele>
        <time>2013-01-13T12:55:46Z</time>
      </trkpt>
      <trkpt lat="42.76862" lon="0.47798">
        <ele>1855.96</ele>
        <time>2013-01-13T12:55:48Z</time>
      </trkpt>
      <trkpt lat="42.76861" lon="0.47808">
        <ele>1856.44</ele>
        <time>2013-01-13T12:55:59Z</time>
      </trkpt>
      <trkpt lat="42.76861" lon="0.47809">
        <ele>1855.96</ele>
        <time>2013-01-13T12:56:00Z</time>
      </trkpt>
      <trkpt lat="42.76864" lon="0.4782">
        <ele>1857.4</ele>
        <time>2013-01-13T12:56:12Z</time>
      </trkpt>
      <trkpt lat="42.76869" lon="0.47826">
        <ele>1857.4</ele>
        <time>2013-01-13T12:56:21Z</time>
      </trkpt>
      <trkpt lat="42.7687" lon="0.47829">
        <ele>1857.4</ele>
        <time>2013-01-13T12:56:31Z</time>
      </trkpt>
      <trkpt lat="42.7687" lon="0.47832">
        <ele>1856.44</ele>
        <time>2013-01-13T12:56:34Z</time>
      </trkpt>
      <trkpt lat="42.76874" lon="0.47845">
        <ele>1855</ele>
        <time>2013-01-13T12:56:46Z</time>
      </trkpt>
      <trkpt lat="42.76875" lon="0.47847">
        <ele>1855.48</ele>
        <time>2013-01-13T12:56:55Z</time>
      </trkpt>
      <trkpt lat="42.76873" lon="0.4784">
        <ele>1855.48</ele>
        <time>2013-01-13T12:57:06Z</time>
      </trkpt>
      <trkpt lat="42.76869" lon="0.4783">
        <ele>1856.92</ele>
        <time>2013-01-13T12:57:21Z</time>
      </trkpt>
      <trkpt lat="42.7687" lon="0.47828">
        <ele>1855.96</ele>
        <time>2013-01-13T12:57:30Z</time>
      </trkpt>
      <trkpt lat="42.7687" lon="0.47828">
        <ele>1856.44</ele>
        <time>2013-01-13T12:57:45Z</time>
      </trkpt>
      <trkpt lat="42.7687" lon="0.47828">
        <ele>1855.96</ele>
        <time>2013-01-13T12:58:05Z</time>
      </trkpt>
      <trkpt lat="42.7687" lon="0.47827">
        <ele>1855.96</ele>
        <time>2013-01-13T12:58:33Z</time>
      </trkpt>
      <trkpt lat="42.76869" lon="0.47827">
        <ele>1856.44</ele>
        <time>2013-01-13T12:58:51Z</time>
      </trkpt>
      <trkpt lat="42.76869" lon="0.47827">
        <ele>1856.44</ele>
        <time>2013-01-13T12:59:07Z</time>
      </trkpt>
      <trkpt lat="42.76869" lon="0.47827">
        <ele>1856.92</ele>
        <time>2013-01-13T12:59:29Z</time>
      </trkpt>
      <trkpt lat="42.7687" lon="0.47826">
        <ele>1855.96</ele>
        <time>2013-01-13T12:59:45Z</time>
      </trkpt>
      <trkpt lat="42.7687" lon="0.47826">
        <ele>1856.92</ele>
        <time>2013-01-13T13:00:10Z</time>
      </trkpt>
      <trkpt lat="42.76869" lon="0.47824">
        <ele>1857.89</ele>
        <time>2013-01-13T13:00:35Z</time>
      </trkpt>
      <trkpt lat="42.76869" lon="0.47825">
        <ele>1856.92</ele>
        <time>2013-01-13T13:01:04Z</time>
      </trkpt>
      <trkpt lat="42.76869" lon="0.47825">
        <ele>1856.92</ele>
        <time>2013-01-13T13:01:29Z</time>
      </trkpt>
      <trkpt lat="42.76869" lon="0.47825">
        <ele>1856.92</ele>
        <time>2013-01-13T13:01:54Z</time>
      </trkpt>
      <trkpt lat="42.76869" lon="0.47825">
        <ele>1856.44</ele>
        <time>2013-01-13T13:02:17Z</time>
      </trkpt>
      <trkpt lat="42.76868" lon="0.47825">
        <ele>1856.44</ele>
        <time>2013-01-13T13:02:50Z</time>
      </trkpt>
      <trkpt lat="42.76868" lon="0.47825">
        <ele>1856.44</ele>
        <time>2013-01-13T13:03:17Z</time>
      </trkpt>
      <trkpt lat="42.76869" lon="0.47825">
        <ele>1856.44</ele>
        <time>2013-01-13T13:03:51Z</time>
      </trkpt>
      <trkpt lat="42.76869" lon="0.47825">
        <ele>1856.92</ele>
        <time>2013-01-13T13:04:18Z</time>
      </trkpt>
      <trkpt lat="42.76868" lon="0.47825">
        <ele>1856.92</ele>
        <time>2013-01-13T13:04:42Z</time>
      </trkpt>
      <trkpt lat="42.76868" lon="0.47825">
        <ele>1856.92</ele>
        <time>2013-01-13T13:05:11Z</time>
      </trkpt>
      <trkpt lat="42.76868" lon="0.47825">
        <ele>1856.92</ele>
        <time>2013-01-13T13:05:40Z</time>
      </trkpt>
      <trkpt lat="42.7687" lon="0.47825">
        <ele>1855.48</ele>
        <time>2013-01-13T13:05:52Z</time>
      </trkpt>
      <trkpt lat="42.7687" lon="0.47825">
        <ele>1855.96</ele>
        <time>2013-01-13T13:06:12Z</time>
      </trkpt>
      <trkpt lat="42.76869" lon="0.47825">
        <ele>1855.96</ele>
        <time>2013-01-13T13:06:30Z</time>
      </trkpt>
      <trkpt lat="42.76869" lon="0.47825">
        <ele>1855.48</ele>
        <time>2013-01-13T13:06:53Z</time>
      </trkpt>
      <trkpt lat="42.76869" lon="0.47825">
        <ele>1855</ele>
        <time>2013-01-13T13:07:16Z</time>
      </trkpt>
      <trkpt lat="42.7687" lon="0.47826">
        <ele>1855.96</ele>
        <time>2013-01-13T13:07:40Z</time>
      </trkpt>
      <trkpt lat="42.7687" lon="0.47825">
        <ele>1855.96</ele>
        <time>2013-01-13T13:07:51Z</time>
      </trkpt>
      <trkpt lat="42.7687" lon="0.47825">
        <ele>1855</ele>
        <time>2013-01-13T13:08:06Z</time>
      </trkpt>
      <trkpt lat="42.7687" lon="0.47825">
        <ele>1855.96</ele>
        <time>2013-01-13T13:08:32Z</time>
      </trkpt>
      <trkpt lat="42.7687" lon="0.47825">
        <ele>1855.96</ele>
        <time>2013-01-13T13:08:54Z</time>
      </trkpt>
      <trkpt lat="42.7687" lon="0.47826">
        <ele>1855.96</ele>
        <time>2013-01-13T13:09:22Z</time>
      </trkpt>
      <trkpt lat="42.7687" lon="0.47825">
        <ele>1855.48</ele>
        <time>2013-01-13T13:09:42Z</time>
      </trkpt>
      <trkpt lat="42.76871" lon="0.47825">
        <ele>1855</ele>
        <time>2013-01-13T13:10:00Z</time>
      </trkpt>
      <trkpt lat="42.76871" lon="0.47825">
        <ele>1855.96</ele>
        <time>2013-01-13T13:10:19Z</time>
      </trkpt>
      <trkpt lat="42.7687" lon="0.47825">
        <ele>1854.52</ele>
        <time>2013-01-13T13:10:42Z</time>
      </trkpt>
      <trkpt lat="42.7687" lon="0.47825">
        <ele>1855</ele>
        <time>2013-01-13T13:10:59Z</time>
      </trkpt>
      <trkpt lat="42.7687" lon="0.47825">
        <ele>1855.96</ele>
        <time>2013-01-13T13:11:26Z</time>
      </trkpt>
      <trkpt lat="42.7687" lon="0.47825">
        <ele>1855</ele>
        <time>2013-01-13T13:11:39Z</time>
      </trkpt>
      <trkpt lat="42.76871" lon="0.47823">
        <ele>1855.96</ele>
        <time>2013-01-13T13:11:42Z</time>
      </trkpt>
      <trkpt lat="42.76871" lon="0.47822">
        <ele>1855</ele>
        <time>2013-01-13T13:11:45Z</time>
      </trkpt>
      <trkpt lat="42.7687" lon="0.47822">
        <ele>1855.48</ele>
        <time>2013-01-13T13:11:47Z</time>
      </trkpt>
      <trkpt lat="42.76864" lon="0.47812">
        <ele>1855.48</ele>
        <time>2013-01-13T13:11:56Z</time>
      </trkpt>
      <trkpt lat="42.76863" lon="0.47802">
        <ele>1854.52</ele>
        <time>2013-01-13T13:12:03Z</time>
      </trkpt>
      <trkpt lat="42.76864" lon="0.47792">
        <ele>1853.08</ele>
        <time>2013-01-13T13:12:11Z</time>
      </trkpt>
      <trkpt lat="42.76865" lon="0.47788">
        <ele>1852.6</ele>
        <time>2013-01-13T13:12:15Z</time>
      </trkpt>
      <trkpt lat="42.76867" lon="0.47785">
        <ele>1852.12</ele>
        <time>2013-01-13T13:12:17Z</time>
      </trkpt>
      <trkpt lat="42.76869" lon="0.47781">
        <ele>1851.64</ele>
        <time>2013-01-13T13:12:21Z</time>
      </trkpt>
      <trkpt lat="42.76872" lon="0.47776">
        <ele>1851.64</ele>
        <time>2013-01-13T13:12:25Z</time>
      </trkpt>
      <trkpt lat="42.76874" lon="0.47771">
        <ele>1851.16</ele>
        <time>2013-01-13T13:12:30Z</time>
      </trkpt>
      <trkpt lat="42.76875" lon="0.4777">
        <ele>1850.19</ele>
        <time>2013-01-13T13:12:32Z</time>
      </trkpt>
      <trkpt lat="42.76879" lon="0.4777">
        <ele>1848.75</ele>
        <time>2013-01-13T13:12:38Z</time>
      </trkpt>
      <trkpt lat="42.76886" lon="0.47762">
        <ele>1845.87</ele>
        <time>2013-01-13T13:12:49Z</time>
      </trkpt>
      <trkpt lat="42.76892" lon="0.47755">
        <ele>1842.98</ele>
        <time>2013-01-13T13:13:00Z</time>
      </trkpt>
      <trkpt lat="42.76894" lon="0.47752">
        <ele>1842.02</ele>
        <time>2013-01-13T13:13:03Z</time>
      </trkpt>
      <trkpt lat="42.76899" lon="0.47739">
        <ele>1839.14</ele>
        <time>2013-01-13T13:13:16Z</time>
      </trkpt>
      <trkpt lat="42.76905" lon="0.47733">
        <ele>1837.22</ele>
        <time>2013-01-13T13:13:25Z</time>
      </trkpt>
      <trkpt lat="42.76905" lon="0.47732">
        <ele>1837.22</ele>
        <time>2013-01-13T13:13:26Z</time>
      </trkpt>
      <trkpt lat="42.76909" lon="0.47725">
        <ele>1836.74</ele>
        <time>2013-01-13T13:13:32Z</time>
      </trkpt>
      <trkpt lat="42.76914" lon="0.47714">
        <ele>1834.81</ele>
        <time>2013-01-13T13:13:43Z</time>
      </trkpt>
      <trkpt lat="42.76921" lon="0.47702">
        <ele>1833.37</ele>
        <time>2013-01-13T13:13:55Z</time>
      </trkpt>
      <trkpt lat="42.76921" lon="0.47701">
        <ele>1833.37</ele>
        <time>2013-01-13T13:13:56Z</time>
      </trkpt>
      <trkpt lat="42.76924" lon="0.47696">
        <ele>1832.89</ele>
        <time>2013-01-13T13:14:01Z</time>
      </trkpt>
      <trkpt lat="42.76924" lon="0.47693">
        <ele>1832.89</ele>
        <time>2013-01-13T13:14:03Z</time>
      </trkpt>
      <trkpt lat="42.76927" lon="0.4769">
        <ele>1832.89</ele>
        <time>2013-01-13T13:14:07Z</time>
      </trkpt>
      <trkpt lat="42.76932" lon="0.4768">
        <ele>1832.89</ele>
        <time>2013-01-13T13:14:18Z</time>
      </trkpt>
      <trkpt lat="42.76933" lon="0.47679">
        <ele>1832.41</ele>
        <time>2013-01-13T13:14:19Z</time>
      </trkpt>
      <trkpt lat="42.76937" lon="0.4767">
        <ele>1833.37</ele>
        <time>2013-01-13T13:14:30Z</time>
      </trkpt>
      <trkpt lat="42.76938" lon="0.47667">
        <ele>1833.37</ele>
        <time>2013-01-13T13:14:33Z</time>
      </trkpt>
      <trkpt lat="42.76939" lon="0.47664">
        <ele>1833.37</ele>
        <time>2013-01-13T13:14:36Z</time>
      </trkpt>
      <trkpt lat="42.76942" lon="0.47661">
        <ele>1831.93</ele>
        <time>2013-01-13T13:14:39Z</time>
      </trkpt>
      <trkpt lat="42.76949" lon="0.47648">
        <ele>1829.53</ele>
        <time>2013-01-13T13:14:52Z</time>
      </trkpt>
      <trkpt lat="42.76953" lon="0.47643">
        <ele>1828.56</ele>
        <time>2013-01-13T13:15:03Z</time>
      </trkpt>
      <trkpt lat="42.76954" lon="0.47643">
        <ele>1829.05</ele>
        <time>2013-01-13T13:15:17Z</time>
      </trkpt>
      <trkpt lat="42.76954" lon="0.47642">
        <ele>1828.08</ele>
        <time>2013-01-13T13:15:33Z</time>
      </trkpt>
      <trkpt lat="42.76955" lon="0.47642">
        <ele>1830.01</ele>
        <time>2013-01-13T13:15:47Z</time>
      </trkpt>
      <trkpt lat="42.76955" lon="0.47642">
        <ele>1829.53</ele>
        <time>2013-01-13T13:16:04Z</time>
      </trkpt>
      <trkpt lat="42.76955" lon="0.47642">
        <ele>1828.56</ele>
        <time>2013-01-13T13:16:26Z</time>
      </trkpt>
      <trkpt lat="42.76955" lon="0.47642">
        <ele>1829.53</ele>
        <time>2013-01-13T13:16:32Z</time>
      </trkpt>
      <trkpt lat="42.7696" lon="0.47634">
        <ele>1829.53</ele>
        <time>2013-01-13T13:16:39Z</time>
      </trkpt>
      <trkpt lat="42.76963" lon="0.4763">
        <ele>1828.08</ele>
        <time>2013-01-13T13:16:43Z</time>
      </trkpt>
      <trkpt lat="42.76964" lon="0.47627">
        <ele>1829.05</ele>
        <time>2013-01-13T13:16:46Z</time>
      </trkpt>
      <trkpt lat="42.76966" lon="0.47625">
        <ele>1827.6</ele>
        <time>2013-01-13T13:16:49Z</time>
      </trkpt>
      <trkpt lat="42.76967" lon="0.47622">
        <ele>1826.64</ele>
        <time>2013-01-13T13:16:52Z</time>
      </trkpt>
      <trkpt lat="42.76969" lon="0.47615">
        <ele>1826.16</ele>
        <time>2013-01-13T13:16:59Z</time>
      </trkpt>
      <trkpt lat="42.7697" lon="0.4761">
        <ele>1825.68</ele>
        <time>2013-01-13T13:17:03Z</time>
      </trkpt>
      <trkpt lat="42.76971" lon="0.47607">
        <ele>1825.2</ele>
        <time>2013-01-13T13:17:05Z</time>
      </trkpt>
      <trkpt lat="42.76971" lon="0.47602">
        <ele>1824.24</ele>
        <time>2013-01-13T13:17:09Z</time>
      </trkpt>
      <trkpt lat="42.76971" lon="0.47599">
        <ele>1824.72</ele>
        <time>2013-01-13T13:17:12Z</time>
      </trkpt>
      <trkpt lat="42.76973" lon="0.47596">
        <ele>1824.72</ele>
        <time>2013-01-13T13:17:15Z</time>
      </trkpt>
      <trkpt lat="42.76975" lon="0.47589">
        <ele>1824.72</ele>
        <time>2013-01-13T13:17:22Z</time>
      </trkpt>
      <trkpt lat="42.76977" lon="0.47585">
        <ele>1824.72</ele>
        <time>2013-01-13T13:17:25Z</time>
      </trkpt>
      <trkpt lat="42.76981" lon="0.47579">
        <ele>1823.76</ele>
        <time>2013-01-13T13:17:32Z</time>
      </trkpt>
      <trkpt lat="42.76984" lon="0.47577">
        <ele>1823.76</ele>
        <time>2013-01-13T13:17:35Z</time>
      </trkpt>
      <trkpt lat="42.76986" lon="0.47574">
        <ele>1824.72</ele>
        <time>2013-01-13T13:17:38Z</time>
      </trkpt>
      <trkpt lat="42.76987" lon="0.47573">
        <ele>1822.8</ele>
        <time>2013-01-13T13:17:41Z</time>
      </trkpt>
      <trkpt lat="42.76988" lon="0.4757">
        <ele>1824.72</ele>
        <time>2013-01-13T13:17:44Z</time>
      </trkpt>
      <trkpt lat="42.7699" lon="0.47562">
        <ele>1823.76</ele>
        <time>2013-01-13T13:17:51Z</time>
      </trkpt>
      <trkpt lat="42.76991" lon="0.47559">
        <ele>1821.84</ele>
        <time>2013-01-13T13:17:54Z</time>
      </trkpt>
      <trkpt lat="42.76991" lon="0.47555">
        <ele>1821.84</ele>
        <time>2013-01-13T13:17:57Z</time>
      </trkpt>
      <trkpt lat="42.76991" lon="0.47552">
        <ele>1820.87</ele>
        <time>2013-01-13T13:17:59Z</time>
      </trkpt>
      <trkpt lat="42.7699" lon="0.47541">
        <ele>1819.43</ele>
        <time>2013-01-13T13:18:08Z</time>
      </trkpt>
      <trkpt lat="42.76992" lon="0.47529">
        <ele>1817.99</ele>
        <time>2013-01-13T13:18:18Z</time>
      </trkpt>
      <trkpt lat="42.76994" lon="0.47525">
        <ele>1817.03</ele>
        <time>2013-01-13T13:18:22Z</time>
      </trkpt>
      <trkpt lat="42.76996" lon="0.47523">
        <ele>1816.55</ele>
        <time>2013-01-13T13:18:24Z</time>
      </trkpt>
      <trkpt lat="42.77" lon="0.47524">
        <ele>1816.55</ele>
        <time>2013-01-13T13:18:29Z</time>
      </trkpt>
      <trkpt lat="42.77004" lon="0.47525">
        <ele>1816.07</ele>
        <time>2013-01-13T13:18:41Z</time>
      </trkpt>
      <trkpt lat="42.77007" lon="0.47527">
        <ele>1816.07</ele>
        <time>2013-01-13T13:18:55Z</time>
      </trkpt>
      <trkpt lat="42.77008" lon="0.47529">
        <ele>1817.03</ele>
        <time>2013-01-13T13:19:08Z</time>
      </trkpt>
      <trkpt lat="42.77008" lon="0.47531">
        <ele>1816.55</ele>
        <time>2013-01-13T13:19:21Z</time>
      </trkpt>
      <trkpt lat="42.77008" lon="0.47531">
        <ele>1815.59</ele>
        <time>2013-01-13T13:19:51Z</time>
      </trkpt>
      <trkpt lat="42.77008" lon="0.47531">
        <ele>1817.03</ele>
        <time>2013-01-13T13:20:12Z</time>
      </trkpt>
      <trkpt lat="42.77008" lon="0.47531">
        <ele>1817.51</ele>
        <time>2013-01-13T13:20:35Z</time>
      </trkpt>
      <trkpt lat="42.7701" lon="0.47535">
        <ele>1816.07</ele>
        <time>2013-01-13T13:20:53Z</time>
      </trkpt>
      <trkpt lat="42.7701" lon="0.47538">
        <ele>1815.59</ele>
        <time>2013-01-13T13:20:59Z</time>
      </trkpt>
      <trkpt lat="42.77011" lon="0.47555">
        <ele>1815.59</ele>
        <time>2013-01-13T13:21:12Z</time>
      </trkpt>
      <trkpt lat="42.77012" lon="0.47564">
        <ele>1815.59</ele>
        <time>2013-01-13T13:21:19Z</time>
      </trkpt>
      <trkpt lat="42.77013" lon="0.47569">
        <ele>1813.66</ele>
        <time>2013-01-13T13:21:23Z</time>
      </trkpt>
      <trkpt lat="42.77013" lon="0.47579">
        <ele>1813.66</ele>
        <time>2013-01-13T13:21:30Z</time>
      </trkpt>
      <trkpt lat="42.77014" lon="0.47582">
        <ele>1811.26</ele>
        <time>2013-01-13T13:21:42Z</time>
      </trkpt>
      <trkpt lat="42.77013" lon="0.47582">
        <ele>1812.22</ele>
        <time>2013-01-13T13:21:53Z</time>
      </trkpt>
      <trkpt lat="42.77013" lon="0.47582">
        <ele>1812.22</ele>
        <time>2013-01-13T13:21:54Z</time>
      </trkpt>
      <trkpt lat="42.77016" lon="0.47582">
        <ele>1810.3</ele>
        <time>2013-01-13T13:21:57Z</time>
      </trkpt>
      <trkpt lat="42.77016" lon="0.47582">
        <ele>1810.78</ele>
        <time>2013-01-13T13:21:59Z</time>
      </trkpt>
      <trkpt lat="42.77012" lon="0.47585">
        <ele>1810.3</ele>
        <time>2013-01-13T13:22:07Z</time>
      </trkpt>
      <trkpt lat="42.77013" lon="0.47584">
        <ele>1814.15</ele>
        <time>2013-01-13T13:22:12Z</time>
      </trkpt>
      <trkpt lat="42.77013" lon="0.47584">
        <ele>1810.78</ele>
        <time>2013-01-13T13:22:14Z</time>
      </trkpt>
      <trkpt lat="42.77013" lon="0.47584">
        <ele>1815.11</ele>
        <time>2013-01-13T13:22:29Z</time>
      </trkpt>
      <trkpt lat="42.77013" lon="0.47584">
        <ele>1811.74</ele>
        <time>2013-01-13T13:22:32Z</time>
      </trkpt>
      <trkpt lat="42.77013" lon="0.47587">
        <ele>1811.26</ele>
        <time>2013-01-13T13:22:42Z</time>
      </trkpt>
      <trkpt lat="42.77017" lon="0.47599">
        <ele>1807.9</ele>
        <time>2013-01-13T13:22:54Z</time>
      </trkpt>
      <trkpt lat="42.77019" lon="0.47603">
        <ele>1806.45</ele>
        <time>2013-01-13T13:22:58Z</time>
      </trkpt>
      <trkpt lat="42.77019" lon="0.47605">
        <ele>1805.97</ele>
        <time>2013-01-13T13:22:59Z</time>
      </trkpt>
      <trkpt lat="42.7702" lon="0.47609">
        <ele>1804.05</ele>
        <time>2013-01-13T13:23:03Z</time>
      </trkpt>
      <trkpt lat="42.77023" lon="0.47615">
        <ele>1802.13</ele>
        <time>2013-01-13T13:23:09Z</time>
      </trkpt>
      <trkpt lat="42.77022" lon="0.47616">
        <ele>1802.13</ele>
        <time>2013-01-13T13:23:10Z</time>
      </trkpt>
      <trkpt lat="42.77022" lon="0.47622">
        <ele>1800.69</ele>
        <time>2013-01-13T13:23:20Z</time>
      </trkpt>
      <trkpt lat="42.77021" lon="0.47622">
        <ele>1800.21</ele>
        <time>2013-01-13T13:23:35Z</time>
      </trkpt>
      <trkpt lat="42.77022" lon="0.47622">
        <ele>1799.24</ele>
        <time>2013-01-13T13:23:55Z</time>
      </trkpt>
      <trkpt lat="42.77022" lon="0.47622">
        <ele>1800.21</ele>
        <time>2013-01-13T13:24:18Z</time>
      </trkpt>
      <trkpt lat="42.77022" lon="0.47622">
        <ele>1800.69</ele>
        <time>2013-01-13T13:24:31Z</time>
      </trkpt>
      <trkpt lat="42.77025" lon="0.47625">
        <ele>1799.73</ele>
        <time>2013-01-13T13:24:35Z</time>
      </trkpt>
      <trkpt lat="42.77026" lon="0.47627">
        <ele>1798.76</ele>
        <time>2013-01-13T13:24:37Z</time>
      </trkpt>
      <trkpt lat="42.77028" lon="0.47632">
        <ele>1796.84</ele>
        <time>2013-01-13T13:24:41Z</time>
      </trkpt>
      <trkpt lat="42.77028" lon="0.47634">
        <ele>1796.36</ele>
        <time>2013-01-13T13:24:43Z</time>
      </trkpt>
      <trkpt lat="42.77033" lon="0.47637">
        <ele>1793.96</ele>
        <time>2013-01-13T13:24:47Z</time>
      </trkpt>
      <trkpt lat="42.77035" lon="0.47639">
        <ele>1792.03</ele>
        <time>2013-01-13T13:24:50Z</time>
      </trkpt>
      <trkpt lat="42.77037" lon="0.47645">
        <ele>1790.59</ele>
        <time>2013-01-13T13:24:56Z</time>
      </trkpt>
      <trkpt lat="42.7704" lon="0.47646">
        <ele>1789.15</ele>
        <time>2013-01-13T13:25:09Z</time>
      </trkpt>
      <trkpt lat="42.77041" lon="0.47645">
        <ele>1789.15</ele>
        <time>2013-01-13T13:25:12Z</time>
      </trkpt>
      <trkpt lat="42.77044" lon="0.47645">
        <ele>1787.71</ele>
        <time>2013-01-13T13:25:15Z</time>
      </trkpt>
      <trkpt lat="42.77045" lon="0.47645">
        <ele>1788.19</ele>
        <time>2013-01-13T13:25:16Z</time>
      </trkpt>
      <trkpt lat="42.77052" lon="0.47644">
        <ele>1784.82</ele>
        <time>2013-01-13T13:25:24Z</time>
      </trkpt>
      <trkpt lat="42.77056" lon="0.47644">
        <ele>1783.86</ele>
        <time>2013-01-13T13:25:36Z</time>
      </trkpt>
      <trkpt lat="42.77059" lon="0.47646">
        <ele>1782.9</ele>
        <time>2013-01-13T13:25:42Z</time>
      </trkpt>
      <trkpt lat="42.77063" lon="0.47646">
        <ele>1781.46</ele>
        <time>2013-01-13T13:25:45Z</time>
      </trkpt>
      <trkpt lat="42.77075" lon="0.47648">
        <ele>1779.06</ele>
        <time>2013-01-13T13:25:55Z</time>
      </trkpt>
      <trkpt lat="42.77078" lon="0.47649">
        <ele>1777.61</ele>
        <time>2013-01-13T13:25:58Z</time>
      </trkpt>
      <trkpt lat="42.77085" lon="0.47647">
        <ele>1774.73</ele>
        <time>2013-01-13T13:26:05Z</time>
      </trkpt>
      <trkpt lat="42.77086" lon="0.47649">
        <ele>1775.21</ele>
        <time>2013-01-13T13:26:13Z</time>
      </trkpt>
      <trkpt lat="42.7709" lon="0.47649">
        <ele>1773.77</ele>
        <time>2013-01-13T13:26:18Z</time>
      </trkpt>
      <trkpt lat="42.77092" lon="0.4765">
        <ele>1773.29</ele>
        <time>2013-01-13T13:26:20Z</time>
      </trkpt>
      <trkpt lat="42.77094" lon="0.4765">
        <ele>1772.33</ele>
        <time>2013-01-13T13:26:22Z</time>
      </trkpt>
      <trkpt lat="42.77095" lon="0.4765">
        <ele>1772.33</ele>
        <time>2013-01-13T13:26:23Z</time>
      </trkpt>
      <trkpt lat="42.771" lon="0.47651">
        <ele>1770.89</ele>
        <time>2013-01-13T13:26:28Z</time>
      </trkpt>
      <trkpt lat="42.77101" lon="0.47653">
        <ele>1771.37</ele>
        <time>2013-01-13T13:26:31Z</time>
      </trkpt>
      <trkpt lat="42.77103" lon="0.47654">
        <ele>1769.92</ele>
        <time>2013-01-13T13:26:34Z</time>
      </trkpt>
      <trkpt lat="42.77111" lon="0.47656">
        <ele>1767.04</ele>
        <time>2013-01-13T13:26:48Z</time>
      </trkpt>
      <trkpt lat="42.77111" lon="0.47656">
        <ele>1767.52</ele>
        <time>2013-01-13T13:27:10Z</time>
      </trkpt>
      <trkpt lat="42.77111" lon="0.47656">
        <ele>1768</ele>
        <time>2013-01-13T13:27:32Z</time>
      </trkpt>
      <trkpt lat="42.77113" lon="0.47655">
        <ele>1768</ele>
        <time>2013-01-13T13:27:48Z</time>
      </trkpt>
      <trkpt lat="42.77118" lon="0.47657">
        <ele>1766.08</ele>
        <time>2013-01-13T13:27:53Z</time>
      </trkpt>
      <trkpt lat="42.77119" lon="0.47658">
        <ele>1765.6</ele>
        <time>2013-01-13T13:28:00Z</time>
      </trkpt>
      <trkpt lat="42.77124" lon="0.4766">
        <ele>1764.64</ele>
        <time>2013-01-13T13:28:06Z</time>
      </trkpt>
      <trkpt lat="42.77129" lon="0.47661">
        <ele>1763.68</ele>
        <time>2013-01-13T13:28:14Z</time>
      </trkpt>
      <trkpt lat="42.77133" lon="0.47664">
        <ele>1762.23</ele>
        <time>2013-01-13T13:28:25Z</time>
      </trkpt>
      <trkpt lat="42.77135" lon="0.47665">
        <ele>1761.75</ele>
        <time>2013-01-13T13:28:29Z</time>
      </trkpt>
      <trkpt lat="42.77144" lon="0.4767">
        <ele>1759.83</ele>
        <time>2013-01-13T13:28:40Z</time>
      </trkpt>
      <trkpt lat="42.77149" lon="0.47674">
        <ele>1759.35</ele>
        <time>2013-01-13T13:28:47Z</time>
      </trkpt>
      <trkpt lat="42.77156" lon="0.47679">
        <ele>1757.43</ele>
        <time>2013-01-13T13:28:57Z</time>
      </trkpt>
      <trkpt lat="42.7716" lon="0.47682">
        <ele>1757.91</ele>
        <time>2013-01-13T13:29:01Z</time>
      </trkpt>
      <trkpt lat="42.77171" lon="0.47687">
        <ele>1756.47</ele>
        <time>2013-01-13T13:29:13Z</time>
      </trkpt>
      <trkpt lat="42.77174" lon="0.47689">
        <ele>1755.99</ele>
        <time>2013-01-13T13:29:16Z</time>
      </trkpt>
      <trkpt lat="42.77176" lon="0.4769">
        <ele>1755.5</ele>
        <time>2013-01-13T13:29:18Z</time>
      </trkpt>
      <trkpt lat="42.77185" lon="0.47696">
        <ele>1754.54</ele>
        <time>2013-01-13T13:29:30Z</time>
      </trkpt>
      <trkpt lat="42.77193" lon="0.47702">
        <ele>1753.58</ele>
        <time>2013-01-13T13:29:43Z</time>
      </trkpt>
      <trkpt lat="42.772" lon="0.47709">
        <ele>1752.62</ele>
        <time>2013-01-13T13:29:56Z</time>
      </trkpt>
      <trkpt lat="42.77206" lon="0.47715">
        <ele>1752.14</ele>
        <time>2013-01-13T13:30:07Z</time>
      </trkpt>
      <trkpt lat="42.7721" lon="0.47718">
        <ele>1751.18</ele>
        <time>2013-01-13T13:30:12Z</time>
      </trkpt>
      <trkpt lat="42.77211" lon="0.4772">
        <ele>1750.22</ele>
        <time>2013-01-13T13:30:14Z</time>
      </trkpt>
      <trkpt lat="42.77218" lon="0.47726">
        <ele>1749.26</ele>
        <time>2013-01-13T13:30:22Z</time>
      </trkpt>
      <trkpt lat="42.77226" lon="0.47732">
        <ele>1748.78</ele>
        <time>2013-01-13T13:30:31Z</time>
      </trkpt>
      <trkpt lat="42.77239" lon="0.47741">
        <ele>1746.85</ele>
        <time>2013-01-13T13:30:45Z</time>
      </trkpt>
      <trkpt lat="42.77242" lon="0.47744">
        <ele>1745.89</ele>
        <time>2013-01-13T13:30:49Z</time>
      </trkpt>
      <trkpt lat="42.77243" lon="0.47746">
        <ele>1745.89</ele>
        <time>2013-01-13T13:30:51Z</time>
      </trkpt>
      <trkpt lat="42.77247" lon="0.47749">
        <ele>1744.93</ele>
        <time>2013-01-13T13:30:55Z</time>
      </trkpt>
      <trkpt lat="42.77251" lon="0.47753">
        <ele>1744.45</ele>
        <time>2013-01-13T13:31:04Z</time>
      </trkpt>
      <trkpt lat="42.77252" lon="0.47755">
        <ele>1744.45</ele>
        <time>2013-01-13T13:31:06Z</time>
      </trkpt>
      <trkpt lat="42.77254" lon="0.47757">
        <ele>1743.97</ele>
        <time>2013-01-13T13:31:08Z</time>
      </trkpt>
      <trkpt lat="42.77257" lon="0.47771">
        <ele>1741.57</ele>
        <time>2013-01-13T13:31:21Z</time>
      </trkpt>
      <trkpt lat="42.77256" lon="0.47775">
        <ele>1742.53</ele>
        <time>2013-01-13T13:31:33Z</time>
      </trkpt>
      <trkpt lat="42.77256" lon="0.47774">
        <ele>1741.08</ele>
        <time>2013-01-13T13:31:48Z</time>
      </trkpt>
      <trkpt lat="42.77256" lon="0.47774">
        <ele>1740.6</ele>
        <time>2013-01-13T13:32:08Z</time>
      </trkpt>
      <trkpt lat="42.77256" lon="0.47774">
        <ele>1742.05</ele>
        <time>2013-01-13T13:32:29Z</time>
      </trkpt>
      <trkpt lat="42.77256" lon="0.47774">
        <ele>1741.08</ele>
        <time>2013-01-13T13:32:49Z</time>
      </trkpt>
      <trkpt lat="42.77256" lon="0.47774">
        <ele>1741.57</ele>
        <time>2013-01-13T13:33:08Z</time>
      </trkpt>
      <trkpt lat="42.77256" lon="0.47774">
        <ele>1741.57</ele>
        <time>2013-01-13T13:33:31Z</time>
      </trkpt>
      <trkpt lat="42.77256" lon="0.47774">
        <ele>1741.57</ele>
        <time>2013-01-13T13:33:48Z</time>
      </trkpt>
      <trkpt lat="42.77256" lon="0.47773">
        <ele>1741.08</ele>
        <time>2013-01-13T13:34:17Z</time>
      </trkpt>
      <trkpt lat="42.77256" lon="0.47773">
        <ele>1743.01</ele>
        <time>2013-01-13T13:34:18Z</time>
      </trkpt>
      <trkpt lat="42.77252" lon="0.47775">
        <ele>1741.57</ele>
        <time>2013-01-13T13:34:22Z</time>
      </trkpt>
      <trkpt lat="42.77243" lon="0.47774">
        <ele>1739.64</ele>
        <time>2013-01-13T13:34:30Z</time>
      </trkpt>
      <trkpt lat="42.77238" lon="0.47773">
        <ele>1739.16</ele>
        <time>2013-01-13T13:34:34Z</time>
      </trkpt>
      <trkpt lat="42.77222" lon="0.47772">
        <ele>1736.76</ele>
        <time>2013-01-13T13:34:50Z</time>
      </trkpt>
      <trkpt lat="42.77222" lon="0.47772">
        <ele>1736.28</ele>
        <time>2013-01-13T13:34:54Z</time>
      </trkpt>
      <trkpt lat="42.7722" lon="0.47775">
        <ele>1735.32</ele>
        <time>2013-01-13T13:35:03Z</time>
      </trkpt>
      <trkpt lat="42.77218" lon="0.47792">
        <ele>1733.88</ele>
        <time>2013-01-13T13:35:15Z</time>
      </trkpt>
      <trkpt lat="42.77217" lon="0.47795">
        <ele>1732.91</ele>
        <time>2013-01-13T13:35:17Z</time>
      </trkpt>
      <trkpt lat="42.77215" lon="0.47808">
        <ele>1733.88</ele>
        <time>2013-01-13T13:35:31Z</time>
      </trkpt>
      <trkpt lat="42.77211" lon="0.47812">
        <ele>1733.39</ele>
        <time>2013-01-13T13:35:45Z</time>
      </trkpt>
      <trkpt lat="42.7721" lon="0.47816">
        <ele>1732.43</ele>
        <time>2013-01-13T13:35:56Z</time>
      </trkpt>
      <trkpt lat="42.7721" lon="0.47816">
        <ele>1732.91</ele>
        <time>2013-01-13T13:36:31Z</time>
      </trkpt>
      <trkpt lat="42.7721" lon="0.47816">
        <ele>1732.91</ele>
        <time>2013-01-13T13:36:58Z</time>
      </trkpt>
      <trkpt lat="42.77208" lon="0.47818">
        <ele>1732.91</ele>
        <time>2013-01-13T13:37:03Z</time>
      </trkpt>
      <trkpt lat="42.77205" lon="0.47822">
        <ele>1732.43</ele>
        <time>2013-01-13T13:37:17Z</time>
      </trkpt>
      <trkpt lat="42.77204" lon="0.47823">
        <ele>1731.95</ele>
        <time>2013-01-13T13:37:18Z</time>
      </trkpt>
      <trkpt lat="42.77201" lon="0.47832">
        <ele>1730.51</ele>
        <time>2013-01-13T13:37:26Z</time>
      </trkpt>
      <trkpt lat="42.77197" lon="0.47839">
        <ele>1728.59</ele>
        <time>2013-01-13T13:37:34Z</time>
      </trkpt>
      <trkpt lat="42.77195" lon="0.47841">
        <ele>1728.11</ele>
        <time>2013-01-13T13:37:36Z</time>
      </trkpt>
      <trkpt lat="42.77193" lon="0.47843">
        <ele>1727.63</ele>
        <time>2013-01-13T13:37:39Z</time>
      </trkpt>
      <trkpt lat="42.77192" lon="0.47848">
        <ele>1727.63</ele>
        <time>2013-01-13T13:37:43Z</time>
      </trkpt>
      <trkpt lat="42.77184" lon="0.47861">
        <ele>1726.18</ele>
        <time>2013-01-13T13:37:58Z</time>
      </trkpt>
      <trkpt lat="42.77188" lon="0.47867">
        <ele>1726.67</ele>
        <time>2013-01-13T13:38:08Z</time>
      </trkpt>
      <trkpt lat="42.77189" lon="0.47867">
        <ele>1726.18</ele>
        <time>2013-01-13T13:38:09Z</time>
      </trkpt>
      <trkpt lat="42.77193" lon="0.4787">
        <ele>1725.7</ele>
        <time>2013-01-13T13:38:13Z</time>
      </trkpt>
      <trkpt lat="42.77199" lon="0.47876">
        <ele>1724.26</ele>
        <time>2013-01-13T13:38:21Z</time>
      </trkpt>
      <trkpt lat="42.77202" lon="0.47879">
        <ele>1723.3</ele>
        <time>2013-01-13T13:38:25Z</time>
      </trkpt>
      <trkpt lat="42.77205" lon="0.47884">
        <ele>1722.34</ele>
        <time>2013-01-13T13:38:30Z</time>
      </trkpt>
      <trkpt lat="42.77207" lon="0.47886">
        <ele>1720.9</ele>
        <time>2013-01-13T13:38:33Z</time>
      </trkpt>
      <trkpt lat="42.77214" lon="0.4789">
        <ele>1719.94</ele>
        <time>2013-01-13T13:38:42Z</time>
      </trkpt>
      <trkpt lat="42.77223" lon="0.47894">
        <ele>1716.57</ele>
        <time>2013-01-13T13:38:55Z</time>
      </trkpt>
      <trkpt lat="42.77229" lon="0.47896">
        <ele>1715.13</ele>
        <time>2013-01-13T13:39:01Z</time>
      </trkpt>
      <trkpt lat="42.77234" lon="0.47897">
        <ele>1714.65</ele>
        <time>2013-01-13T13:39:05Z</time>
      </trkpt>
      <trkpt lat="42.77244" lon="0.47901">
        <ele>1711.28</ele>
        <time>2013-01-13T13:39:16Z</time>
      </trkpt>
      <trkpt lat="42.77245" lon="0.47903">
        <ele>1711.28</ele>
        <time>2013-01-13T13:39:19Z</time>
      </trkpt>
      <trkpt lat="42.77245" lon="0.47908">
        <ele>1710.8</ele>
        <time>2013-01-13T13:39:23Z</time>
      </trkpt>
      <trkpt lat="42.77245" lon="0.47911">
        <ele>1708.88</ele>
        <time>2013-01-13T13:39:34Z</time>
      </trkpt>
      <trkpt lat="42.77245" lon="0.47911">
        <ele>1709.36</ele>
        <time>2013-01-13T13:39:53Z</time>
      </trkpt>
      <trkpt lat="42.77245" lon="0.47911">
        <ele>1709.36</ele>
        <time>2013-01-13T13:40:11Z</time>
      </trkpt>
      <trkpt lat="42.77245" lon="0.47911">
        <ele>1709.36</ele>
        <time>2013-01-13T13:40:37Z</time>
      </trkpt>
      <trkpt lat="42.77245" lon="0.47911">
        <ele>1709.84</ele>
        <time>2013-01-13T13:40:53Z</time>
      </trkpt>
      <trkpt lat="42.77245" lon="0.47912">
        <ele>1709.36</ele>
        <time>2013-01-13T13:40:55Z</time>
      </trkpt>
      <trkpt lat="42.77243" lon="0.47923">
        <ele>1707.44</ele>
        <time>2013-01-13T13:41:04Z</time>
      </trkpt>
      <trkpt lat="42.77242" lon="0.47926">
        <ele>1706.96</ele>
        <time>2013-01-13T13:41:06Z</time>
      </trkpt>
      <trkpt lat="42.7724" lon="0.47932">
        <ele>1706</ele>
        <time>2013-01-13T13:41:16Z</time>
      </trkpt>
      <trkpt lat="42.77238" lon="0.47934">
        <ele>1705.04</ele>
        <time>2013-01-13T13:41:18Z</time>
      </trkpt>
      <trkpt lat="42.77236" lon="0.47936">
        <ele>1704.55</ele>
        <time>2013-01-13T13:41:21Z</time>
      </trkpt>
      <trkpt lat="42.77225" lon="0.47943">
        <ele>1702.63</ele>
        <time>2013-01-13T13:41:33Z</time>
      </trkpt>
      <trkpt lat="42.77223" lon="0.47945">
        <ele>1702.15</ele>
        <time>2013-01-13T13:41:35Z</time>
      </trkpt>
      <trkpt lat="42.77213" lon="0.47957">
        <ele>1700.71</ele>
        <time>2013-01-13T13:41:49Z</time>
      </trkpt>
      <trkpt lat="42.77211" lon="0.47958">
        <ele>1699.75</ele>
        <time>2013-01-13T13:41:51Z</time>
      </trkpt>
      <trkpt lat="42.77211" lon="0.4796">
        <ele>1699.27</ele>
        <time>2013-01-13T13:41:53Z</time>
      </trkpt>
      <trkpt lat="42.77209" lon="0.47964">
        <ele>1698.79</ele>
        <time>2013-01-13T13:42:07Z</time>
      </trkpt>
      <trkpt lat="42.77209" lon="0.47964">
        <ele>1699.27</ele>
        <time>2013-01-13T13:42:26Z</time>
      </trkpt>
      <trkpt lat="42.7721" lon="0.47964">
        <ele>1698.79</ele>
        <time>2013-01-13T13:42:43Z</time>
      </trkpt>
      <trkpt lat="42.77211" lon="0.47964">
        <ele>1698.31</ele>
        <time>2013-01-13T13:43:02Z</time>
      </trkpt>
      <trkpt lat="42.77215" lon="0.47967">
        <ele>1697.83</ele>
        <time>2013-01-13T13:43:07Z</time>
      </trkpt>
      <trkpt lat="42.77219" lon="0.47967">
        <ele>1696.86</ele>
        <time>2013-01-13T13:43:12Z</time>
      </trkpt>
      <trkpt lat="42.77223" lon="0.47968">
        <ele>1697.34</ele>
        <time>2013-01-13T13:43:16Z</time>
      </trkpt>
      <trkpt lat="42.77237" lon="0.47973">
        <ele>1696.86</ele>
        <time>2013-01-13T13:43:31Z</time>
      </trkpt>
      <trkpt lat="42.77246" lon="0.47971">
        <ele>1695.9</ele>
        <time>2013-01-13T13:43:40Z</time>
      </trkpt>
      <trkpt lat="42.77253" lon="0.47967">
        <ele>1695.9</ele>
        <time>2013-01-13T13:43:50Z</time>
      </trkpt>
      <trkpt lat="42.77258" lon="0.47965">
        <ele>1694.94</ele>
        <time>2013-01-13T13:43:57Z</time>
      </trkpt>
      <trkpt lat="42.7726" lon="0.47964">
        <ele>1694.94</ele>
        <time>2013-01-13T13:43:59Z</time>
      </trkpt>
      <trkpt lat="42.77266" lon="0.47962">
        <ele>1695.42</ele>
        <time>2013-01-13T13:44:06Z</time>
      </trkpt>
      <trkpt lat="42.77272" lon="0.47959">
        <ele>1695.42</ele>
        <time>2013-01-13T13:44:12Z</time>
      </trkpt>
      <trkpt lat="42.77277" lon="0.47956">
        <ele>1694.46</ele>
        <time>2013-01-13T13:44:19Z</time>
      </trkpt>
      <trkpt lat="42.77282" lon="0.47951">
        <ele>1693.5</ele>
        <time>2013-01-13T13:44:27Z</time>
      </trkpt>
      <trkpt lat="42.77284" lon="0.47948">
        <ele>1693.5</ele>
        <time>2013-01-13T13:44:30Z</time>
      </trkpt>
      <trkpt lat="42.77287" lon="0.47946">
        <ele>1693.02</ele>
        <time>2013-01-13T13:44:34Z</time>
      </trkpt>
      <trkpt lat="42.77293" lon="0.4794">
        <ele>1692.54</ele>
        <time>2013-01-13T13:44:44Z</time>
      </trkpt>
      <trkpt lat="42.77301" lon="0.4793">
        <ele>1693.02</ele>
        <time>2013-01-13T13:44:56Z</time>
      </trkpt>
      <trkpt lat="42.77308" lon="0.47923">
        <ele>1692.54</ele>
        <time>2013-01-13T13:45:07Z</time>
      </trkpt>
      <trkpt lat="42.77317" lon="0.47915">
        <ele>1692.54</ele>
        <time>2013-01-13T13:45:21Z</time>
      </trkpt>
      <trkpt lat="42.77319" lon="0.4791">
        <ele>1691.58</ele>
        <time>2013-01-13T13:45:27Z</time>
      </trkpt>
      <trkpt lat="42.77321" lon="0.47905">
        <ele>1691.58</ele>
        <time>2013-01-13T13:45:32Z</time>
      </trkpt>
      <trkpt lat="42.77322" lon="0.479">
        <ele>1693.02</ele>
        <time>2013-01-13T13:45:43Z</time>
      </trkpt>
      <trkpt lat="42.77322" lon="0.479">
        <ele>1692.54</ele>
        <time>2013-01-13T13:45:57Z</time>
      </trkpt>
      <trkpt lat="42.77322" lon="0.47902">
        <ele>1692.06</ele>
        <time>2013-01-13T13:46:13Z</time>
      </trkpt>
      <trkpt lat="42.77322" lon="0.47902">
        <ele>1693.02</ele>
        <time>2013-01-13T13:46:31Z</time>
      </trkpt>
      <trkpt lat="42.77322" lon="0.47902">
        <ele>1693.02</ele>
        <time>2013-01-13T13:46:52Z</time>
      </trkpt>
      <trkpt lat="42.77323" lon="0.47904">
        <ele>1692.06</ele>
        <time>2013-01-13T13:47:10Z</time>
      </trkpt>
      <trkpt lat="42.77324" lon="0.47904">
        <ele>1692.06</ele>
        <time>2013-01-13T13:47:14Z</time>
      </trkpt>
      <trkpt lat="42.77326" lon="0.47908">
        <ele>1691.1</ele>
        <time>2013-01-13T13:47:17Z</time>
      </trkpt>
      <trkpt lat="42.77328" lon="0.4791">
        <ele>1690.14</ele>
        <time>2013-01-13T13:47:19Z</time>
      </trkpt>
      <trkpt lat="42.7733" lon="0.47912">
        <ele>1689.65</ele>
        <time>2013-01-13T13:47:21Z</time>
      </trkpt>
      <trkpt lat="42.7733" lon="0.47919">
        <ele>1688.21</ele>
        <time>2013-01-13T13:47:26Z</time>
      </trkpt>
      <trkpt lat="42.7733" lon="0.47922">
        <ele>1687.25</ele>
        <time>2013-01-13T13:47:28Z</time>
      </trkpt>
      <trkpt lat="42.77332" lon="0.47926">
        <ele>1686.29</ele>
        <time>2013-01-13T13:47:31Z</time>
      </trkpt>
      <trkpt lat="42.77333" lon="0.47942">
        <ele>1684.85</ele>
        <time>2013-01-13T13:47:41Z</time>
      </trkpt>
      <trkpt lat="42.77338" lon="0.47953">
        <ele>1681.48</ele>
        <time>2013-01-13T13:47:48Z</time>
      </trkpt>
      <trkpt lat="42.77342" lon="0.4796">
        <ele>1681</ele>
        <time>2013-01-13T13:47:53Z</time>
      </trkpt>
      <trkpt lat="42.77343" lon="0.47961">
        <ele>1680.52</ele>
        <time>2013-01-13T13:47:54Z</time>
      </trkpt>
      <trkpt lat="42.77345" lon="0.47966">
        <ele>1679.08</ele>
        <time>2013-01-13T13:47:57Z</time>
      </trkpt>
      <trkpt lat="42.77347" lon="0.4797">
        <ele>1677.16</ele>
        <time>2013-01-13T13:48:01Z</time>
      </trkpt>
      <trkpt lat="42.77347" lon="0.47986">
        <ele>1673.79</ele>
        <time>2013-01-13T13:48:11Z</time>
      </trkpt>
      <trkpt lat="42.77352" lon="0.48">
        <ele>1670.91</ele>
        <time>2013-01-13T13:48:21Z</time>
      </trkpt>
      <trkpt lat="42.77358" lon="0.48006">
        <ele>1668.99</ele>
        <time>2013-01-13T13:48:28Z</time>
      </trkpt>
      <trkpt lat="42.77366" lon="0.48011">
        <ele>1665.62</ele>
        <time>2013-01-13T13:48:35Z</time>
      </trkpt>
      <trkpt lat="42.77376" lon="0.48017">
        <ele>1662.74</ele>
        <time>2013-01-13T13:48:44Z</time>
      </trkpt>
      <trkpt lat="42.7738" lon="0.48017">
        <ele>1661.3</ele>
        <time>2013-01-13T13:48:47Z</time>
      </trkpt>
      <trkpt lat="42.77381" lon="0.48017">
        <ele>1661.3</ele>
        <time>2013-01-13T13:48:48Z</time>
      </trkpt>
      <trkpt lat="42.77387" lon="0.4802">
        <ele>1658.89</ele>
        <time>2013-01-13T13:48:53Z</time>
      </trkpt>
      <trkpt lat="42.77396" lon="0.4802">
        <ele>1656.49</ele>
        <time>2013-01-13T13:49:01Z</time>
      </trkpt>
      <trkpt lat="42.77398" lon="0.4802">
        <ele>1656.01</ele>
        <time>2013-01-13T13:49:02Z</time>
      </trkpt>
      <trkpt lat="42.77404" lon="0.4802">
        <ele>1654.09</ele>
        <time>2013-01-13T13:49:07Z</time>
      </trkpt>
      <trkpt lat="42.77406" lon="0.48021">
        <ele>1654.57</ele>
        <time>2013-01-13T13:49:09Z</time>
      </trkpt>
      <trkpt lat="42.77422" lon="0.48016">
        <ele>1653.12</ele>
        <time>2013-01-13T13:49:22Z</time>
      </trkpt>
      <trkpt lat="42.77428" lon="0.48015">
        <ele>1653.12</ele>
        <time>2013-01-13T13:49:27Z</time>
      </trkpt>
      <trkpt lat="42.7743" lon="0.48014">
        <ele>1652.64</ele>
        <time>2013-01-13T13:49:29Z</time>
      </trkpt>
      <trkpt lat="42.77433" lon="0.48014">
        <ele>1652.16</ele>
        <time>2013-01-13T13:49:32Z</time>
      </trkpt>
      <trkpt lat="42.77438" lon="0.48011">
        <ele>1652.16</ele>
        <time>2013-01-13T13:49:37Z</time>
      </trkpt>
      <trkpt lat="42.77441" lon="0.4801">
        <ele>1652.16</ele>
        <time>2013-01-13T13:49:42Z</time>
      </trkpt>
      <trkpt lat="42.77442" lon="0.48009">
        <ele>1651.68</ele>
        <time>2013-01-13T13:49:44Z</time>
      </trkpt>
      <trkpt lat="42.77454" lon="0.48004">
        <ele>1651.68</ele>
        <time>2013-01-13T13:49:57Z</time>
      </trkpt>
      <trkpt lat="42.77462" lon="0.48001">
        <ele>1650.72</ele>
        <time>2013-01-13T13:50:04Z</time>
      </trkpt>
      <trkpt lat="42.77469" lon="0.48001">
        <ele>1650.72</ele>
        <time>2013-01-13T13:50:13Z</time>
      </trkpt>
      <trkpt lat="42.77473" lon="0.47999">
        <ele>1650.72</ele>
        <time>2013-01-13T13:50:18Z</time>
      </trkpt>
      <trkpt lat="42.77481" lon="0.47999">
        <ele>1650.24</ele>
        <time>2013-01-13T13:50:24Z</time>
      </trkpt>
      <trkpt lat="42.77492" lon="0.47999">
        <ele>1649.28</ele>
        <time>2013-01-13T13:50:33Z</time>
      </trkpt>
      <trkpt lat="42.77501" lon="0.48">
        <ele>1648.32</ele>
        <time>2013-01-13T13:50:40Z</time>
      </trkpt>
      <trkpt lat="42.7751" lon="0.47998">
        <ele>1647.36</ele>
        <time>2013-01-13T13:50:48Z</time>
      </trkpt>
      <trkpt lat="42.77519" lon="0.47998">
        <ele>1646.88</ele>
        <time>2013-01-13T13:50:55Z</time>
      </trkpt>
      <trkpt lat="42.77528" lon="0.47997">
        <ele>1646.4</ele>
        <time>2013-01-13T13:51:04Z</time>
      </trkpt>
      <trkpt lat="42.77528" lon="0.47999">
        <ele>1645.91</ele>
        <time>2013-01-13T13:51:06Z</time>
      </trkpt>
      <trkpt lat="42.77528" lon="0.48009">
        <ele>1645.43</ele>
        <time>2013-01-13T13:51:13Z</time>
      </trkpt>
      <trkpt lat="42.7753" lon="0.4802">
        <ele>1642.07</ele>
        <time>2013-01-13T13:51:21Z</time>
      </trkpt>
      <trkpt lat="42.7753" lon="0.48023">
        <ele>1642.07</ele>
        <time>2013-01-13T13:51:23Z</time>
      </trkpt>
      <trkpt lat="42.77531" lon="0.4803">
        <ele>1640.15</ele>
        <time>2013-01-13T13:51:27Z</time>
      </trkpt>
      <trkpt lat="42.77533" lon="0.48033">
        <ele>1638.7</ele>
        <time>2013-01-13T13:51:30Z</time>
      </trkpt>
      <trkpt lat="42.77535" lon="0.48038">
        <ele>1638.22</ele>
        <time>2013-01-13T13:51:34Z</time>
      </trkpt>
      <trkpt lat="42.77537" lon="0.48041">
        <ele>1636.3</ele>
        <time>2013-01-13T13:51:36Z</time>
      </trkpt>
      <trkpt lat="42.77539" lon="0.48046">
        <ele>1635.34</ele>
        <time>2013-01-13T13:51:40Z</time>
      </trkpt>
      <trkpt lat="42.77542" lon="0.4805">
        <ele>1634.86</ele>
        <time>2013-01-13T13:51:45Z</time>
      </trkpt>
      <trkpt lat="42.77544" lon="0.48049">
        <ele>1633.9</ele>
        <time>2013-01-13T13:51:48Z</time>
      </trkpt>
      <trkpt lat="42.77546" lon="0.48047">
        <ele>1633.9</ele>
        <time>2013-01-13T13:51:50Z</time>
      </trkpt>
      <trkpt lat="42.77551" lon="0.48046">
        <ele>1631.98</ele>
        <time>2013-01-13T13:51:55Z</time>
      </trkpt>
      <trkpt lat="42.77554" lon="0.48045">
        <ele>1630.53</ele>
        <time>2013-01-13T13:51:58Z</time>
      </trkpt>
      <trkpt lat="42.77556" lon="0.48045">
        <ele>1629.57</ele>
        <time>2013-01-13T13:52:00Z</time>
      </trkpt>
      <trkpt lat="42.77557" lon="0.48045">
        <ele>1629.57</ele>
        <time>2013-01-13T13:52:02Z</time>
      </trkpt>
      <trkpt lat="42.77567" lon="0.48047">
        <ele>1626.21</ele>
        <time>2013-01-13T13:52:12Z</time>
      </trkpt>
      <trkpt lat="42.77579" lon="0.48042">
        <ele>1623.8</ele>
        <time>2013-01-13T13:52:22Z</time>
      </trkpt>
      <trkpt lat="42.77586" lon="0.48038">
        <ele>1622.84</ele>
        <time>2013-01-13T13:52:27Z</time>
      </trkpt>
      <trkpt lat="42.77591" lon="0.48032">
        <ele>1620.44</ele>
        <time>2013-01-13T13:52:32Z</time>
      </trkpt>
      <trkpt lat="42.77597" lon="0.4802">
        <ele>1619</ele>
        <time>2013-01-13T13:52:41Z</time>
      </trkpt>
      <trkpt lat="42.77605" lon="0.48015">
        <ele>1617.56</ele>
        <time>2013-01-13T13:52:47Z</time>
      </trkpt>
      <trkpt lat="42.77605" lon="0.48012">
        <ele>1617.56</ele>
        <time>2013-01-13T13:52:49Z</time>
      </trkpt>
      <trkpt lat="42.77607" lon="0.48007">
        <ele>1616.59</ele>
        <time>2013-01-13T13:52:53Z</time>
      </trkpt>
      <trkpt lat="42.77609" lon="0.48005">
        <ele>1615.63</ele>
        <time>2013-01-13T13:52:55Z</time>
      </trkpt>
      <trkpt lat="42.77616" lon="0.47998">
        <ele>1614.67</ele>
        <time>2013-01-13T13:53:02Z</time>
      </trkpt>
      <trkpt lat="42.77619" lon="0.47992">
        <ele>1612.75</ele>
        <time>2013-01-13T13:53:08Z</time>
      </trkpt>
      <trkpt lat="42.77619" lon="0.47989">
        <ele>1611.79</ele>
        <time>2013-01-13T13:53:11Z</time>
      </trkpt>
      <trkpt lat="42.77625" lon="0.47986">
        <ele>1610.35</ele>
        <time>2013-01-13T13:53:16Z</time>
      </trkpt>
      <trkpt lat="42.77628" lon="0.47985">
        <ele>1609.38</ele>
        <time>2013-01-13T13:53:20Z</time>
      </trkpt>
      <trkpt lat="42.77635" lon="0.47982">
        <ele>1606.98</ele>
        <time>2013-01-13T13:53:27Z</time>
      </trkpt>
      <trkpt lat="42.77641" lon="0.47976">
        <ele>1603.62</ele>
        <time>2013-01-13T13:53:36Z</time>
      </trkpt>
      <trkpt lat="42.77644" lon="0.47975">
        <ele>1602.17</ele>
        <time>2013-01-13T13:53:40Z</time>
      </trkpt>
      <trkpt lat="42.77652" lon="0.47973">
        <ele>1600.25</ele>
        <time>2013-01-13T13:53:46Z</time>
      </trkpt>
      <trkpt lat="42.77663" lon="0.47974">
        <ele>1596.89</ele>
        <time>2013-01-13T13:53:54Z</time>
      </trkpt>
      <trkpt lat="42.77663" lon="0.47974">
        <ele>1596.89</ele>
        <time>2013-01-13T13:53:55Z</time>
      </trkpt>
      <trkpt lat="42.77671" lon="0.47975">
        <ele>1594</ele>
        <time>2013-01-13T13:54:02Z</time>
      </trkpt>
      <trkpt lat="42.77676" lon="0.47977">
        <ele>1592.56</ele>
        <time>2013-01-13T13:54:05Z</time>
      </trkpt>
      <trkpt lat="42.77686" lon="0.47983">
        <ele>1589.2</ele>
        <time>2013-01-13T13:54:13Z</time>
      </trkpt>
      <trkpt lat="42.77691" lon="0.47983">
        <ele>1587.75</ele>
        <time>2013-01-13T13:54:16Z</time>
      </trkpt>
      <trkpt lat="42.77696" lon="0.47985">
        <ele>1586.31</ele>
        <time>2013-01-13T13:54:20Z</time>
      </trkpt>
      <trkpt lat="42.77702" lon="0.47987">
        <ele>1582.47</ele>
        <time>2013-01-13T13:54:27Z</time>
      </trkpt>
      <trkpt lat="42.77706" lon="0.47988">
        <ele>1580.54</ele>
        <time>2013-01-13T13:54:32Z</time>
      </trkpt>
      <trkpt lat="42.77708" lon="0.47989">
        <ele>1579.58</ele>
        <time>2013-01-13T13:54:47Z</time>
      </trkpt>
      <trkpt lat="42.77709" lon="0.47989">
        <ele>1579.58</ele>
        <time>2013-01-13T13:55:04Z</time>
      </trkpt>
      <trkpt lat="42.77709" lon="0.47989">
        <ele>1580.54</ele>
        <time>2013-01-13T13:55:12Z</time>
      </trkpt>
      <trkpt lat="42.77711" lon="0.4799">
        <ele>1579.1</ele>
        <time>2013-01-13T13:55:14Z</time>
      </trkpt>
      <trkpt lat="42.77714" lon="0.4799">
        <ele>1577.66</ele>
        <time>2013-01-13T13:55:17Z</time>
      </trkpt>
      <trkpt lat="42.77716" lon="0.47991">
        <ele>1577.66</ele>
        <time>2013-01-13T13:55:19Z</time>
      </trkpt>
      <trkpt lat="42.77718" lon="0.47993">
        <ele>1576.22</ele>
        <time>2013-01-13T13:55:22Z</time>
      </trkpt>
      <trkpt lat="42.77723" lon="0.47994">
        <ele>1572.85</ele>
        <time>2013-01-13T13:55:27Z</time>
      </trkpt>
      <trkpt lat="42.77724" lon="0.47995">
        <ele>1572.85</ele>
        <time>2013-01-13T13:55:28Z</time>
      </trkpt>
      <trkpt lat="42.77729" lon="0.48002">
        <ele>1569.49</ele>
        <time>2013-01-13T13:55:35Z</time>
      </trkpt>
      <trkpt lat="42.77733" lon="0.48007">
        <ele>1569.01</ele>
        <time>2013-01-13T13:55:39Z</time>
      </trkpt>
      <trkpt lat="42.7774" lon="0.48006">
        <ele>1566.61</ele>
        <time>2013-01-13T13:55:46Z</time>
      </trkpt>
      <trkpt lat="42.77744" lon="0.48005">
        <ele>1565.16</ele>
        <time>2013-01-13T13:55:50Z</time>
      </trkpt>
      <trkpt lat="42.7775" lon="0.48005">
        <ele>1563.24</ele>
        <time>2013-01-13T13:55:56Z</time>
      </trkpt>
      <trkpt lat="42.77763" lon="0.48008">
        <ele>1559.4</ele>
        <time>2013-01-13T13:56:09Z</time>
      </trkpt>
      <trkpt lat="42.77771" lon="0.48008">
        <ele>1558.43</ele>
        <time>2013-01-13T13:56:16Z</time>
      </trkpt>
      <trkpt lat="42.77779" lon="0.4801">
        <ele>1556.51</ele>
        <time>2013-01-13T13:56:24Z</time>
      </trkpt>
      <trkpt lat="42.77792" lon="0.48013">
        <ele>1554.59</ele>
        <time>2013-01-13T13:56:38Z</time>
      </trkpt>
      <trkpt lat="42.77808" lon="0.48015">
        <ele>1551.71</ele>
        <time>2013-01-13T13:56:53Z</time>
      </trkpt>
      <trkpt lat="42.77816" lon="0.48019">
        <ele>1550.26</ele>
        <time>2013-01-13T13:57:07Z</time>
      </trkpt>
      <trkpt lat="42.77817" lon="0.48019">
        <ele>1549.78</ele>
        <time>2013-01-13T13:57:09Z</time>
      </trkpt>
      <trkpt lat="42.77827" lon="0.48021">
        <ele>1546.9</ele>
        <time>2013-01-13T13:57:22Z</time>
      </trkpt>
      <trkpt lat="42.77832" lon="0.48023">
        <ele>1545.46</ele>
        <time>2013-01-13T13:57:29Z</time>
      </trkpt>
      <trkpt lat="42.77835" lon="0.48025">
        <ele>1543.53</ele>
        <time>2013-01-13T13:57:32Z</time>
      </trkpt>
      <trkpt lat="42.7784" lon="0.48028">
        <ele>1542.09</ele>
        <time>2013-01-13T13:57:36Z</time>
      </trkpt>
      <trkpt lat="42.77847" lon="0.48028">
        <ele>1538.73</ele>
        <time>2013-01-13T13:57:44Z</time>
      </trkpt>
      <trkpt lat="42.7785" lon="0.48028">
        <ele>1538.73</ele>
        <time>2013-01-13T13:57:47Z</time>
      </trkpt>
      <trkpt lat="42.77853" lon="0.48026">
        <ele>1536.8</ele>
        <time>2013-01-13T13:57:51Z</time>
      </trkpt>
      <trkpt lat="42.77856" lon="0.48027">
        <ele>1535.84</ele>
        <time>2013-01-13T13:57:55Z</time>
      </trkpt>
      <trkpt lat="42.7786" lon="0.48028">
        <ele>1533.92</ele>
        <time>2013-01-13T13:57:59Z</time>
      </trkpt>
      <trkpt lat="42.77861" lon="0.4803">
        <ele>1533.44</ele>
        <time>2013-01-13T13:58:01Z</time>
      </trkpt>
      <trkpt lat="42.77865" lon="0.48034">
        <ele>1532.48</ele>
        <time>2013-01-13T13:58:09Z</time>
      </trkpt>
      <trkpt lat="42.77867" lon="0.48035">
        <ele>1532.96</ele>
        <time>2013-01-13T13:58:11Z</time>
      </trkpt>
      <trkpt lat="42.77869" lon="0.48035">
        <ele>1532.48</ele>
        <time>2013-01-13T13:58:13Z</time>
      </trkpt>
      <trkpt lat="42.77879" lon="0.48037">
        <ele>1532</ele>
        <time>2013-01-13T13:58:24Z</time>
      </trkpt>
      <trkpt lat="42.77882" lon="0.48035">
        <ele>1532</ele>
        <time>2013-01-13T13:58:28Z</time>
      </trkpt>
      <trkpt lat="42.77889" lon="0.48034">
        <ele>1531.04</ele>
        <time>2013-01-13T13:58:36Z</time>
      </trkpt>
      <trkpt lat="42.77892" lon="0.48034">
        <ele>1530.56</ele>
        <time>2013-01-13T13:58:38Z</time>
      </trkpt>
      <trkpt lat="42.77905" lon="0.4803">
        <ele>1528.63</ele>
        <time>2013-01-13T13:58:50Z</time>
      </trkpt>
      <trkpt lat="42.77907" lon="0.48031">
        <ele>1527.67</ele>
        <time>2013-01-13T13:58:52Z</time>
      </trkpt>
      <trkpt lat="42.7791" lon="0.48033">
        <ele>1527.19</ele>
        <time>2013-01-13T13:58:56Z</time>
      </trkpt>
      <trkpt lat="42.77913" lon="0.48036">
        <ele>1526.23</ele>
        <time>2013-01-13T13:58:59Z</time>
      </trkpt>
      <trkpt lat="42.77915" lon="0.48039">
        <ele>1525.75</ele>
        <time>2013-01-13T13:59:02Z</time>
      </trkpt>
      <trkpt lat="42.77918" lon="0.48042">
        <ele>1525.27</ele>
        <time>2013-01-13T13:59:06Z</time>
      </trkpt>
      <trkpt lat="42.7792" lon="0.48053">
        <ele>1525.75</ele>
        <time>2013-01-13T13:59:19Z</time>
      </trkpt>
      <trkpt lat="42.7792" lon="0.48056">
        <ele>1525.75</ele>
        <time>2013-01-13T13:59:30Z</time>
      </trkpt>
      <trkpt lat="42.7792" lon="0.48056">
        <ele>1525.75</ele>
        <time>2013-01-13T13:59:46Z</time>
      </trkpt>
      <trkpt lat="42.7792" lon="0.48056">
        <ele>1525.27</ele>
        <time>2013-01-13T14:00:12Z</time>
      </trkpt>
      <trkpt lat="42.7792" lon="0.48057">
        <ele>1538.25</ele>
        <time>2013-01-13T14:00:23Z</time>
      </trkpt>
      <trkpt lat="42.7792" lon="0.48057">
        <ele>1525.27</ele>
        <time>2013-01-13T14:00:24Z</time>
      </trkpt>
      <trkpt lat="42.7792" lon="0.48057">
        <ele>1524.31</ele>
        <time>2013-01-13T14:00:28Z</time>
      </trkpt>
      <trkpt lat="42.7792" lon="0.48057">
        <ele>1524.31</ele>
        <time>2013-01-13T14:00:34Z</time>
      </trkpt>
    </trkseg>
  </trk>
</gpx>